Time,TemperatureF,DewpointF,PressureIn,WindDirection,WindDirectionDegrees,WindSpeedMPH,WindSpeedGustMPH,Humidity,HourlyPrecipIn,Conditions,Clouds,dailyrainin,SoftwareType,DateUTC
2013-02-17 00:00:00,15.3,10.8,29.18,ENE,66,4.0,4.0,82,0.00,,,0.00,VWS V14.01,2013-02-17 05:00:00,
2013-02-17 00:01:00,15.3,10.8,29.18,NE,56,3.1,4.0,82,0.00,,,0.00,VWS V14.01,2013-02-17 05:01:00,
2013-02-17 00:02:00,15.3,10.8,29.18,NE,56,3.1,3.1,82,0.00,,,0.00,VWS V14.01,2013-02-17 05:02:00,
2013-02-17 00:03:00,15.3,10.8,29.18,NE,56,3.1,3.1,82,0.00,,,0.00,VWS V14.01,2013-02-17 05:03:00,
2013-02-17 00:04:00,15.3,10.8,29.18,NE,55,3.1,3.1,82,0.00,,,0.00,VWS V14.01,2013-02-17 05:04:00,
2013-02-17 00:05:00,15.3,10.8,29.18,NE,55,2.7,3.1,82,0.00,,,0.00,VWS V14.01,2013-02-17 05:05:00,
2013-02-17 00:06:00,15.3,10.8,29.20,NE,55,2.7,2.7,82,0.00,,,0.00,VWS V14.01,2013-02-17 05:06:00,
2013-02-17 00:07:00,15.3,11.0,29.20,NE,55,2.7,2.7,83,0.00,,,0.00,VWS V14.01,2013-02-17 05:07:00,
2013-02-17 00:08:00,15.3,11.0,29.20,NNE,33,7.2,7.2,83,0.00,,,0.00,VWS V14.01,2013-02-17 05:08:00,
2013-02-17 00:09:00,15.3,11.0,29.20,NNE,33,7.2,7.2,83,0.00,,,0.00,VWS V14.01,2013-02-17 05:09:00,
2013-02-17 00:10:00,15.3,11.0,29.21,NE,54,5.8,5.8,83,0.00,,,0.00,VWS V14.01,2013-02-17 05:10:00,
2013-02-17 00:11:00,15.3,11.0,29.20,NE,44,4.9,5.8,83,0.00,,,0.00,VWS V14.01,2013-02-17 05:11:00,
2013-02-17 00:12:00,15.3,11.0,29.20,ENE,62,5.8,5.8,83,0.00,,,0.00,VWS V14.01,2013-02-17 05:12:00,
2013-02-17 00:13:00,15.3,11.0,29.20,ENE,62,5.8,5.8,83,0.00,,,0.00,VWS V14.01,2013-02-17 05:13:00,
2013-02-17 00:14:00,15.3,11.0,29.20,NE,54,3.6,5.8,83,0.00,,,0.00,VWS V14.01,2013-02-17 05:14:00,
2013-02-17 00:15:00,15.3,11.0,29.21,NNE,21,4.0,4.0,83,0.00,,,0.00,VWS V14.01,2013-02-17 05:15:00,
2013-02-17 00:16:00,15.1,10.9,29.20,NNE,21,4.0,4.0,83,0.00,,,0.00,VWS V14.01,2013-02-17 05:16:00,
2013-02-17 00:17:00,15.1,10.9,29.20,NNE,33,2.7,4.0,83,0.00,,,0.00,VWS V14.01,2013-02-17 05:17:00,
2013-02-17 00:18:00,15.1,10.9,29.20,NNE,33,2.7,2.7,83,0.00,,,0.00,VWS V14.01,2013-02-17 05:18:00,
2013-02-17 00:19:00,15.1,10.9,29.20,NNE,33,2.7,2.7,83,0.00,,,0.00,VWS V14.01,2013-02-17 05:19:00,
2013-02-17 00:20:00,15.1,10.9,29.21,NNE,18,5.4,5.4,83,0.00,,,0.00,VWS V14.01,2013-02-17 05:20:00,
2013-02-17 00:21:00,15.1,10.9,29.20,NNE,18,5.4,5.4,83,0.00,,,0.00,VWS V14.01,2013-02-17 05:21:00,
2013-02-17 00:22:00,15.1,10.9,29.20,NE,38,2.7,5.8,83,0.00,,,0.00,VWS V14.01,2013-02-17 05:22:00,
2013-02-17 00:23:00,15.1,10.9,29.20,NE,38,2.7,2.7,83,0.00,,,0.00,VWS V14.01,2013-02-17 05:23:00,
2013-02-17 00:24:00,15.1,10.9,29.20,NNE,23,3.1,3.1,83,0.00,,,0.00,VWS V14.01,2013-02-17 05:24:00,
2013-02-17 00:25:00,15.1,10.9,29.21,NNE,23,3.1,3.1,83,0.00,,,0.00,VWS V14.01,2013-02-17 05:25:00,
2013-02-17 00:26:00,15.1,10.9,29.20,NNE,23,3.1,3.1,83,0.00,,,0.00,VWS V14.01,2013-02-17 05:26:00,
2013-02-17 00:27:00,15.1,10.9,29.20,NNE,23,3.1,3.1,83,0.00,,,0.00,VWS V14.01,2013-02-17 05:27:00,
2013-02-17 00:28:00,15.1,10.9,29.20,NNE,23,3.1,3.1,83,0.00,,,0.00,VWS V14.01,2013-02-17 05:28:00,
2013-02-17 00:29:00,15.1,10.9,29.20,NE,42,3.1,3.1,83,0.00,,,0.00,VWS V14.01,2013-02-17 05:29:00,
2013-02-17 00:30:00,15.1,10.9,29.21,NNE,24,5.4,5.4,83,0.00,,,0.00,VWS V14.01,2013-02-17 05:30:00,
2013-02-17 00:31:00,15.1,10.9,29.20,NNE,24,5.4,5.4,83,0.00,,,0.00,VWS V14.01,2013-02-17 05:31:00,
2013-02-17 00:32:00,15.1,10.9,29.20,NNE,24,5.4,5.4,83,0.00,,,0.00,VWS V14.01,2013-02-17 05:32:00,
2013-02-17 00:33:00,15.1,10.9,29.20,NNE,24,5.4,5.4,83,0.00,,,0.00,VWS V14.01,2013-02-17 05:33:00,
2013-02-17 00:34:00,15.1,10.9,29.20,NNE,24,5.4,5.4,83,0.00,,,0.00,VWS V14.01,2013-02-17 05:34:00,
2013-02-17 00:35:00,15.1,10.9,29.21,NE,41,3.1,4.0,83,0.00,,,0.00,VWS V14.01,2013-02-17 05:35:00,
2013-02-17 00:36:00,15.1,10.9,29.20,NE,41,3.1,4.0,83,0.00,,,0.00,VWS V14.01,2013-02-17 05:36:00,
2013-02-17 00:37:00,15.1,10.9,29.20,NE,43,3.6,3.6,83,0.00,,,0.00,VWS V14.01,2013-02-17 05:37:00,
2013-02-17 00:38:00,15.1,10.9,29.20,NE,43,3.6,3.6,83,0.00,,,0.00,VWS V14.01,2013-02-17 05:38:00,
2013-02-17 00:39:00,15.1,10.9,29.20,NE,42,6.3,6.3,83,0.00,,,0.00,VWS V14.01,2013-02-17 05:39:00,
2013-02-17 00:40:00,14.9,10.9,29.21,NE,42,6.3,6.3,84,0.00,,,0.00,VWS V14.01,2013-02-17 05:40:00,
2013-02-17 00:41:00,14.9,10.9,29.21,NE,42,6.3,6.3,84,0.00,,,0.00,VWS V14.01,2013-02-17 05:41:00,
2013-02-17 00:42:00,14.9,10.9,29.20,NE,42,6.3,6.3,84,0.00,,,0.00,VWS V14.01,2013-02-17 05:42:00,
2013-02-17 00:43:00,14.9,10.9,29.20,NE,35,3.6,6.3,84,0.00,,,0.00,VWS V14.01,2013-02-17 05:43:00,
2013-02-17 00:44:00,14.9,10.9,29.20,NE,35,3.1,3.6,84,0.00,,,0.00,VWS V14.01,2013-02-17 05:44:00,
2013-02-17 00:45:00,14.9,10.9,29.21,NE,35,3.1,3.1,84,0.00,,,0.00,VWS V14.01,2013-02-17 05:45:00,
2013-02-17 00:46:00,14.9,10.9,29.21,NNE,28,3.1,3.1,84,0.00,,,0.00,VWS V14.01,2013-02-17 05:46:00,
2013-02-17 00:47:00,14.9,10.9,29.20,NNE,28,3.1,3.1,84,0.00,,,0.00,VWS V14.01,2013-02-17 05:47:00,
2013-02-17 00:48:00,14.9,10.9,29.20,NNE,33,3.6,3.6,84,0.00,,,0.00,VWS V14.01,2013-02-17 05:48:00,
2013-02-17 00:49:00,14.9,10.9,29.20,NNE,33,3.6,3.6,84,0.00,,,0.00,VWS V14.01,2013-02-17 05:49:00,
2013-02-17 00:50:00,14.9,10.9,29.21,NNE,23,3.6,3.6,84,0.00,,,0.00,VWS V14.01,2013-02-17 05:50:00,
2013-02-17 00:51:00,14.9,10.9,29.21,NNE,23,3.6,3.6,84,0.00,,,0.00,VWS V14.01,2013-02-17 05:51:00,
2013-02-17 00:52:00,14.9,10.9,29.20,NNE,23,3.6,3.6,84,0.00,,,0.00,VWS V14.01,2013-02-17 05:52:00,
2013-02-17 00:53:00,14.9,10.9,29.20,NNE,23,3.6,3.6,84,0.00,,,0.00,VWS V14.01,2013-02-17 05:53:00,
2013-02-17 00:54:00,14.9,10.9,29.20,NNE,23,3.6,3.6,84,0.00,,,0.00,VWS V14.01,2013-02-17 05:54:00,
2013-02-17 00:55:00,14.9,10.9,29.21,NNE,30,4.0,4.0,84,0.00,,,0.00,VWS V14.01,2013-02-17 05:55:00,
2013-02-17 00:56:00,14.9,10.9,29.21,NNE,30,4.0,4.0,84,0.00,,,0.00,VWS V14.01,2013-02-17 05:56:00,
2013-02-17 00:57:00,14.9,10.9,29.20,NE,37,3.6,4.0,84,0.00,,,0.00,VWS V14.01,2013-02-17 05:57:00,
2013-02-17 00:58:00,14.9,10.9,29.20,NE,37,3.6,3.6,84,0.00,,,0.00,VWS V14.01,2013-02-17 05:58:00,
2013-02-17 00:59:00,14.9,10.9,29.20,NE,37,3.6,3.6,84,0.00,,,0.00,VWS V14.01,2013-02-17 05:59:00,
2013-02-17 01:00:00,14.9,11.2,29.21,NE,37,3.6,3.6,85,0.00,,,0.00,VWS V14.01,2013-02-17 06:00:00,
2013-02-17 01:01:00,14.9,11.2,29.21,NE,37,3.6,3.6,85,0.00,,,0.00,VWS V14.01,2013-02-17 06:01:00,
2013-02-17 01:02:00,14.9,11.2,29.20,NE,39,3.6,3.6,85,0.00,,,0.00,VWS V14.01,2013-02-17 06:02:00,
2013-02-17 01:03:00,14.7,11.0,29.20,NNE,15,4.0,4.0,85,0.00,,,0.00,VWS V14.01,2013-02-17 06:03:00,
2013-02-17 01:04:00,14.7,11.0,29.20,NNE,15,4.0,4.0,85,0.00,,,0.00,VWS V14.01,2013-02-17 06:04:00,
2013-02-17 01:05:00,14.7,11.0,29.20,NNE,15,4.0,4.0,85,0.00,,,0.00,VWS V14.01,2013-02-17 06:05:00,
2013-02-17 01:06:00,14.7,11.0,29.21,NNE,15,4.0,4.0,85,0.00,,,0.00,VWS V14.01,2013-02-17 06:06:00,
2013-02-17 01:07:00,14.7,11.0,29.20,NNE,15,4.0,4.0,85,0.00,,,0.00,VWS V14.01,2013-02-17 06:07:00,
2013-02-17 01:08:00,14.7,11.0,29.20,NNE,15,4.0,4.0,85,0.00,,,0.00,VWS V14.01,2013-02-17 06:08:00,
2013-02-17 01:09:00,14.7,11.0,29.20,NNE,15,4.0,4.0,85,0.00,,,0.00,VWS V14.01,2013-02-17 06:09:00,
2013-02-17 01:10:00,14.7,11.0,29.20,NE,46,3.1,4.0,85,0.00,,,0.00,VWS V14.01,2013-02-17 06:10:00,
2013-02-17 01:11:00,14.7,11.0,29.21,NE,36,2.7,3.1,85,0.00,,,0.00,VWS V14.01,2013-02-17 06:11:00,
2013-02-17 01:12:00,14.7,11.3,29.20,North,11,3.1,3.1,86,0.00,,,0.00,VWS V14.01,2013-02-17 06:12:00,
2013-02-17 01:13:00,14.7,11.3,29.20,North,11,3.1,3.1,86,0.00,,,0.00,VWS V14.01,2013-02-17 06:13:00,
2013-02-17 01:14:00,14.7,11.3,29.20,North,7,2.2,3.1,86,0.00,,,0.00,VWS V14.01,2013-02-17 06:14:00,
2013-02-17 01:15:00,14.7,11.3,29.20,NNE,17,4.0,4.0,86,0.00,,,0.00,VWS V14.01,2013-02-17 06:15:00,
2013-02-17 01:16:00,14.5,11.1,29.21,NNE,17,4.0,4.0,86,0.00,,,0.00,VWS V14.01,2013-02-17 06:16:00,
2013-02-17 01:17:00,14.5,11.1,29.20,North,357,4.0,4.0,86,0.00,,,0.00,VWS V14.01,2013-02-17 06:17:00,
2013-02-17 01:18:00,14.5,11.1,29.20,North,357,4.0,4.0,86,0.00,,,0.00,VWS V14.01,2013-02-17 06:18:00,
2013-02-17 01:19:00,14.5,11.1,29.20,North,357,4.0,4.0,86,0.00,,,0.00,VWS V14.01,2013-02-17 06:19:00,
2013-02-17 01:20:00,14.5,11.1,29.20,North,357,4.0,4.0,86,0.00,,,0.00,VWS V14.01,2013-02-17 06:20:00,
2013-02-17 01:21:00,14.5,11.1,29.21,North,357,4.0,4.0,86,0.00,,,0.00,VWS V14.01,2013-02-17 06:21:00,
2013-02-17 01:22:00,14.5,11.1,29.20,North,357,4.0,4.0,86,0.00,,,0.00,VWS V14.01,2013-02-17 06:22:00,
2013-02-17 01:23:00,14.5,11.1,29.20,NE,39,3.1,4.0,86,0.00,,,0.00,VWS V14.01,2013-02-17 06:23:00,
2013-02-17 01:24:00,14.4,10.7,29.20,North,5,4.0,4.0,85,0.00,,,0.00,VWS V14.01,2013-02-17 06:24:00,
2013-02-17 01:25:00,14.4,10.7,29.20,NNE,31,3.6,4.0,85,0.00,,,0.00,VWS V14.01,2013-02-17 06:25:00,
2013-02-17 01:26:00,14.4,10.7,29.21,NNE,31,3.6,3.6,85,0.00,,,0.00,VWS V14.01,2013-02-17 06:26:00,
2013-02-17 01:27:00,14.4,10.7,29.20,North,9,3.1,3.6,85,0.00,,,0.00,VWS V14.01,2013-02-17 06:27:00,
2013-02-17 01:28:00,14.4,10.7,29.20,North,10,2.7,3.6,85,0.00,,,0.00,VWS V14.01,2013-02-17 06:28:00,
2013-02-17 01:29:00,14.4,10.7,29.20,NE,38,3.1,3.1,85,0.00,,,0.00,VWS V14.01,2013-02-17 06:29:00,
2013-02-17 01:30:00,14.4,10.7,29.20,NNE,24,3.1,3.1,85,0.00,,,0.00,VWS V14.01,2013-02-17 06:30:00,
2013-02-17 01:31:00,14.4,10.7,29.21,NE,43,4.0,4.0,85,0.00,,,0.00,VWS V14.01,2013-02-17 06:31:00,
2013-02-17 01:32:00,14.4,10.7,29.20,NE,43,4.0,4.0,85,0.00,,,0.00,VWS V14.01,2013-02-17 06:32:00,
2013-02-17 01:33:00,14.4,10.7,29.20,NE,43,4.0,4.0,85,0.00,,,0.00,VWS V14.01,2013-02-17 06:33:00,
2013-02-17 01:34:00,14.4,10.7,29.20,NE,43,4.0,4.0,85,0.00,,,0.00,VWS V14.01,2013-02-17 06:34:00,
2013-02-17 01:35:00,14.4,10.7,29.20,NE,43,4.0,4.0,85,0.00,,,0.00,VWS V14.01,2013-02-17 06:35:00,
2013-02-17 01:36:00,14.4,10.7,29.21,NE,43,4.0,4.0,85,0.00,,,0.00,VWS V14.01,2013-02-17 06:36:00,
2013-02-17 01:37:00,14.4,10.7,29.20,NNE,18,3.6,4.0,85,0.00,,,0.00,VWS V14.01,2013-02-17 06:37:00,
2013-02-17 01:38:00,14.4,10.7,29.20,North,5,5.4,5.4,85,0.00,,,0.00,VWS V14.01,2013-02-17 06:38:00,
2013-02-17 01:39:00,14.4,10.7,29.18,North,6,4.0,5.4,85,0.00,,,0.00,VWS V14.01,2013-02-17 06:39:00,
2013-02-17 01:40:00,14.4,10.7,29.18,NNE,31,4.9,4.9,85,0.00,,,0.00,VWS V14.01,2013-02-17 06:40:00,
2013-02-17 01:41:00,14.2,10.5,29.18,North,4,3.1,3.1,85,0.00,,,0.00,VWS V14.01,2013-02-17 06:41:00,
2013-02-17 01:42:00,14.2,10.5,29.18,North,4,3.1,3.1,85,0.00,,,0.00,VWS V14.01,2013-02-17 06:42:00,
2013-02-17 01:43:00,14.2,10.5,29.18,North,4,3.1,3.1,85,0.00,,,0.00,VWS V14.01,2013-02-17 06:43:00,
2013-02-17 01:44:00,14.2,10.5,29.18,North,4,3.1,3.1,85,0.00,,,0.00,VWS V14.01,2013-02-17 06:44:00,
2013-02-17 01:45:00,14.2,10.5,29.18,North,4,3.1,3.1,85,0.00,,,0.00,VWS V14.01,2013-02-17 06:45:00,
2013-02-17 01:46:00,14.2,10.5,29.18,North,5,3.6,3.6,85,0.00,,,0.00,VWS V14.01,2013-02-17 06:46:00,
2013-02-17 01:47:00,14.2,10.5,29.18,North,5,3.6,3.6,85,0.00,,,0.00,VWS V14.01,2013-02-17 06:47:00,
2013-02-17 01:48:00,14.2,10.5,29.18,North,5,3.6,3.6,85,0.00,,,0.00,VWS V14.01,2013-02-17 06:48:00,
2013-02-17 01:49:00,14.2,10.5,29.18,North,11,5.8,5.8,85,0.00,,,0.00,VWS V14.01,2013-02-17 06:49:00,
2013-02-17 01:50:00,14.2,10.5,29.18,NNE,22,3.1,5.8,85,0.00,,,0.00,VWS V14.01,2013-02-17 06:50:00,
2013-02-17 01:51:00,14.2,10.5,29.18,NNE,22,3.1,3.1,85,0.00,,,0.00,VWS V14.01,2013-02-17 06:51:00,
2013-02-17 01:52:00,14.2,10.5,29.18,NNE,22,3.1,3.1,85,0.00,,,0.00,VWS V14.01,2013-02-17 06:52:00,
2013-02-17 01:53:00,14.2,10.5,29.20,North,11,4.9,4.9,85,0.00,,,0.00,VWS V14.01,2013-02-17 06:53:00,
2013-02-17 01:54:00,14.2,10.5,29.20,North,11,4.9,4.9,85,0.00,,,0.00,VWS V14.01,2013-02-17 06:54:00,
2013-02-17 01:55:00,14.2,10.5,29.20,NE,39,3.1,4.9,85,0.00,,,0.00,VWS V14.01,2013-02-17 06:55:00,
2013-02-17 01:56:00,14.2,10.5,29.20,NE,39,3.1,3.1,85,0.00,,,0.00,VWS V14.01,2013-02-17 06:56:00,
2013-02-17 01:57:00,14.2,10.5,29.21,NE,39,3.1,3.1,85,0.00,,,0.00,VWS V14.01,2013-02-17 06:57:00,
2013-02-17 01:58:00,14.2,10.5,29.20,NE,39,3.1,3.1,85,0.00,,,0.00,VWS V14.01,2013-02-17 06:58:00,
2013-02-17 01:59:00,14.2,10.5,29.20,NE,39,3.1,3.1,85,0.00,,,0.00,VWS V14.01,2013-02-17 06:59:00,
2013-02-17 02:00:00,14.2,10.5,29.20,NNE,21,5.4,5.4,85,0.00,,,0.00,VWS V14.01,2013-02-17 07:00:00,
2013-02-17 02:01:00,14.2,10.5,29.20,NNE,27,3.6,5.4,85,0.00,,,0.00,VWS V14.01,2013-02-17 07:01:00,
2013-02-17 02:02:00,14.2,10.5,29.21,NNE,27,3.6,3.6,85,0.00,,,0.00,VWS V14.01,2013-02-17 07:02:00,
2013-02-17 02:03:00,14.2,10.5,29.20,NE,47,3.6,3.6,85,0.00,,,0.00,VWS V14.01,2013-02-17 07:03:00,
2013-02-17 02:04:00,14.2,10.5,29.20,NE,47,3.6,3.6,85,0.00,,,0.00,VWS V14.01,2013-02-17 07:04:00,
2013-02-17 02:05:00,14.2,10.5,29.20,NE,47,3.6,3.6,85,0.00,,,0.00,VWS V14.01,2013-02-17 07:05:00,
2013-02-17 02:06:00,14.2,10.5,29.20,NNE,30,4.0,4.0,85,0.00,,,0.00,VWS V14.01,2013-02-17 07:06:00,
2013-02-17 02:07:00,14.2,10.5,29.21,NNE,30,4.0,4.0,85,0.00,,,0.00,VWS V14.01,2013-02-17 07:07:00,
2013-02-17 02:08:00,14.2,10.5,29.20,NE,37,2.7,4.0,85,0.00,,,0.00,VWS V14.01,2013-02-17 07:08:00,
2013-02-17 02:09:00,14.2,10.5,29.20,NE,37,2.7,2.7,85,0.00,,,0.00,VWS V14.01,2013-02-17 07:09:00,
2013-02-17 02:10:00,14.2,10.5,29.20,NE,37,2.7,2.7,85,0.00,,,0.00,VWS V14.01,2013-02-17 07:10:00,
2013-02-17 02:11:00,14.2,10.5,29.20,NE,37,2.7,2.7,85,0.00,,,0.00,VWS V14.01,2013-02-17 07:11:00,
2013-02-17 02:12:00,14.2,10.5,29.21,NE,37,2.7,2.7,85,0.00,,,0.00,VWS V14.01,2013-02-17 07:12:00,
2013-02-17 02:13:00,14.2,10.5,29.20,NE,37,2.7,2.7,85,0.00,,,0.00,VWS V14.01,2013-02-17 07:13:00,
2013-02-17 02:14:00,14.2,10.5,29.20,NNE,16,4.5,4.5,85,0.00,,,0.00,VWS V14.01,2013-02-17 07:14:00,
2013-02-17 02:15:00,14.2,10.5,29.20,NNE,16,4.5,4.5,85,0.00,,,0.00,VWS V14.01,2013-02-17 07:15:00,
2013-02-17 02:16:00,14.0,10.3,29.20,NNE,16,4.5,4.5,85,0.00,,,0.00,VWS V14.01,2013-02-17 07:16:00,
2013-02-17 02:17:00,14.0,10.3,29.21,NNE,31,3.1,3.1,85,0.00,,,0.00,VWS V14.01,2013-02-17 07:17:00,
2013-02-17 02:18:00,14.0,10.3,29.20,NNE,31,3.1,3.1,85,0.00,,,0.00,VWS V14.01,2013-02-17 07:18:00,
2013-02-17 02:19:00,14.0,10.3,29.20,NNE,31,3.1,3.1,85,0.00,,,0.00,VWS V14.01,2013-02-17 07:19:00,
2013-02-17 02:20:00,14.0,10.3,29.20,NNE,31,3.1,3.1,85,0.00,,,0.00,VWS V14.01,2013-02-17 07:20:00,
2013-02-17 02:21:00,14.0,10.3,29.20,North,5,5.4,5.4,85,0.00,,,0.00,VWS V14.01,2013-02-17 07:21:00,
2013-02-17 02:22:00,14.0,10.3,29.21,North,5,5.4,5.4,85,0.00,,,0.00,VWS V14.01,2013-02-17 07:22:00,
2013-02-17 02:23:00,14.0,10.3,29.21,NNE,27,2.7,5.4,85,0.00,,,0.00,VWS V14.01,2013-02-17 07:23:00,
2013-02-17 02:24:00,14.0,10.3,29.20,NNE,27,2.7,2.7,85,0.00,,,0.00,VWS V14.01,2013-02-17 07:24:00,
2013-02-17 02:25:00,14.0,10.1,29.20,NNE,27,2.7,2.7,84,0.00,,,0.00,VWS V14.01,2013-02-17 07:25:00,
2013-02-17 02:26:00,14.0,10.1,29.20,NNE,27,2.7,2.7,84,0.00,,,0.00,VWS V14.01,2013-02-17 07:26:00,
2013-02-17 02:27:00,14.0,10.1,29.21,NNE,27,2.7,2.7,84,0.00,,,0.00,VWS V14.01,2013-02-17 07:27:00,
2013-02-17 02:28:00,14.0,10.1,29.21,NNE,27,2.7,2.7,84,0.00,,,0.00,VWS V14.01,2013-02-17 07:28:00,
2013-02-17 02:29:00,14.0,10.1,29.20,NNE,27,2.7,2.7,84,0.00,,,0.00,VWS V14.01,2013-02-17 07:29:00,
2013-02-17 02:30:00,14.0,10.1,29.20,NNE,33,3.1,3.6,84,0.00,,,0.00,VWS V14.01,2013-02-17 07:30:00,
2013-02-17 02:31:00,14.0,10.1,29.20,NNE,33,3.1,3.1,84,0.00,,,0.00,VWS V14.01,2013-02-17 07:31:00,
2013-02-17 02:32:00,14.0,10.1,29.21,NE,38,3.1,3.1,84,0.00,,,0.00,VWS V14.01,2013-02-17 07:32:00,
2013-02-17 02:33:00,14.0,10.1,29.21,NE,38,3.1,3.1,84,0.00,,,0.00,VWS V14.01,2013-02-17 07:33:00,
2013-02-17 02:34:00,13.8,9.9,29.20,NNE,31,3.1,3.1,84,0.00,,,0.00,VWS V14.01,2013-02-17 07:34:00,
2013-02-17 02:35:00,13.8,9.9,29.20,NE,36,5.4,5.4,84,0.00,,,0.00,VWS V14.01,2013-02-17 07:35:00,
2013-02-17 02:36:00,13.8,9.9,29.20,North,0,2.2,5.4,84,0.00,,,0.00,VWS V14.01,2013-02-17 07:36:00,
2013-02-17 02:37:00,13.8,9.9,29.21,North,0,2.2,2.2,84,0.00,,,0.00,VWS V14.01,2013-02-17 07:37:00,
2013-02-17 02:38:00,13.8,9.9,29.21,North,0,2.2,2.2,84,0.00,,,0.00,VWS V14.01,2013-02-17 07:38:00,
2013-02-17 02:39:00,13.8,9.9,29.20,North,0,2.2,2.2,84,0.00,,,0.00,VWS V14.01,2013-02-17 07:39:00,
2013-02-17 02:40:00,13.8,9.9,29.20,NNE,25,3.1,3.1,84,0.00,,,0.00,VWS V14.01,2013-02-17 07:40:00,
2013-02-17 02:41:00,13.8,9.9,29.20,NNE,25,3.1,3.1,84,0.00,,,0.00,VWS V14.01,2013-02-17 07:41:00,
2013-02-17 02:42:00,13.8,9.9,29.21,NNE,25,3.1,3.1,84,0.00,,,0.00,VWS V14.01,2013-02-17 07:42:00,
2013-02-17 02:43:00,13.8,9.9,29.21,NNE,25,3.1,3.1,84,0.00,,,0.00,VWS V14.01,2013-02-17 07:43:00,
2013-02-17 02:44:00,13.8,9.9,29.20,North,357,4.9,4.9,84,0.00,,,0.00,VWS V14.01,2013-02-17 07:44:00,
2013-02-17 02:45:00,13.8,9.9,29.20,North,357,4.9,4.9,84,0.00,,,0.00,VWS V14.01,2013-02-17 07:45:00,
2013-02-17 02:46:00,13.8,9.9,29.20,North,357,4.9,4.9,84,0.00,,,0.00,VWS V14.01,2013-02-17 07:46:00,
2013-02-17 02:47:00,13.6,9.7,29.21,NNE,15,2.7,4.9,84,0.00,,,0.00,VWS V14.01,2013-02-17 07:47:00,
2013-02-17 02:48:00,13.6,9.7,29.21,NNE,15,2.7,4.9,84,0.00,,,0.00,VWS V14.01,2013-02-17 07:48:00,
2013-02-17 02:49:00,13.6,9.7,29.20,NNE,15,2.7,2.7,84,0.00,,,0.00,VWS V14.01,2013-02-17 07:49:00,
2013-02-17 02:50:00,13.6,9.7,29.20,NNE,15,2.7,2.7,84,0.00,,,0.00,VWS V14.01,2013-02-17 07:50:00,
2013-02-17 02:51:00,13.6,9.7,29.20,NNE,15,2.7,2.7,84,0.00,,,0.00,VWS V14.01,2013-02-17 07:51:00,
2013-02-17 02:52:00,13.6,9.7,29.20,NNE,15,2.7,2.7,84,0.00,,,0.00,VWS V14.01,2013-02-17 07:52:00,
2013-02-17 02:53:00,13.6,9.7,29.21,NNE,15,2.7,2.7,84,0.00,,,0.00,VWS V14.01,2013-02-17 07:53:00,
2013-02-17 02:54:00,13.6,9.7,29.20,NNE,15,2.7,2.7,84,0.00,,,0.00,VWS V14.01,2013-02-17 07:54:00,
2013-02-17 02:55:00,13.6,9.7,29.20,NNE,15,2.7,2.7,84,0.00,,,0.00,VWS V14.01,2013-02-17 07:55:00,
2013-02-17 02:56:00,13.6,9.7,29.20,NE,37,2.7,2.7,84,0.00,,,0.00,VWS V14.01,2013-02-17 07:56:00,
2013-02-17 02:57:00,13.6,9.7,29.20,North,11,5.4,5.4,84,0.00,,,0.00,VWS V14.01,2013-02-17 07:57:00,
2013-02-17 02:58:00,13.6,9.7,29.21,North,4,3.6,5.4,84,0.00,,,0.00,VWS V14.01,2013-02-17 07:58:00,
2013-02-17 02:59:00,13.6,9.7,29.20,North,4,3.6,3.6,84,0.00,,,0.00,VWS V14.01,2013-02-17 07:59:00,
2013-02-17 03:00:00,13.6,9.7,29.20,North,4,3.6,3.6,84,0.00,,,0.00,VWS V14.01,2013-02-17 08:00:00,
2013-02-17 03:01:00,13.6,9.7,29.20,NNE,33,3.6,3.6,84,0.00,,,0.00,VWS V14.01,2013-02-17 08:01:00,
2013-02-17 03:02:00,13.6,9.7,29.20,NNE,33,3.6,3.6,84,0.00,,,0.00,VWS V14.01,2013-02-17 08:02:00,
2013-02-17 03:03:00,13.6,9.7,29.21,NNE,33,3.6,3.6,84,0.00,,,0.00,VWS V14.01,2013-02-17 08:03:00,
2013-02-17 03:04:00,13.6,9.7,29.20,NNE,33,3.6,3.6,84,0.00,,,0.00,VWS V14.01,2013-02-17 08:04:00,
2013-02-17 03:05:00,13.6,9.7,29.20,NNE,33,3.6,3.6,84,0.00,,,0.00,VWS V14.01,2013-02-17 08:05:00,
2013-02-17 03:06:00,13.6,9.7,29.20,NE,34,4.0,4.0,84,0.00,,,0.00,VWS V14.01,2013-02-17 08:06:00,
2013-02-17 03:07:00,13.6,9.7,29.20,NE,34,4.0,4.0,84,0.00,,,0.00,VWS V14.01,2013-02-17 08:07:00,
2013-02-17 03:08:00,13.6,9.7,29.21,NE,34,4.0,4.0,84,0.00,,,0.00,VWS V14.01,2013-02-17 08:08:00,
2013-02-17 03:09:00,13.6,9.7,29.20,NNE,19,2.7,4.0,84,0.00,,,0.00,VWS V14.01,2013-02-17 08:09:00,
2013-02-17 03:10:00,13.5,9.5,29.20,NE,38,3.6,3.6,84,0.00,,,0.00,VWS V14.01,2013-02-17 08:10:00,
2013-02-17 03:11:00,13.5,9.5,29.20,NE,38,3.6,3.6,84,0.00,,,0.00,VWS V14.01,2013-02-17 08:11:00,
2013-02-17 03:12:00,13.5,9.5,29.20,NE,38,3.6,3.6,84,0.00,,,0.00,VWS V14.01,2013-02-17 08:12:00,
2013-02-17 03:13:00,13.5,9.5,29.21,NE,38,3.6,3.6,84,0.00,,,0.00,VWS V14.01,2013-02-17 08:13:00,
2013-02-17 03:14:00,13.5,9.5,29.20,NE,38,3.6,3.6,84,0.00,,,0.00,VWS V14.01,2013-02-17 08:14:00,
2013-02-17 03:15:00,13.5,9.5,29.20,NNE,22,3.1,3.6,84,0.00,,,0.00,VWS V14.01,2013-02-17 08:15:00,
2013-02-17 03:16:00,13.5,9.5,29.20,NNE,22,3.1,3.1,84,0.00,,,0.00,VWS V14.01,2013-02-17 08:16:00,
2013-02-17 03:17:00,13.5,9.5,29.20,NNE,22,3.1,3.1,84,0.00,,,0.00,VWS V14.01,2013-02-17 08:17:00,
2013-02-17 03:18:00,13.5,9.5,29.21,NNE,22,3.1,3.1,84,0.00,,,0.00,VWS V14.01,2013-02-17 08:18:00,
2013-02-17 03:19:00,13.5,9.5,29.20,NNE,22,3.1,3.1,84,0.00,,,0.00,VWS V14.01,2013-02-17 08:19:00,
2013-02-17 03:20:00,13.5,9.5,29.20,NNE,22,3.1,3.1,84,0.00,,,0.00,VWS V14.01,2013-02-17 08:20:00,
2013-02-17 03:21:00,13.5,9.5,29.20,NNE,22,3.1,3.1,84,0.00,,,0.00,VWS V14.01,2013-02-17 08:21:00,
2013-02-17 03:22:00,13.5,9.5,29.20,North,7,3.1,3.1,84,0.00,,,0.00,VWS V14.01,2013-02-17 08:22:00,
2013-02-17 03:23:00,13.5,9.5,29.21,NE,39,3.1,3.1,84,0.00,,,0.00,VWS V14.01,2013-02-17 08:23:00,
2013-02-17 03:24:00,13.5,9.5,29.20,NE,39,3.1,3.1,84,0.00,,,0.00,VWS V14.01,2013-02-17 08:24:00,
2013-02-17 03:25:00,13.5,9.5,29.20,NE,39,3.1,3.1,84,0.00,,,0.00,VWS V14.01,2013-02-17 08:25:00,
2013-02-17 03:26:00,13.5,9.5,29.20,NE,39,3.1,3.1,84,0.00,,,0.00,VWS V14.01,2013-02-17 08:26:00,
2013-02-17 03:27:00,13.5,9.5,29.20,NE,39,3.1,3.1,84,0.00,,,0.00,VWS V14.01,2013-02-17 08:27:00,
2013-02-17 03:28:00,13.5,9.5,29.21,NE,41,3.6,6.3,84,0.00,,,0.00,VWS V14.01,2013-02-17 08:28:00,
2013-02-17 03:29:00,13.5,9.5,29.21,NE,41,3.6,6.3,84,0.00,,,0.00,VWS V14.01,2013-02-17 08:29:00,
2013-02-17 03:30:00,13.5,9.5,29.20,NE,41,3.6,3.6,84,0.00,,,0.00,VWS V14.01,2013-02-17 08:30:00,
2013-02-17 03:31:00,13.5,9.5,29.20,NE,41,3.6,3.6,84,0.00,,,0.00,VWS V14.01,2013-02-17 08:31:00,
2013-02-17 03:32:00,13.5,9.5,29.20,North,3,3.6,3.6,84,0.00,,,0.00,VWS V14.01,2013-02-17 08:32:00,
2013-02-17 03:33:00,13.5,9.5,29.21,North,3,3.6,3.6,84,0.00,,,0.00,VWS V14.01,2013-02-17 08:33:00,
2013-02-17 03:34:00,13.5,9.5,29.21,North,3,3.6,3.6,84,0.00,,,0.00,VWS V14.01,2013-02-17 08:34:00,
2013-02-17 03:35:00,13.5,9.5,29.20,North,3,3.6,3.6,84,0.00,,,0.00,VWS V14.01,2013-02-17 08:35:00,
2013-02-17 03:36:00,13.5,9.5,29.20,North,3,3.6,3.6,84,0.00,,,0.00,VWS V14.01,2013-02-17 08:36:00,
2013-02-17 03:37:00,13.5,9.5,29.20,NE,46,3.6,3.6,84,0.00,,,0.00,VWS V14.01,2013-02-17 08:37:00,
2013-02-17 03:38:00,13.5,9.5,29.21,NE,46,3.6,3.6,84,0.00,,,0.00,VWS V14.01,2013-02-17 08:38:00,
2013-02-17 03:39:00,13.5,9.5,29.21,NE,46,3.6,3.6,84,0.00,,,0.00,VWS V14.01,2013-02-17 08:39:00,
2013-02-17 03:40:00,13.5,9.5,29.20,NE,46,3.6,3.6,84,0.00,,,0.00,VWS V14.01,2013-02-17 08:40:00,
2013-02-17 03:41:00,13.5,9.5,29.20,NE,34,3.6,3.6,84,0.00,,,0.00,VWS V14.01,2013-02-17 08:41:00,
2013-02-17 03:42:00,13.5,9.5,29.20,NE,34,3.6,3.6,84,0.00,,,0.00,VWS V14.01,2013-02-17 08:42:00,
2013-02-17 03:43:00,13.5,9.5,29.21,NE,34,3.6,3.6,84,0.00,,,0.00,VWS V14.01,2013-02-17 08:43:00,
2013-02-17 03:44:00,13.5,9.5,29.21,NE,34,3.6,3.6,84,0.00,,,0.00,VWS V14.01,2013-02-17 08:44:00,
2013-02-17 03:45:00,13.5,9.5,29.20,NE,34,3.6,3.6,84,0.00,,,0.00,VWS V14.01,2013-02-17 08:45:00,
2013-02-17 03:46:00,13.5,9.5,29.20,NE,34,3.6,3.6,84,0.00,,,0.00,VWS V14.01,2013-02-17 08:46:00,
2013-02-17 03:47:00,13.5,9.5,29.20,NNE,16,5.4,5.4,84,0.00,,,0.00,VWS V14.01,2013-02-17 08:47:00,
2013-02-17 03:48:00,13.3,9.4,29.21,NNE,16,5.4,5.4,84,0.00,,,0.00,VWS V14.01,2013-02-17 08:48:00,
2013-02-17 03:49:00,13.3,9.4,29.21,NNE,32,4.0,4.0,84,0.00,,,0.00,VWS V14.01,2013-02-17 08:49:00,
2013-02-17 03:50:00,13.3,9.4,29.20,ENE,59,4.0,4.0,84,0.00,,,0.00,VWS V14.01,2013-02-17 08:50:00,
2013-02-17 03:51:00,13.3,9.4,29.20,ENE,59,4.0,4.0,84,0.00,,,0.00,VWS V14.01,2013-02-17 08:51:00,
2013-02-17 03:52:00,13.3,9.4,29.20,NNE,33,2.7,4.0,84,0.00,,,0.00,VWS V14.01,2013-02-17 08:52:00,
2013-02-17 03:53:00,13.3,9.4,29.21,NNE,33,2.7,2.7,84,0.00,,,0.00,VWS V14.01,2013-02-17 08:53:00,
2013-02-17 03:54:00,13.3,9.4,29.21,NE,44,2.7,2.7,84,0.00,,,0.00,VWS V14.01,2013-02-17 08:54:00,
2013-02-17 03:55:00,13.3,9.4,29.20,NE,44,2.7,2.7,84,0.00,,,0.00,VWS V14.01,2013-02-17 08:55:00,
2013-02-17 03:56:00,13.3,9.4,29.20,NE,45,5.4,5.4,84,0.00,,,0.00,VWS V14.01,2013-02-17 08:56:00,
2013-02-17 03:57:00,13.3,9.4,29.20,NE,45,5.4,5.4,84,0.00,,,0.00,VWS V14.01,2013-02-17 08:57:00,
2013-02-17 03:58:00,13.3,9.4,29.21,NE,45,5.4,5.4,84,0.00,,,0.00,VWS V14.01,2013-02-17 08:58:00,
2013-02-17 03:59:00,13.3,9.4,29.21,NE,35,5.4,5.4,84,0.00,,,0.00,VWS V14.01,2013-02-17 08:59:00,
2013-02-17 04:00:00,13.3,9.4,29.20,NE,35,5.4,5.4,84,0.00,,,0.00,VWS V14.01,2013-02-17 09:00:00,
2013-02-17 04:01:00,13.3,9.4,29.20,NE,35,5.4,5.4,84,0.00,,,0.00,VWS V14.01,2013-02-17 09:01:00,
2013-02-17 04:02:00,13.3,9.4,29.20,NE,49,3.6,5.4,84,0.00,,,0.00,VWS V14.01,2013-02-17 09:02:00,
2013-02-17 04:03:00,13.3,9.4,29.21,NE,39,3.6,3.6,84,0.00,,,0.00,VWS V14.01,2013-02-17 09:03:00,
2013-02-17 04:04:00,13.3,9.4,29.21,NE,39,3.6,3.6,84,0.00,,,0.00,VWS V14.01,2013-02-17 09:04:00,
2013-02-17 04:05:00,13.3,9.4,29.20,NNE,17,5.4,5.4,84,0.00,,,0.00,VWS V14.01,2013-02-17 09:05:00,
2013-02-17 04:06:00,13.3,9.4,29.20,NNE,17,5.4,5.4,84,0.00,,,0.00,VWS V14.01,2013-02-17 09:06:00,
2013-02-17 04:07:00,13.3,9.4,29.20,North,1,3.6,5.4,84,0.00,,,0.00,VWS V14.01,2013-02-17 09:07:00,
2013-02-17 04:08:00,13.3,9.4,29.21,NNE,28,5.4,5.4,84,0.00,,,0.00,VWS V14.01,2013-02-17 09:08:00,
2013-02-17 04:09:00,13.3,9.4,29.21,NNE,28,5.4,5.4,84,0.00,,,0.00,VWS V14.01,2013-02-17 09:09:00,
2013-02-17 04:10:00,13.3,9.4,29.20,NNE,28,5.4,5.4,84,0.00,,,0.00,VWS V14.01,2013-02-17 09:10:00,
2013-02-17 04:11:00,13.3,9.4,29.20,NE,39,4.9,5.4,84,0.00,,,0.00,VWS V14.01,2013-02-17 09:11:00,
2013-02-17 04:12:00,13.3,9.4,29.20,NNE,32,5.4,5.4,84,0.00,,,0.00,VWS V14.01,2013-02-17 09:12:00,
2013-02-17 04:13:00,13.3,9.4,29.21,NNE,28,3.1,3.1,84,0.00,,,0.00,VWS V14.01,2013-02-17 09:13:00,
2013-02-17 04:14:00,13.3,9.4,29.21,NNE,28,3.1,3.1,84,0.00,,,0.00,VWS V14.01,2013-02-17 09:14:00,
2013-02-17 04:15:00,13.3,9.4,29.21,NNE,28,3.1,3.1,84,0.00,,,0.00,VWS V14.01,2013-02-17 09:15:00,
2013-02-17 04:16:00,13.3,9.4,29.20,NNE,28,3.1,3.1,84,0.00,,,0.00,VWS V14.01,2013-02-17 09:16:00,
2013-02-17 04:17:00,13.3,9.4,29.20,NE,41,2.7,3.1,84,0.00,,,0.00,VWS V14.01,2013-02-17 09:17:00,
2013-02-17 04:18:00,13.3,9.4,29.20,NE,38,4.9,4.9,84,0.00,,,0.00,VWS V14.01,2013-02-17 09:18:00,
2013-02-17 04:19:00,13.3,9.4,29.21,NE,38,4.9,4.9,84,0.00,,,0.00,VWS V14.01,2013-02-17 09:19:00,
2013-02-17 04:20:00,13.3,9.4,29.21,NE,38,4.9,4.9,84,0.00,,,0.00,VWS V14.01,2013-02-17 09:20:00,
2013-02-17 04:21:00,13.3,9.4,29.20,NE,38,4.9,4.9,84,0.00,,,0.00,VWS V14.01,2013-02-17 09:21:00,
2013-02-17 04:22:00,13.3,9.4,29.20,NNE,32,2.7,4.9,84,0.00,,,0.00,VWS V14.01,2013-02-17 09:22:00,
2013-02-17 04:23:00,13.3,9.4,29.20,NNE,25,5.4,5.4,84,0.00,,,0.00,VWS V14.01,2013-02-17 09:23:00,
2013-02-17 04:24:00,13.3,9.4,29.21,NNE,25,5.4,5.4,84,0.00,,,0.00,VWS V14.01,2013-02-17 09:24:00,
2013-02-17 04:25:00,13.3,9.4,29.21,NE,56,5.4,5.4,84,0.00,,,0.00,VWS V14.01,2013-02-17 09:25:00,
2013-02-17 04:26:00,13.3,9.4,29.20,NE,56,5.4,5.4,84,0.00,,,0.00,VWS V14.01,2013-02-17 09:26:00,
2013-02-17 04:27:00,13.3,9.4,29.20,NE,56,5.4,5.4,84,0.00,,,0.00,VWS V14.01,2013-02-17 09:27:00,
2013-02-17 04:28:00,13.3,9.4,29.20,NE,56,5.4,5.4,84,0.00,,,0.00,VWS V14.01,2013-02-17 09:28:00,
2013-02-17 04:29:00,13.3,9.4,29.21,NE,56,5.4,5.4,84,0.00,,,0.00,VWS V14.01,2013-02-17 09:29:00,
2013-02-17 04:30:00,13.3,9.4,29.21,North,4,2.7,2.7,84,0.00,,,0.00,VWS V14.01,2013-02-17 09:30:00,
2013-02-17 04:31:00,13.1,9.2,29.20,North,4,2.7,2.7,84,0.00,,,0.00,VWS V14.01,2013-02-17 09:31:00,
2013-02-17 04:32:00,13.1,9.2,29.20,North,11,3.1,3.1,84,0.00,,,0.00,VWS V14.01,2013-02-17 09:32:00,
2013-02-17 04:33:00,13.1,9.2,29.20,North,11,3.1,3.1,84,0.00,,,0.00,VWS V14.01,2013-02-17 09:33:00,
2013-02-17 04:34:00,13.1,9.2,29.21,NNE,19,3.6,3.6,84,0.00,,,0.00,VWS V14.01,2013-02-17 09:34:00,
2013-02-17 04:35:00,13.1,9.2,29.21,NNE,19,3.6,3.6,84,0.00,,,0.00,VWS V14.01,2013-02-17 09:35:00,
2013-02-17 04:36:00,13.1,9.2,29.20,NNE,19,3.6,3.6,84,0.00,,,0.00,VWS V14.01,2013-02-17 09:36:00,
2013-02-17 04:37:00,13.1,9.2,29.20,North,0,3.1,3.6,84,0.00,,,0.00,VWS V14.01,2013-02-17 09:37:00,
2013-02-17 04:38:00,13.1,9.2,29.20,North,0,3.1,3.1,84,0.00,,,0.00,VWS V14.01,2013-02-17 09:38:00,
2013-02-17 04:39:00,13.1,9.2,29.21,NE,47,3.1,3.1,84,0.00,,,0.00,VWS V14.01,2013-02-17 09:39:00,
2013-02-17 04:40:00,13.1,9.2,29.21,NE,47,3.1,3.1,84,0.00,,,0.00,VWS V14.01,2013-02-17 09:40:00,
2013-02-17 04:41:00,13.1,9.2,29.20,NE,47,3.1,3.1,84,0.00,,,0.00,VWS V14.01,2013-02-17 09:41:00,
2013-02-17 04:42:00,13.1,9.2,29.20,NE,47,3.1,3.1,84,0.00,,,0.00,VWS V14.01,2013-02-17 09:42:00,
2013-02-17 04:43:00,13.1,9.2,29.20,NE,53,2.7,3.1,84,0.00,,,0.00,VWS V14.01,2013-02-17 09:43:00,
2013-02-17 04:44:00,13.1,9.2,29.21,NE,53,2.7,2.7,84,0.00,,,0.00,VWS V14.01,2013-02-17 09:44:00,
2013-02-17 04:45:00,13.1,9.2,29.21,NE,46,4.0,4.0,84,0.00,,,0.00,VWS V14.01,2013-02-17 09:45:00,
2013-02-17 04:46:00,13.1,9.2,29.20,NE,46,4.0,4.0,84,0.00,,,0.00,VWS V14.01,2013-02-17 09:46:00,
2013-02-17 04:47:00,13.1,9.2,29.20,NE,46,4.0,4.0,84,0.00,,,0.00,VWS V14.01,2013-02-17 09:47:00,
2013-02-17 04:48:00,13.1,9.2,29.20,North,7,4.9,4.9,84,0.00,,,0.00,VWS V14.01,2013-02-17 09:48:00,
2013-02-17 04:49:00,13.1,9.2,29.21,North,7,4.9,4.9,84,0.00,,,0.00,VWS V14.01,2013-02-17 09:49:00,
2013-02-17 04:50:00,13.1,9.2,29.21,North,7,4.9,4.9,84,0.00,,,0.00,VWS V14.01,2013-02-17 09:50:00,
2013-02-17 04:51:00,13.1,9.2,29.20,North,7,4.9,4.9,84,0.00,,,0.00,VWS V14.01,2013-02-17 09:51:00,
2013-02-17 04:52:00,13.1,9.2,29.20,North,357,5.4,5.4,84,0.00,,,0.00,VWS V14.01,2013-02-17 09:52:00,
2013-02-17 04:53:00,13.1,9.2,29.20,North,357,5.4,5.4,84,0.00,,,0.00,VWS V14.01,2013-02-17 09:53:00,
2013-02-17 04:54:00,13.1,9.2,29.21,North,357,5.4,5.4,84,0.00,,,0.00,VWS V14.01,2013-02-17 09:54:00,
2013-02-17 04:55:00,13.1,9.2,29.21,North,357,5.4,5.4,84,0.00,,,0.00,VWS V14.01,2013-02-17 09:55:00,
2013-02-17 04:56:00,13.1,9.2,29.20,North,6,4.0,5.4,84,0.00,,,0.00,VWS V14.01,2013-02-17 09:56:00,
2013-02-17 04:57:00,12.9,9.0,29.20,North,6,4.0,4.0,84,0.00,,,0.00,VWS V14.01,2013-02-17 09:57:00,
2013-02-17 04:58:00,12.9,9.0,29.20,North,7,3.1,4.0,84,0.00,,,0.00,VWS V14.01,2013-02-17 09:58:00,
2013-02-17 04:59:00,12.9,9.0,29.20,North,7,3.1,3.1,84,0.00,,,0.00,VWS V14.01,2013-02-17 09:59:00,
2013-02-17 05:00:00,12.9,9.0,29.21,North,7,3.1,3.1,84,0.00,,,0.00,VWS V14.01,2013-02-17 10:00:00,
2013-02-17 05:01:00,12.9,9.0,29.20,North,10,3.6,3.6,84,0.00,,,0.00,VWS V14.01,2013-02-17 10:01:00,
2013-02-17 05:02:00,12.7,8.8,29.20,North,10,3.6,3.6,84,0.00,,,0.00,VWS V14.01,2013-02-17 10:02:00,
2013-02-17 05:03:00,12.7,8.8,29.20,North,10,3.6,3.6,84,0.00,,,0.00,VWS V14.01,2013-02-17 10:03:00,
2013-02-17 05:04:00,12.7,8.8,29.20,North,10,3.6,3.6,84,0.00,,,0.00,VWS V14.01,2013-02-17 10:04:00,
2013-02-17 05:05:00,12.7,8.8,29.21,NNW,338,4.0,4.0,84,0.00,,,0.00,VWS V14.01,2013-02-17 10:05:00,
2013-02-17 05:06:00,12.7,8.8,29.20,NNW,338,4.0,4.0,84,0.00,,,0.00,VWS V14.01,2013-02-17 10:06:00,
2013-02-17 05:07:00,12.7,8.8,29.20,North,3,3.1,4.0,84,0.00,,,0.00,VWS V14.01,2013-02-17 10:07:00,
2013-02-17 05:08:00,12.7,8.8,29.20,North,3,3.1,3.1,84,0.00,,,0.00,VWS V14.01,2013-02-17 10:08:00,
2013-02-17 05:09:00,12.7,8.8,29.20,North,3,3.1,3.1,84,0.00,,,0.00,VWS V14.01,2013-02-17 10:09:00,
2013-02-17 05:10:00,12.7,8.8,29.21,North,0,4.0,4.0,84,0.00,,,0.00,VWS V14.01,2013-02-17 10:10:00,
2013-02-17 05:11:00,12.7,8.8,29.20,North,0,4.0,4.0,84,0.00,,,0.00,VWS V14.01,2013-02-17 10:11:00,
2013-02-17 05:12:00,12.7,8.8,29.20,NNE,23,4.9,4.9,84,0.00,,,0.00,VWS V14.01,2013-02-17 10:12:00,
2013-02-17 05:13:00,12.7,8.8,29.20,NNE,23,4.9,4.9,84,0.00,,,0.00,VWS V14.01,2013-02-17 10:13:00,
2013-02-17 05:14:00,12.7,8.8,29.20,North,3,4.0,4.9,84,0.00,,,0.00,VWS V14.01,2013-02-17 10:14:00,
2013-02-17 05:15:00,12.7,8.8,29.21,North,3,4.0,4.0,84,0.00,,,0.00,VWS V14.01,2013-02-17 10:15:00,
2013-02-17 05:16:00,12.7,8.8,29.21,North,3,4.0,4.0,84,0.00,,,0.00,VWS V14.01,2013-02-17 10:16:00,
2013-02-17 05:17:00,12.7,8.8,29.18,North,3,4.0,4.0,84,0.00,,,0.00,VWS V14.01,2013-02-17 10:17:00,
2013-02-17 05:18:00,12.7,8.8,29.18,North,3,4.0,4.0,84,0.00,,,0.00,VWS V14.01,2013-02-17 10:18:00,
2013-02-17 05:19:00,12.7,8.8,29.18,NE,55,2.7,4.0,84,0.00,,,0.00,VWS V14.01,2013-02-17 10:19:00,
2013-02-17 05:20:00,12.7,8.8,29.18,NE,55,2.7,2.7,84,0.00,,,0.00,VWS V14.01,2013-02-17 10:20:00,
2013-02-17 05:21:00,12.7,8.8,29.18,NE,55,2.7,2.7,84,0.00,,,0.00,VWS V14.01,2013-02-17 10:21:00,
2013-02-17 05:22:00,12.7,8.8,29.18,NE,55,2.7,2.7,84,0.00,,,0.00,VWS V14.01,2013-02-17 10:22:00,
2013-02-17 05:23:00,12.7,8.8,29.18,NNE,15,3.6,3.6,84,0.00,,,0.00,VWS V14.01,2013-02-17 10:23:00,
2013-02-17 05:24:00,12.7,8.8,29.18,NNE,15,3.6,3.6,84,0.00,,,0.00,VWS V14.01,2013-02-17 10:24:00,
2013-02-17 05:25:00,12.7,8.8,29.18,NNE,24,3.1,3.6,84,0.00,,,0.00,VWS V14.01,2013-02-17 10:25:00,
2013-02-17 05:26:00,12.7,8.8,29.18,NNE,24,3.1,3.1,84,0.00,,,0.00,VWS V14.01,2013-02-17 10:26:00,
2013-02-17 05:27:00,12.7,8.8,29.18,NNE,32,4.0,4.0,84,0.00,,,0.00,VWS V14.01,2013-02-17 10:27:00,
2013-02-17 05:28:00,12.7,8.8,29.18,NNE,32,4.0,4.0,84,0.00,,,0.00,VWS V14.01,2013-02-17 10:28:00,
2013-02-17 05:29:00,12.7,8.8,29.18,NE,50,3.6,4.0,84,0.00,,,0.00,VWS V14.01,2013-02-17 10:29:00,
2013-02-17 05:30:00,12.7,8.8,29.21,NE,50,3.6,3.6,84,0.00,,,0.00,VWS V14.01,2013-02-17 10:30:00,
2013-02-17 05:31:00,12.7,8.8,29.21,NE,36,3.1,3.1,84,0.00,,,0.00,VWS V14.01,2013-02-17 10:31:00,
2013-02-17 05:32:00,12.7,8.8,29.20,North,0,3.6,3.6,84,0.00,,,0.00,VWS V14.01,2013-02-17 10:32:00,
2013-02-17 05:33:00,12.7,8.8,29.20,North,0,3.6,3.6,84,0.00,,,0.00,VWS V14.01,2013-02-17 10:33:00,
2013-02-17 05:34:00,12.7,8.8,29.20,North,0,3.6,3.6,84,0.00,,,0.00,VWS V14.01,2013-02-17 10:34:00,
2013-02-17 05:35:00,12.7,8.8,29.21,North,0,3.6,3.6,84,0.00,,,0.00,VWS V14.01,2013-02-17 10:35:00,
2013-02-17 05:36:00,12.7,8.8,29.21,North,0,3.6,3.6,84,0.00,,,0.00,VWS V14.01,2013-02-17 10:36:00,
2013-02-17 05:37:00,12.7,8.8,29.20,NE,37,2.7,2.7,84,0.00,,,0.00,VWS V14.01,2013-02-17 10:37:00,
2013-02-17 05:38:00,12.7,8.8,29.20,NE,43,3.6,3.6,84,0.00,,,0.00,VWS V14.01,2013-02-17 10:38:00,
2013-02-17 05:39:00,12.7,8.8,29.20,NE,43,3.6,3.6,84,0.00,,,0.00,VWS V14.01,2013-02-17 10:39:00,
2013-02-17 05:40:00,12.7,8.8,29.21,NE,42,3.1,3.1,84,0.00,,,0.00,VWS V14.01,2013-02-17 10:40:00,
2013-02-17 05:41:00,12.7,8.8,29.21,NE,38,4.0,4.0,84,0.00,,,0.00,VWS V14.01,2013-02-17 10:41:00,
2013-02-17 05:42:00,12.7,8.8,29.20,NE,38,4.0,4.0,84,0.00,,,0.00,VWS V14.01,2013-02-17 10:42:00,
2013-02-17 05:43:00,12.6,8.6,29.20,NE,38,4.0,4.0,84,0.00,,,0.00,VWS V14.01,2013-02-17 10:43:00,
2013-02-17 05:44:00,12.6,8.6,29.20,NE,38,4.0,4.0,84,0.00,,,0.00,VWS V14.01,2013-02-17 10:44:00,
2013-02-17 05:45:00,12.6,8.6,29.21,NE,45,4.9,4.9,84,0.00,,,0.00,VWS V14.01,2013-02-17 10:45:00,
2013-02-17 05:46:00,12.6,8.6,29.21,NE,45,4.9,4.9,84,0.00,,,0.00,VWS V14.01,2013-02-17 10:46:00,
2013-02-17 05:47:00,12.6,8.6,29.20,NE,45,4.9,4.9,84,0.00,,,0.00,VWS V14.01,2013-02-17 10:47:00,
2013-02-17 05:48:00,12.6,8.6,29.20,NE,45,4.9,4.9,84,0.00,,,0.00,VWS V14.01,2013-02-17 10:48:00,
2013-02-17 05:49:00,12.6,8.6,29.20,NE,45,4.9,4.9,84,0.00,,,0.00,VWS V14.01,2013-02-17 10:49:00,
2013-02-17 05:50:00,12.6,8.6,29.21,NE,34,5.8,5.8,84,0.00,,,0.00,VWS V14.01,2013-02-17 10:50:00,
2013-02-17 05:51:00,12.6,8.6,29.21,NE,34,5.8,5.8,84,0.00,,,0.00,VWS V14.01,2013-02-17 10:51:00,
2013-02-17 05:52:00,12.6,8.6,29.20,NE,44,5.4,5.8,84,0.00,,,0.00,VWS V14.01,2013-02-17 10:52:00,
2013-02-17 05:53:00,12.6,8.6,29.20,NE,44,5.4,5.4,84,0.00,,,0.00,VWS V14.01,2013-02-17 10:53:00,
2013-02-17 05:54:00,12.6,8.6,29.20,NNE,19,3.6,5.4,84,0.00,,,0.00,VWS V14.01,2013-02-17 10:54:00,
2013-02-17 05:55:00,12.6,8.6,29.21,NNE,20,3.1,3.1,84,0.00,,,0.00,VWS V14.01,2013-02-17 10:55:00,
2013-02-17 05:56:00,12.6,8.6,29.21,NNE,20,3.1,3.1,84,0.00,,,0.00,VWS V14.01,2013-02-17 10:56:00,
2013-02-17 05:57:00,12.6,8.6,29.21,ENE,61,3.1,3.1,84,0.00,,,0.00,VWS V14.01,2013-02-17 10:57:00,
2013-02-17 05:58:00,12.6,8.6,29.20,NNE,29,3.6,3.6,84,0.00,,,0.00,VWS V14.01,2013-02-17 10:58:00,
2013-02-17 05:59:00,12.6,8.6,29.20,NNE,29,3.6,3.6,84,0.00,,,0.00,VWS V14.01,2013-02-17 10:59:00,
2013-02-17 06:00:00,12.6,8.6,29.21,NNE,29,3.6,3.6,84,0.00,,,0.00,VWS V14.01,2013-02-17 11:00:00,
2013-02-17 06:01:00,12.6,8.6,29.21,NNE,29,3.6,3.6,84,0.00,,,0.00,VWS V14.01,2013-02-17 11:01:00,
2013-02-17 06:02:00,12.6,8.6,29.21,NE,39,2.2,3.6,84,0.00,,,0.00,VWS V14.01,2013-02-17 11:02:00,
2013-02-17 06:03:00,12.6,8.6,29.20,North,11,0.0,2.2,84,0.00,,,0.00,VWS V14.01,2013-02-17 11:03:00,
2013-02-17 06:04:00,12.6,8.6,29.20,North,11,0.0,0.0,84,0.00,,,0.00,VWS V14.01,2013-02-17 11:04:00,
2013-02-17 06:05:00,12.6,8.6,29.21,NNE,33,2.2,2.2,84,0.00,,,0.00,VWS V14.01,2013-02-17 11:05:00,
2013-02-17 06:06:00,12.6,8.6,29.21,NNE,33,2.2,2.2,84,0.00,,,0.00,VWS V14.01,2013-02-17 11:06:00,
2013-02-17 06:07:00,12.6,8.6,29.21,NNE,33,2.2,2.2,84,0.00,,,0.00,VWS V14.01,2013-02-17 11:07:00,
2013-02-17 06:08:00,12.6,8.6,29.20,NNE,33,2.2,2.2,84,0.00,,,0.00,VWS V14.01,2013-02-17 11:08:00,
2013-02-17 06:09:00,12.6,8.6,29.20,NNE,33,2.2,2.2,84,0.00,,,0.00,VWS V14.01,2013-02-17 11:09:00,
2013-02-17 06:10:00,12.6,8.6,29.21,NNE,33,2.2,2.2,84,0.00,,,0.00,VWS V14.01,2013-02-17 11:10:00,
2013-02-17 06:11:00,12.6,8.6,29.21,NNE,33,2.2,2.2,84,0.00,,,0.00,VWS V14.01,2013-02-17 11:11:00,
2013-02-17 06:12:00,12.6,8.6,29.21,North,349,3.6,3.6,84,0.00,,,0.00,VWS V14.01,2013-02-17 11:12:00,
2013-02-17 06:13:00,12.6,8.6,29.20,North,353,3.1,3.6,84,0.00,,,0.00,VWS V14.01,2013-02-17 11:13:00,
2013-02-17 06:14:00,12.6,8.6,29.20,North,353,3.1,3.1,84,0.00,,,0.00,VWS V14.01,2013-02-17 11:14:00,
2013-02-17 06:15:00,12.6,8.6,29.21,North,357,2.2,2.2,84,0.00,,,0.00,VWS V14.01,2013-02-17 11:15:00,
2013-02-17 06:16:00,12.6,8.6,29.21,NNE,14,2.2,2.2,84,0.00,,,0.00,VWS V14.01,2013-02-17 11:16:00,
2013-02-17 06:17:00,12.6,8.6,29.21,NNE,14,2.2,2.2,84,0.00,,,0.00,VWS V14.01,2013-02-17 11:17:00,
2013-02-17 06:18:00,12.4,8.5,29.20,NNE,25,2.7,2.7,84,0.00,,,0.00,VWS V14.01,2013-02-17 11:18:00,
2013-02-17 06:19:00,12.4,8.5,29.20,NNE,25,2.7,2.7,84,0.00,,,0.00,VWS V14.01,2013-02-17 11:19:00,
2013-02-17 06:20:00,12.4,8.5,29.21,NE,44,2.7,4.0,84,0.00,,,0.00,VWS V14.01,2013-02-17 11:20:00,
2013-02-17 06:21:00,12.4,8.5,29.21,NE,44,2.7,4.0,84,0.00,,,0.00,VWS V14.01,2013-02-17 11:21:00,
2013-02-17 06:22:00,12.4,8.5,29.21,NE,44,2.7,2.7,84,0.00,,,0.00,VWS V14.01,2013-02-17 11:22:00,
2013-02-17 06:23:00,12.4,8.5,29.24,NE,40,2.7,2.7,84,0.00,,,0.00,VWS V14.01,2013-02-17 11:23:00,
2013-02-17 06:24:00,12.4,8.5,29.24,NE,40,2.7,2.7,84,0.00,,,0.00,VWS V14.01,2013-02-17 11:24:00,
2013-02-17 06:25:00,12.4,8.5,29.23,NE,34,4.9,4.9,84,0.00,,,0.00,VWS V14.01,2013-02-17 11:25:00,
2013-02-17 06:26:00,12.4,8.5,29.23,NE,34,4.9,4.9,84,0.00,,,0.00,VWS V14.01,2013-02-17 11:26:00,
2013-02-17 06:27:00,12.4,8.5,29.23,NE,34,4.9,4.9,84,0.00,,,0.00,VWS V14.01,2013-02-17 11:27:00,
2013-02-17 06:28:00,12.4,8.5,29.24,NE,34,4.9,4.9,84,0.00,,,0.00,VWS V14.01,2013-02-17 11:28:00,
2013-02-17 06:29:00,12.4,8.5,29.24,NE,34,4.9,4.9,84,0.00,,,0.00,VWS V14.01,2013-02-17 11:29:00,
2013-02-17 06:30:00,12.2,8.3,29.23,NE,43,2.2,2.2,84,0.00,,,0.00,VWS V14.01,2013-02-17 11:30:00,
2013-02-17 06:31:00,12.2,8.3,29.23,ENE,58,3.1,3.1,84,0.00,,,0.00,VWS V14.01,2013-02-17 11:31:00,
2013-02-17 06:32:00,12.2,8.3,29.23,ENE,58,3.1,3.1,84,0.00,,,0.00,VWS V14.01,2013-02-17 11:32:00,
2013-02-17 06:33:00,12.2,8.3,29.24,ENE,58,3.1,3.1,84,0.00,,,0.00,VWS V14.01,2013-02-17 11:33:00,
2013-02-17 06:34:00,12.2,8.3,29.24,NE,43,3.6,3.6,84,0.00,,,0.00,VWS V14.01,2013-02-17 11:34:00,
2013-02-17 06:35:00,12.2,8.3,29.23,NE,43,3.6,3.6,84,0.00,,,0.00,VWS V14.01,2013-02-17 11:35:00,
2013-02-17 06:36:00,12.2,8.3,29.23,NE,43,3.6,3.6,84,0.00,,,0.00,VWS V14.01,2013-02-17 11:36:00,
2013-02-17 06:37:00,12.2,8.3,29.23,NE,43,3.6,3.6,84,0.00,,,0.00,VWS V14.01,2013-02-17 11:37:00,
2013-02-17 06:38:00,12.2,8.3,29.24,NE,43,2.2,3.6,84,0.00,,,0.00,VWS V14.01,2013-02-17 11:38:00,
2013-02-17 06:39:00,12.2,8.3,29.24,NE,43,2.2,2.2,84,0.00,,,0.00,VWS V14.01,2013-02-17 11:39:00,
2013-02-17 06:40:00,12.2,8.3,29.23,NE,43,2.2,2.2,84,0.00,,,0.00,VWS V14.01,2013-02-17 11:40:00,
2013-02-17 06:41:00,12.2,8.3,29.23,NE,43,2.2,2.2,84,0.00,,,0.00,VWS V14.01,2013-02-17 11:41:00,
2013-02-17 06:42:00,12.2,8.3,29.23,NE,43,2.2,2.2,84,0.00,,,0.00,VWS V14.01,2013-02-17 11:42:00,
2013-02-17 06:43:00,12.2,8.3,29.24,NE,37,2.2,2.2,84,0.00,,,0.00,VWS V14.01,2013-02-17 11:43:00,
2013-02-17 06:44:00,12.2,8.3,29.24,NE,37,2.2,2.2,84,0.00,,,0.00,VWS V14.01,2013-02-17 11:44:00,
2013-02-17 06:45:00,12.2,8.3,29.24,NE,37,0.0,2.2,84,0.00,,,0.00,VWS V14.01,2013-02-17 11:45:00,
2013-02-17 06:46:00,12.2,8.3,29.23,NE,37,3.1,3.1,84,0.00,,,0.00,VWS V14.01,2013-02-17 11:46:00,
2013-02-17 06:47:00,12.2,8.3,29.23,NE,37,2.7,2.7,84,0.00,,,0.00,VWS V14.01,2013-02-17 11:47:00,
2013-02-17 06:48:00,12.2,8.3,29.24,NE,37,2.7,2.7,84,0.00,,,0.00,VWS V14.01,2013-02-17 11:48:00,
2013-02-17 06:49:00,12.2,8.3,29.24,NE,37,0.0,2.7,84,0.00,,,0.00,VWS V14.01,2013-02-17 11:49:00,
2013-02-17 06:50:00,12.2,8.3,29.24,NE,37,0.0,0.0,84,0.00,,,0.00,VWS V14.01,2013-02-17 11:50:00,
2013-02-17 06:51:00,12.2,8.3,29.23,NE,37,0.0,0.0,84,0.00,,,0.00,VWS V14.01,2013-02-17 11:51:00,
2013-02-17 06:52:00,12.2,8.3,29.23,NNE,15,0.0,0.0,84,0.00,,,0.00,VWS V14.01,2013-02-17 11:52:00,
2013-02-17 06:53:00,12.2,8.3,29.24,NNE,15,0.0,0.0,84,0.00,,,0.00,VWS V14.01,2013-02-17 11:53:00,
2013-02-17 06:54:00,12.0,8.1,29.24,NNE,15,0.0,0.0,84,0.00,,,0.00,VWS V14.01,2013-02-17 11:54:00,
2013-02-17 06:55:00,12.0,8.1,29.24,NNE,15,0.0,0.0,84,0.00,,,0.00,VWS V14.01,2013-02-17 11:55:00,
2013-02-17 06:56:00,12.0,8.1,29.23,NNE,15,3.1,3.1,84,0.00,,,0.00,VWS V14.01,2013-02-17 11:56:00,
2013-02-17 06:57:00,12.0,8.1,29.23,NNE,15,2.7,2.7,84,0.00,,,0.00,VWS V14.01,2013-02-17 11:57:00,
2013-02-17 06:58:00,12.0,8.1,29.24,NNE,15,3.1,3.1,84,0.00,,,0.00,VWS V14.01,2013-02-17 11:58:00,
2013-02-17 06:59:00,12.0,8.1,29.24,NNE,15,3.1,3.1,84,0.00,,,0.00,VWS V14.01,2013-02-17 11:59:00,
2013-02-17 07:00:00,12.0,8.1,29.24,NNE,15,3.1,3.1,84,0.00,,,0.00,VWS V14.01,2013-02-17 12:00:00,
2013-02-17 07:01:00,11.8,7.9,29.23,NNE,15,2.2,3.1,84,0.00,,,0.00,VWS V14.01,2013-02-17 12:01:00,
2013-02-17 07:02:00,11.8,7.9,29.23,NNE,15,2.2,2.2,84,0.00,,,0.00,VWS V14.01,2013-02-17 12:02:00,
2013-02-17 07:03:00,11.8,7.9,29.24,NNE,15,2.2,2.2,84,0.00,,,0.00,VWS V14.01,2013-02-17 12:03:00,
2013-02-17 07:04:00,11.8,7.9,29.24,NNE,15,2.2,2.2,84,0.00,,,0.00,VWS V14.01,2013-02-17 12:04:00,
2013-02-17 07:05:00,11.8,7.9,29.24,NNE,15,0.0,2.2,84,0.00,,,0.00,VWS V14.01,2013-02-17 12:05:00,
2013-02-17 07:06:00,11.8,7.9,29.23,NNE,15,0.0,0.0,84,0.00,,,0.00,VWS V14.01,2013-02-17 12:06:00,
2013-02-17 07:07:00,11.8,7.9,29.23,NNE,15,2.2,2.2,84,0.00,,,0.00,VWS V14.01,2013-02-17 12:07:00,
2013-02-17 07:08:00,11.8,7.9,29.24,NNE,15,2.2,2.2,84,0.00,,,0.00,VWS V14.01,2013-02-17 12:08:00,
2013-02-17 07:09:00,11.8,7.9,29.24,NNE,15,2.2,2.2,84,0.00,,,0.00,VWS V14.01,2013-02-17 12:09:00,
2013-02-17 07:10:00,11.7,7.8,29.24,NNE,15,2.2,2.2,84,0.00,,,0.00,VWS V14.01,2013-02-17 12:10:00,
2013-02-17 07:11:00,11.7,7.8,29.23,NNE,15,0.0,0.0,84,0.00,,,0.00,VWS V14.01,2013-02-17 12:11:00,
2013-02-17 07:12:00,11.7,7.8,29.23,NNE,15,0.0,0.0,84,0.00,,,0.00,VWS V14.01,2013-02-17 12:12:00,
2013-02-17 07:13:00,11.7,7.8,29.23,NNE,15,0.0,0.0,84,0.00,,,0.00,VWS V14.01,2013-02-17 12:13:00,
2013-02-17 07:14:00,11.7,7.8,29.24,NNE,15,0.0,0.0,84,0.00,,,0.00,VWS V14.01,2013-02-17 12:14:00,
2013-02-17 07:15:00,11.7,7.8,29.24,NNE,15,0.0,0.0,84,0.00,,,0.00,VWS V14.01,2013-02-17 12:15:00,
2013-02-17 07:16:00,11.7,7.8,29.23,NNE,15,0.0,0.0,84,0.00,,,0.00,VWS V14.01,2013-02-17 12:16:00,
2013-02-17 07:17:00,11.3,7.4,29.23,NNE,15,0.0,0.0,84,0.00,,,0.00,VWS V14.01,2013-02-17 12:17:00,
2013-02-17 07:18:00,11.3,7.4,29.23,NNE,15,0.0,0.0,84,0.00,,,0.00,VWS V14.01,2013-02-17 12:18:00,
2013-02-17 07:19:00,11.3,7.4,29.24,NNE,15,0.0,0.0,84,0.00,,,0.00,VWS V14.01,2013-02-17 12:19:00,
2013-02-17 07:20:00,11.3,7.4,29.24,NNE,15,0.0,0.0,84,0.00,,,0.00,VWS V14.01,2013-02-17 12:20:00,
2013-02-17 07:21:00,11.3,7.4,29.23,NNE,15,0.0,0.0,84,0.00,,,0.00,VWS V14.01,2013-02-17 12:21:00,
2013-02-17 07:22:00,11.3,7.4,29.24,NNE,15,0.0,0.0,84,0.00,,,0.00,VWS V14.01,2013-02-17 12:22:00,
2013-02-17 07:23:00,11.3,7.4,29.23,NNE,17,3.1,3.1,84,0.00,,,0.00,VWS V14.01,2013-02-17 12:23:00,
2013-02-17 07:24:00,11.3,7.4,29.24,NNE,17,3.1,3.1,84,0.00,,,0.00,VWS V14.01,2013-02-17 12:24:00,
2013-02-17 07:25:00,11.3,7.4,29.24,NNE,18,0.0,3.1,84,0.00,,,0.00,VWS V14.01,2013-02-17 12:25:00,
2013-02-17 07:26:00,11.3,7.4,29.23,NNE,18,0.0,0.0,84,0.00,,,0.00,VWS V14.01,2013-02-17 12:26:00,
2013-02-17 07:27:00,11.3,7.4,29.24,NNE,18,0.0,0.0,84,0.00,,,0.00,VWS V14.01,2013-02-17 12:27:00,
2013-02-17 07:28:00,11.3,7.4,29.23,NNE,18,0.0,0.0,84,0.00,,,0.00,VWS V14.01,2013-02-17 12:28:00,
2013-02-17 07:29:00,11.3,7.4,29.24,NNE,18,0.0,0.0,84,0.00,,,0.00,VWS V14.01,2013-02-17 12:29:00,
2013-02-17 07:30:00,11.3,7.4,29.24,NNE,18,0.0,0.0,84,0.00,,,0.00,VWS V14.01,2013-02-17 12:30:00,
2013-02-17 07:31:00,11.3,7.4,29.23,NNE,15,0.0,0.0,84,0.00,,,0.00,VWS V14.01,2013-02-17 12:31:00,
2013-02-17 07:32:00,11.3,7.4,29.23,NNE,15,0.0,0.0,84,0.00,,,0.00,VWS V14.01,2013-02-17 12:32:00,
2013-02-17 07:33:00,11.3,7.4,29.23,NNE,15,0.0,0.0,84,0.00,,,0.00,VWS V14.01,2013-02-17 12:33:00,
2013-02-17 07:34:00,11.3,7.4,29.23,NNE,15,0.0,0.0,84,0.00,,,0.00,VWS V14.01,2013-02-17 12:34:00,
2013-02-17 07:35:00,11.3,7.4,29.24,NNE,15,0.0,0.0,84,0.00,,,0.00,VWS V14.01,2013-02-17 12:35:00,
2013-02-17 07:36:00,11.5,7.6,29.24,NNE,15,0.0,0.0,84,0.00,,,0.00,VWS V14.01,2013-02-17 12:36:00,
2013-02-17 07:37:00,11.5,7.6,29.23,NNE,15,0.0,0.0,84,0.00,,,0.00,VWS V14.01,2013-02-17 12:37:00,
2013-02-17 07:38:00,11.5,7.6,29.23,NNE,15,3.1,3.1,84,0.00,,,0.00,VWS V14.01,2013-02-17 12:38:00,
2013-02-17 07:39:00,11.5,7.6,29.23,NNE,15,3.1,3.1,84,0.00,,,0.00,VWS V14.01,2013-02-17 12:39:00,
2013-02-17 07:40:00,11.5,7.6,29.24,NNE,15,0.0,3.1,84,0.00,,,0.00,VWS V14.01,2013-02-17 12:40:00,
2013-02-17 07:41:00,11.3,7.4,29.24,NNE,15,0.0,0.0,84,0.00,,,0.00,VWS V14.01,2013-02-17 12:41:00,
2013-02-17 07:42:00,11.3,7.4,29.23,NNE,15,0.0,0.0,84,0.00,,,0.00,VWS V14.01,2013-02-17 12:42:00,
2013-02-17 07:43:00,11.3,7.4,29.23,NNE,15,0.0,0.0,84,0.00,,,0.00,VWS V14.01,2013-02-17 12:43:00,
2013-02-17 07:44:00,11.3,7.4,29.23,NNE,15,0.0,0.0,84,0.00,,,0.00,VWS V14.01,2013-02-17 12:44:00,
2013-02-17 07:45:00,11.3,7.4,29.24,NNE,15,0.0,0.0,84,0.00,,,0.00,VWS V14.01,2013-02-17 12:45:00,
2013-02-17 07:46:00,11.3,7.4,29.24,NNE,15,0.0,0.0,84,0.00,,,0.00,VWS V14.01,2013-02-17 12:46:00,
2013-02-17 07:47:00,11.3,7.4,29.23,NNE,15,0.0,0.0,84,0.00,,,0.00,VWS V14.01,2013-02-17 12:47:00,
2013-02-17 07:48:00,11.3,7.4,29.23,NNE,15,0.0,0.0,84,0.00,,,0.00,VWS V14.01,2013-02-17 12:48:00,
2013-02-17 07:49:00,11.3,7.4,29.23,North,7,2.7,2.7,84,0.00,,,0.00,VWS V14.01,2013-02-17 12:49:00,
2013-02-17 07:50:00,11.3,7.4,29.24,North,7,2.7,2.7,84,0.00,,,0.00,VWS V14.01,2013-02-17 12:50:00,
2013-02-17 07:51:00,11.3,7.4,29.24,North,7,3.6,3.6,84,0.00,,,0.00,VWS V14.01,2013-02-17 12:51:00,
2013-02-17 07:52:00,11.3,7.4,29.23,North,7,4.0,4.0,84,0.00,,,0.00,VWS V14.01,2013-02-17 12:52:00,
2013-02-17 07:53:00,11.3,7.4,29.23,North,1,3.1,4.0,84,0.00,,,0.00,VWS V14.01,2013-02-17 12:53:00,
2013-02-17 07:54:00,11.3,7.4,29.23,North,1,2.7,4.0,84,0.00,,,0.00,VWS V14.01,2013-02-17 12:54:00,
2013-02-17 07:55:00,11.3,7.4,29.24,North,1,2.7,2.7,84,0.00,,,0.00,VWS V14.01,2013-02-17 12:55:00,
2013-02-17 07:56:00,11.3,7.4,29.26,North,1,2.7,2.7,84,0.00,,,0.00,VWS V14.01,2013-02-17 12:56:00,
2013-02-17 07:57:00,11.3,7.4,29.26,North,1,2.7,2.7,84,0.00,,,0.00,VWS V14.01,2013-02-17 12:57:00,
2013-02-17 07:58:00,11.3,7.4,29.26,North,2,2.2,2.2,84,0.00,,,0.00,VWS V14.01,2013-02-17 12:58:00,
2013-02-17 07:59:00,11.3,7.4,29.26,North,2,2.2,2.2,84,0.00,,,0.00,VWS V14.01,2013-02-17 12:59:00,
2013-02-17 08:00:00,11.3,7.4,29.26,North,2,2.2,2.2,84,0.00,,,0.00,VWS V14.01,2013-02-17 13:00:00,
2013-02-17 08:01:00,11.3,7.4,29.26,North,2,2.2,2.2,84,0.00,,,0.00,VWS V14.01,2013-02-17 13:01:00,
2013-02-17 08:02:00,11.8,7.9,29.26,North,5,3.6,3.6,84,0.00,,,0.00,VWS V14.01,2013-02-17 13:02:00,
2013-02-17 08:03:00,11.8,7.9,29.26,North,5,3.6,3.6,84,0.00,,,0.00,VWS V14.01,2013-02-17 13:03:00,
2013-02-17 08:04:00,11.8,7.9,29.26,North,5,3.6,3.6,84,0.00,,,0.00,VWS V14.01,2013-02-17 13:04:00,
2013-02-17 08:06:00,12.0,8.1,29.26,North,3,2.7,2.7,84,0.00,,,0.00,VWS V14.01,2013-02-17 13:06:00,
2013-02-17 08:07:00,12.0,8.1,29.26,North,3,3.1,3.1,84,0.00,,,0.00,VWS V14.01,2013-02-17 13:07:00,
2013-02-17 08:09:00,12.0,8.1,29.26,North,3,3.1,3.1,84,0.00,,,0.00,VWS V14.01,2013-02-17 13:09:00,
2013-02-17 08:10:00,12.0,8.1,29.26,North,3,3.1,3.1,84,0.00,,,0.00,VWS V14.01,2013-02-17 13:10:00,
2013-02-17 08:11:00,12.0,8.1,29.26,North,3,3.1,3.1,84,0.00,,,0.00,VWS V14.01,2013-02-17 13:11:00,
2013-02-17 08:12:00,12.0,8.1,29.26,North,3,3.1,3.1,84,0.00,,,0.00,VWS V14.01,2013-02-17 13:12:00,
2013-02-17 08:13:00,12.0,8.1,29.26,North,3,3.1,3.1,84,0.00,,,0.00,VWS V14.01,2013-02-17 13:13:00,
2013-02-17 08:14:00,12.0,8.1,29.26,NNE,13,2.7,2.7,84,0.00,,,0.00,VWS V14.01,2013-02-17 13:14:00,
2013-02-17 08:15:00,12.0,8.1,29.26,NE,41,4.0,4.0,84,0.00,,,0.00,VWS V14.01,2013-02-17 13:15:00,
2013-02-17 08:16:00,12.0,8.1,29.26,NE,41,4.0,4.0,84,0.00,,,0.00,VWS V14.01,2013-02-17 13:16:00,
2013-02-17 08:17:00,12.0,8.1,29.26,NE,41,4.0,4.0,84,0.00,,,0.00,VWS V14.01,2013-02-17 13:17:00,
2013-02-17 08:18:00,12.0,8.1,29.26,NE,38,4.0,4.0,84,0.00,,,0.00,VWS V14.01,2013-02-17 13:18:00,
2013-02-17 08:19:00,12.7,8.8,29.26,NE,38,4.0,4.0,84,0.00,,,0.00,VWS V14.01,2013-02-17 13:19:00,
2013-02-17 08:20:00,12.7,8.8,29.26,NE,38,4.0,4.0,84,0.00,,,0.00,VWS V14.01,2013-02-17 13:20:00,
2013-02-17 08:21:00,12.7,8.8,29.26,NE,38,4.0,4.0,84,0.00,,,0.00,VWS V14.01,2013-02-17 13:21:00,
2013-02-17 08:22:00,12.7,8.8,29.26,NE,38,4.0,4.0,84,0.00,,,0.00,VWS V14.01,2013-02-17 13:22:00,
2013-02-17 08:23:00,12.7,8.8,29.26,NE,38,4.0,4.0,84,0.00,,,0.00,VWS V14.01,2013-02-17 13:23:00,
2013-02-17 08:24:00,12.7,8.8,29.26,NE,38,4.0,4.0,84,0.00,,,0.00,VWS V14.01,2013-02-17 13:24:00,
2013-02-17 08:25:00,12.7,8.8,29.26,NNE,24,3.6,4.0,84,0.00,,,0.00,VWS V14.01,2013-02-17 13:25:00,
2013-02-17 08:27:00,13.1,9.2,29.26,NNE,27,2.2,2.2,84,0.00,,,0.00,VWS V14.01,2013-02-17 13:27:00,
2013-02-17 08:28:00,13.1,9.2,29.26,NNE,27,2.2,2.2,84,0.00,,,0.00,VWS V14.01,2013-02-17 13:28:00,
2013-02-17 08:29:00,13.1,9.2,29.26,NNE,27,2.2,2.2,84,0.00,,,0.00,VWS V14.01,2013-02-17 13:29:00,
2013-02-17 08:30:00,13.1,9.2,29.26,NE,41,2.2,2.2,84,0.00,,,0.00,VWS V14.01,2013-02-17 13:30:00,
2013-02-17 08:31:00,13.1,9.2,29.26,NE,42,0.0,2.2,84,0.00,,,0.00,VWS V14.01,2013-02-17 13:31:00,
2013-02-17 08:32:00,13.1,9.2,29.26,NNE,28,4.0,4.0,84,0.00,,,0.00,VWS V14.01,2013-02-17 13:32:00,
2013-02-17 08:33:00,13.1,9.2,29.26,NNE,28,4.0,4.0,84,0.00,,,0.00,VWS V14.01,2013-02-17 13:33:00,
2013-02-17 08:34:00,13.1,9.2,29.26,NNE,28,4.0,4.0,84,0.00,,,0.00,VWS V14.01,2013-02-17 13:34:00,
2013-02-17 08:35:00,13.3,9.4,29.26,NNE,28,4.0,4.0,84,0.00,,,0.00,VWS V14.01,2013-02-17 13:35:00,
2013-02-17 08:36:00,13.3,9.4,29.26,NNE,28,4.0,4.0,84,0.00,,,0.00,VWS V14.01,2013-02-17 13:36:00,
2013-02-17 08:37:00,13.3,9.4,29.26,NNE,28,4.0,4.0,84,0.00,,,0.00,VWS V14.01,2013-02-17 13:37:00,
2013-02-17 08:38:00,13.3,9.4,29.26,NNE,28,4.0,4.0,84,0.00,,,0.00,VWS V14.01,2013-02-17 13:38:00,
2013-02-17 08:39:00,13.3,9.4,29.26,NNE,28,4.0,4.0,84,0.00,,,0.00,VWS V14.01,2013-02-17 13:39:00,
2013-02-17 08:40:00,13.3,9.4,29.26,NNE,28,4.0,4.0,84,0.00,,,0.00,VWS V14.01,2013-02-17 13:40:00,
2013-02-17 08:41:00,13.3,9.4,29.26,NNE,26,2.7,4.0,84,0.00,,,0.00,VWS V14.01,2013-02-17 13:41:00,
2013-02-17 08:42:00,13.3,9.4,29.26,NNE,26,2.7,2.7,84,0.00,,,0.00,VWS V14.01,2013-02-17 13:42:00,
2013-02-17 08:43:00,13.3,9.4,29.26,NNE,26,2.7,2.7,84,0.00,,,0.00,VWS V14.01,2013-02-17 13:43:00,
2013-02-17 08:44:00,13.6,9.7,29.26,ENE,58,4.0,4.0,84,0.00,,,0.00,VWS V14.01,2013-02-17 13:44:00,
2013-02-17 08:45:00,13.6,9.7,29.26,ENE,58,4.0,4.0,84,0.00,,,0.00,VWS V14.01,2013-02-17 13:45:00,
2013-02-17 08:46:00,13.6,9.7,29.26,ENE,58,4.0,4.0,84,0.00,,,0.00,VWS V14.01,2013-02-17 13:46:00,
2013-02-17 08:47:00,13.6,9.7,29.26,NE,47,2.2,4.0,84,0.00,,,0.00,VWS V14.01,2013-02-17 13:47:00,
2013-02-17 08:48:00,13.6,9.7,29.26,NE,47,2.2,2.2,84,0.00,,,0.00,VWS V14.01,2013-02-17 13:48:00,
2013-02-17 08:49:00,13.6,9.7,29.26,NE,47,2.2,2.2,84,0.00,,,0.00,VWS V14.01,2013-02-17 13:49:00,
2013-02-17 08:50:00,13.6,9.7,29.26,NE,47,2.2,2.2,84,0.00,,,0.00,VWS V14.01,2013-02-17 13:50:00,
2013-02-17 08:51:00,13.6,9.7,29.26,NE,47,2.2,2.2,84,0.00,,,0.00,VWS V14.01,2013-02-17 13:51:00,
2013-02-17 08:52:00,14.2,9.7,29.26,NE,47,2.2,2.2,82,0.00,,,0.00,VWS V14.01,2013-02-17 13:52:00,
2013-02-17 08:53:00,14.4,9.9,29.26,NE,47,2.2,2.2,82,0.00,,,0.00,VWS V14.01,2013-02-17 13:53:00,
2013-02-17 08:54:00,14.4,9.9,29.26,NE,47,2.2,2.2,82,0.00,,,0.00,VWS V14.01,2013-02-17 13:54:00,
2013-02-17 08:55:00,14.5,10.1,29.26,NE,47,2.2,2.2,82,0.00,,,0.00,VWS V14.01,2013-02-17 13:55:00,
2013-02-17 08:56:00,14.5,10.1,29.26,NE,47,2.2,2.2,82,0.00,,,0.00,VWS V14.01,2013-02-17 13:56:00,
2013-02-17 08:57:00,14.5,10.1,29.26,NE,47,4.0,4.0,82,0.00,,,0.00,VWS V14.01,2013-02-17 13:57:00,
2013-02-17 08:58:00,14.5,10.1,29.26,NE,47,3.1,4.0,82,0.00,,,0.00,VWS V14.01,2013-02-17 13:58:00,
2013-02-17 08:59:00,14.5,10.1,29.26,NE,47,3.1,3.1,82,0.00,,,0.00,VWS V14.01,2013-02-17 13:59:00,
2013-02-17 09:00:00,14.5,10.1,29.26,NE,47,3.1,3.1,82,0.00,,,0.00,VWS V14.01,2013-02-17 14:00:00,
2013-02-17 09:01:00,14.5,10.1,29.26,NE,47,3.1,3.1,82,0.00,,,0.00,VWS V14.01,2013-02-17 14:01:00,
2013-02-17 09:02:00,14.5,10.1,29.26,NE,47,3.1,3.1,82,0.00,,,0.00,VWS V14.01,2013-02-17 14:02:00,
2013-02-17 09:03:00,14.5,10.1,29.26,NE,47,3.1,3.1,82,0.00,,,0.00,VWS V14.01,2013-02-17 14:03:00,
2013-02-17 09:04:00,14.5,10.1,29.26,NE,47,3.1,3.1,82,0.00,,,0.00,VWS V14.01,2013-02-17 14:04:00,
2013-02-17 09:05:00,14.5,10.1,29.26,NE,47,3.1,3.1,82,0.00,,,0.00,VWS V14.01,2013-02-17 14:05:00,
2013-02-17 09:06:00,14.5,10.1,29.26,NE,47,3.1,3.1,82,0.00,,,0.00,VWS V14.01,2013-02-17 14:06:00,
2013-02-17 09:07:00,14.5,10.1,29.26,NNE,16,3.6,3.6,82,0.00,,,0.00,VWS V14.01,2013-02-17 14:07:00,
2013-02-17 09:08:00,14.5,10.1,29.26,NNE,16,3.6,3.6,82,0.00,,,0.00,VWS V14.01,2013-02-17 14:08:00,
2013-02-17 09:09:00,14.5,10.1,29.26,NNE,16,3.6,3.6,82,0.00,,,0.00,VWS V14.01,2013-02-17 14:09:00,
2013-02-17 09:10:00,14.5,10.1,29.26,NNE,16,3.6,3.6,82,0.00,,,0.00,VWS V14.01,2013-02-17 14:10:00,
2013-02-17 09:11:00,16.0,11.5,29.26,NNE,12,3.1,3.6,82,0.00,,,0.00,VWS V14.01,2013-02-17 14:11:00,
2013-02-17 09:12:00,16.0,11.5,29.26,NNE,12,3.1,3.1,82,0.00,,,0.00,VWS V14.01,2013-02-17 14:12:00,
2013-02-17 09:13:00,16.0,11.5,29.26,NNE,12,3.1,3.1,82,0.00,,,0.00,VWS V14.01,2013-02-17 14:13:00,
2013-02-17 09:14:00,16.3,11.8,29.26,NNE,12,3.1,3.1,82,0.00,,,0.00,VWS V14.01,2013-02-17 14:14:00,
2013-02-17 09:15:00,16.3,11.8,29.26,NNE,12,3.1,3.1,82,0.00,,,0.00,VWS V14.01,2013-02-17 14:15:00,
2013-02-17 09:16:00,16.5,12.0,29.26,NNE,12,3.1,3.1,82,0.00,,,0.00,VWS V14.01,2013-02-17 14:16:00,
2013-02-17 09:17:00,16.5,12.0,29.26,NNE,12,3.1,3.1,82,0.00,,,0.00,VWS V14.01,2013-02-17 14:17:00,
2013-02-17 09:18:00,16.5,12.0,29.26,NNE,12,3.1,3.1,82,0.00,,,0.00,VWS V14.01,2013-02-17 14:18:00,
2013-02-17 09:19:00,16.9,12.4,29.26,NE,34,3.6,3.6,82,0.00,,,0.00,VWS V14.01,2013-02-17 14:19:00,
2013-02-17 09:20:00,16.9,12.4,29.26,NE,34,3.6,3.6,82,0.00,,,0.00,VWS V14.01,2013-02-17 14:20:00,
2013-02-17 09:21:00,17.1,12.5,29.26,NE,34,3.6,3.6,82,0.00,,,0.00,VWS V14.01,2013-02-17 14:21:00,
2013-02-17 09:22:00,17.1,12.5,29.26,NE,56,3.6,3.6,82,0.00,,,0.00,VWS V14.01,2013-02-17 14:22:00,
2013-02-17 09:23:00,17.1,12.5,29.26,NE,56,3.6,3.6,82,0.00,,,0.00,VWS V14.01,2013-02-17 14:23:00,
2013-02-17 09:24:00,17.1,12.5,29.26,ENE,60,0.0,3.6,82,0.00,,,0.00,VWS V14.01,2013-02-17 14:24:00,
2013-02-17 09:25:00,17.1,12.5,29.26,ENE,60,0.0,0.0,82,0.00,,,0.00,VWS V14.01,2013-02-17 14:25:00,
2013-02-17 09:26:00,17.1,12.5,29.26,ENE,60,0.0,0.0,82,0.00,,,0.00,VWS V14.01,2013-02-17 14:26:00,
2013-02-17 09:27:00,17.1,12.5,29.26,ENE,60,0.0,0.0,82,0.00,,,0.00,VWS V14.01,2013-02-17 14:27:00,
2013-02-17 09:28:00,17.1,12.5,29.26,ENE,60,0.0,0.0,82,0.00,,,0.00,VWS V14.01,2013-02-17 14:28:00,
2013-02-17 09:29:00,17.1,12.5,29.26,ENE,60,0.0,0.0,82,0.00,,,0.00,VWS V14.01,2013-02-17 14:29:00,
2013-02-17 09:30:00,17.1,12.5,29.26,NE,37,3.6,3.6,82,0.00,,,0.00,VWS V14.01,2013-02-17 14:30:00,
2013-02-17 09:31:00,17.1,12.5,29.26,NE,37,3.6,3.6,82,0.00,,,0.00,VWS V14.01,2013-02-17 14:31:00,
2013-02-17 09:32:00,17.1,12.5,29.26,NE,37,3.6,3.6,82,0.00,,,0.00,VWS V14.01,2013-02-17 14:32:00,
2013-02-17 09:33:00,18.1,13.6,29.26,ENE,64,3.6,3.6,82,0.00,,,0.00,VWS V14.01,2013-02-17 14:33:00,
2013-02-17 09:34:00,18.1,13.6,29.26,ENE,64,3.6,3.6,82,0.00,,,0.00,VWS V14.01,2013-02-17 14:34:00,
2013-02-17 09:35:00,18.1,13.6,29.26,ENE,64,3.6,3.6,82,0.00,,,0.00,VWS V14.01,2013-02-17 14:35:00,
2013-02-17 09:36:00,18.1,13.6,29.26,ENE,64,3.6,3.6,82,0.00,,,0.00,VWS V14.01,2013-02-17 14:36:00,
2013-02-17 09:37:00,18.5,13.9,29.26,ENE,64,3.6,3.6,82,0.00,,,0.00,VWS V14.01,2013-02-17 14:37:00,
2013-02-17 09:38:00,18.7,14.1,29.26,ENE,58,4.5,4.5,82,0.00,,,0.00,VWS V14.01,2013-02-17 14:38:00,
2013-02-17 09:39:00,18.7,14.1,29.26,ENE,58,4.5,4.5,82,0.00,,,0.00,VWS V14.01,2013-02-17 14:39:00,
2013-02-17 09:40:00,18.7,14.1,29.26,ENE,58,4.5,4.5,82,0.00,,,0.00,VWS V14.01,2013-02-17 14:40:00,
2013-02-17 09:41:00,18.7,14.1,29.26,ENE,58,4.5,4.5,82,0.00,,,0.00,VWS V14.01,2013-02-17 14:41:00,
2013-02-17 09:42:00,18.7,14.1,29.26,ENE,58,4.5,4.5,82,0.00,,,0.00,VWS V14.01,2013-02-17 14:42:00,
2013-02-17 09:43:00,19.0,14.2,29.26,ENE,58,4.5,4.5,81,0.00,,,0.00,VWS V14.01,2013-02-17 14:43:00,
2013-02-17 09:44:00,19.0,14.2,29.26,ENE,58,4.5,4.5,81,0.00,,,0.00,VWS V14.01,2013-02-17 14:44:00,
2013-02-17 09:45:00,19.2,14.4,29.26,ENE,58,4.5,4.5,81,0.00,,,0.00,VWS V14.01,2013-02-17 14:45:00,
2013-02-17 09:46:00,19.2,14.4,29.26,ENE,58,4.5,4.5,81,0.00,,,0.00,VWS V14.01,2013-02-17 14:46:00,
2013-02-17 09:47:00,19.4,14.8,29.26,ENE,58,4.5,4.5,82,0.00,,,0.00,VWS V14.01,2013-02-17 14:47:00,
2013-02-17 09:48:00,19.4,14.8,29.26,NNE,27,2.7,2.7,82,0.00,,,0.00,VWS V14.01,2013-02-17 14:48:00,
2013-02-17 09:49:00,19.4,14.8,29.26,NNE,27,2.7,2.7,82,0.00,,,0.00,VWS V14.01,2013-02-17 14:49:00,
2013-02-17 09:50:00,19.4,14.8,29.26,ENE,60,4.0,4.0,82,0.00,,,0.00,VWS V14.01,2013-02-17 14:50:00,
2013-02-17 09:51:00,19.4,14.8,29.26,ENE,60,4.0,4.0,82,0.00,,,0.00,VWS V14.01,2013-02-17 14:51:00,
2013-02-17 09:52:00,19.4,14.8,29.26,North,1,3.6,4.0,82,0.00,,,0.00,VWS V14.01,2013-02-17 14:52:00,
2013-02-17 09:53:00,19.4,14.8,29.26,North,1,3.6,3.6,82,0.00,,,0.00,VWS V14.01,2013-02-17 14:53:00,
2013-02-17 09:54:00,19.4,14.8,29.26,North,1,3.6,3.6,82,0.00,,,0.00,VWS V14.01,2013-02-17 14:54:00,
2013-02-17 09:55:00,19.4,14.8,29.26,North,1,3.6,3.6,82,0.00,,,0.00,VWS V14.01,2013-02-17 14:55:00,
2013-02-17 09:56:00,19.4,14.8,29.26,North,1,3.6,3.6,82,0.00,,,0.00,VWS V14.01,2013-02-17 14:56:00,
2013-02-17 09:57:00,19.4,14.8,29.26,North,1,3.6,3.6,82,0.00,,,0.00,VWS V14.01,2013-02-17 14:57:00,
2013-02-17 09:58:00,19.4,14.8,29.26,NNE,30,3.6,3.6,82,0.00,,,0.00,VWS V14.01,2013-02-17 14:58:00,
2013-02-17 09:59:00,19.4,14.8,29.26,NNE,30,3.6,3.6,82,0.00,,,0.00,VWS V14.01,2013-02-17 14:59:00,
2013-02-17 10:00:00,19.4,14.8,29.26,NNE,30,3.6,3.6,82,0.00,,,0.00,VWS V14.01,2013-02-17 15:00:00,
2013-02-17 10:01:00,20.1,15.2,29.26,NNE,30,3.6,3.6,81,0.00,,,0.00,VWS V14.01,2013-02-17 15:01:00,
2013-02-17 10:02:00,20.1,15.2,29.26,NNE,30,3.6,3.6,81,0.00,,,0.00,VWS V14.01,2013-02-17 15:02:00,
2013-02-17 10:03:00,20.1,15.2,29.26,ENE,65,2.7,2.7,81,0.00,,,0.00,VWS V14.01,2013-02-17 15:03:00,
2013-02-17 10:04:00,20.1,15.2,29.26,NE,48,2.7,2.7,81,0.00,,,0.00,VWS V14.01,2013-02-17 15:04:00,
2013-02-17 10:05:00,20.1,15.2,29.26,NE,48,2.7,2.7,81,0.00,,,0.00,VWS V14.01,2013-02-17 15:05:00,
2013-02-17 10:06:00,20.1,15.2,29.26,NE,48,3.6,3.6,81,0.00,,,0.00,VWS V14.01,2013-02-17 15:06:00,
2013-02-17 10:07:00,20.1,15.2,29.26,NE,48,3.6,3.6,81,0.00,,,0.00,VWS V14.01,2013-02-17 15:07:00,
2013-02-17 10:08:00,20.1,15.2,29.26,NE,48,3.6,3.6,81,0.00,,,0.00,VWS V14.01,2013-02-17 15:08:00,
2013-02-17 10:09:00,20.1,15.2,29.26,NE,48,3.6,3.6,81,0.00,,,0.00,VWS V14.01,2013-02-17 15:09:00,
2013-02-17 10:10:00,20.1,15.2,29.26,NE,48,3.6,3.6,81,0.00,,,0.00,VWS V14.01,2013-02-17 15:10:00,
2013-02-17 10:11:00,20.5,15.6,29.26,NE,48,3.6,3.6,81,0.00,,,0.00,VWS V14.01,2013-02-17 15:11:00,
2013-02-17 10:12:00,20.5,15.6,29.26,NE,48,3.6,3.6,81,0.00,,,0.00,VWS V14.01,2013-02-17 15:12:00,
2013-02-17 10:13:00,20.7,15.8,29.26,NE,48,3.6,3.6,81,0.00,,,0.00,VWS V14.01,2013-02-17 15:13:00,
2013-02-17 10:14:00,20.7,15.8,29.26,ENE,77,2.7,3.6,81,0.00,,,0.00,VWS V14.01,2013-02-17 15:14:00,
2013-02-17 10:15:00,20.7,15.8,29.26,ENE,77,2.7,2.7,81,0.00,,,0.00,VWS V14.01,2013-02-17 15:15:00,
2013-02-17 10:16:00,20.7,15.8,29.26,NNE,30,4.0,4.0,81,0.00,,,0.00,VWS V14.01,2013-02-17 15:16:00,
2013-02-17 10:17:00,20.7,15.8,29.26,NNE,30,4.0,4.0,81,0.00,,,0.00,VWS V14.01,2013-02-17 15:17:00,
2013-02-17 10:18:00,20.7,15.8,29.26,NE,46,2.7,4.0,81,0.00,,,0.00,VWS V14.01,2013-02-17 15:18:00,
2013-02-17 10:19:00,20.7,15.8,29.26,NE,46,2.7,2.7,81,0.00,,,0.00,VWS V14.01,2013-02-17 15:19:00,
2013-02-17 10:20:00,20.7,15.8,29.26,NE,46,2.7,2.7,81,0.00,,,0.00,VWS V14.01,2013-02-17 15:20:00,
2013-02-17 10:21:00,20.7,15.8,29.26,NE,46,2.7,2.7,81,0.00,,,0.00,VWS V14.01,2013-02-17 15:21:00,
2013-02-17 10:22:00,21.4,16.2,29.26,NE,46,2.7,2.7,80,0.00,,,0.00,VWS V14.01,2013-02-17 15:22:00,
2013-02-17 10:23:00,21.4,16.2,29.26,NE,46,2.7,2.7,80,0.00,,,0.00,VWS V14.01,2013-02-17 15:23:00,
2013-02-17 10:24:00,21.4,16.2,29.26,NE,46,2.7,2.7,80,0.00,,,0.00,VWS V14.01,2013-02-17 15:24:00,
2013-02-17 10:25:00,21.6,16.4,29.26,ENE,61,5.8,5.8,80,0.00,,,0.00,VWS V14.01,2013-02-17 15:25:00,
2013-02-17 10:26:00,21.6,16.4,29.26,ENE,61,5.8,5.8,80,0.00,,,0.00,VWS V14.01,2013-02-17 15:26:00,
2013-02-17 10:27:00,21.6,16.4,29.26,ENE,61,5.8,5.8,80,0.00,,,0.00,VWS V14.01,2013-02-17 15:27:00,
2013-02-17 10:28:00,21.6,16.4,29.26,ENE,61,5.8,5.8,80,0.00,,,0.00,VWS V14.01,2013-02-17 15:28:00,
2013-02-17 10:29:00,21.6,16.4,29.26,ENE,61,5.8,5.8,80,0.00,,,0.00,VWS V14.01,2013-02-17 15:29:00,
2013-02-17 10:30:00,21.6,16.4,29.26,ENE,61,5.8,5.8,80,0.00,,,0.00,VWS V14.01,2013-02-17 15:30:00,
2013-02-17 10:31:00,21.6,16.4,29.26,ENE,61,5.8,5.8,80,0.00,,,0.00,VWS V14.01,2013-02-17 15:31:00,
2013-02-17 10:32:00,21.6,16.4,29.26,ENE,61,5.8,5.8,80,0.00,,,0.00,VWS V14.01,2013-02-17 15:32:00,
2013-02-17 10:33:00,21.6,16.4,29.26,ENE,61,5.8,5.8,80,0.00,,,0.00,VWS V14.01,2013-02-17 15:33:00,
2013-02-17 10:34:00,21.6,16.4,29.26,ENE,61,5.8,5.8,80,0.00,,,0.00,VWS V14.01,2013-02-17 15:34:00,
2013-02-17 10:35:00,21.6,16.4,29.26,ENE,61,5.8,5.8,80,0.00,,,0.00,VWS V14.01,2013-02-17 15:35:00,
2013-02-17 10:36:00,21.6,16.4,29.29,ENE,63,2.7,2.7,80,0.00,,,0.00,VWS V14.01,2013-02-17 15:36:00,
2013-02-17 10:37:00,21.7,16.2,29.29,ENE,63,2.7,2.7,79,0.00,,,0.00,VWS V14.01,2013-02-17 15:37:00,
2013-02-17 10:38:00,21.7,16.2,29.29,ENE,63,3.1,3.1,79,0.00,,,0.00,VWS V14.01,2013-02-17 15:38:00,
2013-02-17 10:39:00,21.7,16.2,29.29,ENE,63,3.1,3.1,79,0.00,,,0.00,VWS V14.01,2013-02-17 15:39:00,
2013-02-17 10:40:00,21.7,16.2,29.29,ENE,58,3.6,3.6,79,0.00,,,0.00,VWS V14.01,2013-02-17 15:40:00,
2013-02-17 10:41:00,21.7,16.2,29.29,NE,56,2.7,3.6,79,0.00,,,0.00,VWS V14.01,2013-02-17 15:41:00,
2013-02-17 10:42:00,21.7,16.2,29.29,NE,56,2.7,3.6,79,0.00,,,0.00,VWS V14.01,2013-02-17 15:42:00,
2013-02-17 10:43:00,21.7,16.2,29.29,NE,56,2.7,2.7,79,0.00,,,0.00,VWS V14.01,2013-02-17 15:43:00,
2013-02-17 10:44:00,21.7,16.2,29.29,NE,56,2.7,2.7,79,0.00,,,0.00,VWS V14.01,2013-02-17 15:44:00,
2013-02-17 10:45:00,21.7,16.2,29.29,NE,56,2.7,2.7,79,0.00,,,0.00,VWS V14.01,2013-02-17 15:45:00,
2013-02-17 10:46:00,21.7,16.2,29.29,NE,56,2.7,2.7,79,0.00,,,0.00,VWS V14.01,2013-02-17 15:46:00,
2013-02-17 10:47:00,21.7,16.2,29.29,NE,56,2.7,2.7,79,0.00,,,0.00,VWS V14.01,2013-02-17 15:47:00,
2013-02-17 10:48:00,21.7,16.2,29.29,NE,56,2.7,2.7,79,0.00,,,0.00,VWS V14.01,2013-02-17 15:48:00,
2013-02-17 10:49:00,21.7,16.2,29.29,North,11,2.7,2.7,79,0.00,,,0.00,VWS V14.01,2013-02-17 15:49:00,
2013-02-17 10:50:00,21.7,16.2,29.29,North,10,2.2,2.7,79,0.00,,,0.00,VWS V14.01,2013-02-17 15:50:00,
2013-02-17 10:51:00,21.7,16.2,29.29,North,10,2.2,2.2,79,0.00,,,0.00,VWS V14.01,2013-02-17 15:51:00,
2013-02-17 10:52:00,21.7,16.2,29.29,North,10,2.2,2.2,79,0.00,,,0.00,VWS V14.01,2013-02-17 15:52:00,
2013-02-17 10:53:00,21.7,16.2,29.29,North,10,2.2,2.2,79,0.00,,,0.00,VWS V14.01,2013-02-17 15:53:00,
2013-02-17 10:54:00,21.9,16.4,29.29,North,10,2.2,2.2,79,0.00,,,0.00,VWS V14.01,2013-02-17 15:54:00,
2013-02-17 10:55:00,21.9,16.4,29.29,North,10,2.2,2.2,79,0.00,,,0.00,VWS V14.01,2013-02-17 15:55:00,
2013-02-17 10:56:00,21.9,16.4,29.29,North,10,2.2,2.2,79,0.00,,,0.00,VWS V14.01,2013-02-17 15:56:00,
2013-02-17 10:57:00,21.9,16.4,29.29,North,10,2.2,2.2,79,0.00,,,0.00,VWS V14.01,2013-02-17 15:57:00,
2013-02-17 10:58:00,21.9,16.4,29.29,NE,40,4.0,4.0,79,0.00,,,0.00,VWS V14.01,2013-02-17 15:58:00,
2013-02-17 10:59:00,22.8,17.3,29.29,North,10,4.0,4.0,79,0.00,,,0.00,VWS V14.01,2013-02-17 15:59:00,
2013-02-17 11:00:00,22.8,17.3,29.29,North,357,2.7,4.0,79,0.00,,,0.00,VWS V14.01,2013-02-17 16:00:00,
2013-02-17 11:01:00,22.8,17.3,29.29,North,357,2.7,2.7,79,0.00,,,0.00,VWS V14.01,2013-02-17 16:01:00,
2013-02-17 11:02:00,22.8,17.3,29.29,North,357,3.6,3.6,79,0.00,,,0.00,VWS V14.01,2013-02-17 16:02:00,
2013-02-17 11:03:00,23.0,17.5,29.29,North,357,3.6,3.6,79,0.00,,,0.00,VWS V14.01,2013-02-17 16:03:00,
2013-02-17 11:04:00,23.0,17.5,29.29,NE,50,4.9,4.9,79,0.00,,,0.00,VWS V14.01,2013-02-17 16:04:00,
2013-02-17 11:05:00,23.2,17.6,29.29,NE,50,4.9,4.9,79,0.00,,,0.00,VWS V14.01,2013-02-17 16:05:00,
2013-02-17 11:06:00,23.2,17.6,29.29,NE,50,3.1,4.9,79,0.00,,,0.00,VWS V14.01,2013-02-17 16:06:00,
2013-02-17 11:07:00,23.2,17.6,29.29,NE,50,3.1,3.1,79,0.00,,,0.00,VWS V14.01,2013-02-17 16:07:00,
2013-02-17 11:08:00,23.2,17.6,29.29,NE,50,0.0,3.1,79,0.00,,,0.00,VWS V14.01,2013-02-17 16:08:00,
2013-02-17 11:09:00,23.2,17.6,29.29,NE,50,0.0,0.0,79,0.00,,,0.00,VWS V14.01,2013-02-17 16:09:00,
2013-02-17 11:10:00,23.2,17.6,29.29,NE,50,0.0,0.0,79,0.00,,,0.00,VWS V14.01,2013-02-17 16:10:00,
2013-02-17 11:11:00,23.2,17.6,29.29,NE,50,2.7,2.7,79,0.00,,,0.00,VWS V14.01,2013-02-17 16:11:00,
2013-02-17 11:12:00,23.2,17.6,29.29,NE,50,2.7,2.7,79,0.00,,,0.00,VWS V14.01,2013-02-17 16:12:00,
2013-02-17 11:13:00,23.2,17.6,29.29,NE,50,2.7,2.7,79,0.00,,,0.00,VWS V14.01,2013-02-17 16:13:00,
2013-02-17 11:14:00,23.2,17.6,29.29,NE,50,2.2,2.7,79,0.00,,,0.00,VWS V14.01,2013-02-17 16:14:00,
2013-02-17 11:15:00,23.2,17.6,29.29,ENE,61,5.8,5.8,79,0.00,,,0.00,VWS V14.01,2013-02-17 16:15:00,
2013-02-17 11:16:00,23.2,17.6,29.29,NE,45,2.7,2.7,79,0.00,,,0.00,VWS V14.01,2013-02-17 16:16:00,
2013-02-17 11:17:00,23.2,17.6,29.29,NE,45,3.1,3.1,79,0.00,,,0.00,VWS V14.01,2013-02-17 16:17:00,
2013-02-17 11:18:00,23.2,17.6,29.29,NE,45,3.1,3.1,79,0.00,,,0.00,VWS V14.01,2013-02-17 16:18:00,
2013-02-17 11:19:00,23.2,17.6,29.29,NE,45,3.1,3.1,79,0.00,,,0.00,VWS V14.01,2013-02-17 16:19:00,
2013-02-17 11:20:00,23.2,17.6,29.29,NE,45,3.1,3.1,79,0.00,,,0.00,VWS V14.01,2013-02-17 16:20:00,
2013-02-17 11:21:00,23.2,17.6,29.29,NE,45,3.1,3.1,79,0.00,,,0.00,VWS V14.01,2013-02-17 16:21:00,
2013-02-17 11:22:00,23.2,17.6,29.29,NE,45,3.1,3.1,79,0.00,,,0.00,VWS V14.01,2013-02-17 16:22:00,
2013-02-17 11:23:00,23.2,17.6,29.29,NE,45,3.1,3.1,79,0.00,,,0.00,VWS V14.01,2013-02-17 16:23:00,
2013-02-17 11:24:00,23.2,17.6,29.29,ENE,66,0.0,3.1,79,0.00,,,0.00,VWS V14.01,2013-02-17 16:24:00,
2013-02-17 11:25:00,23.2,17.6,29.29,NE,54,2.7,2.7,79,0.00,,,0.00,VWS V14.01,2013-02-17 16:25:00,
2013-02-17 11:26:00,23.2,17.6,29.29,NE,54,2.7,2.7,79,0.00,,,0.00,VWS V14.01,2013-02-17 16:26:00,
2013-02-17 11:27:00,23.2,17.6,29.29,NE,54,2.7,2.7,79,0.00,,,0.00,VWS V14.01,2013-02-17 16:27:00,
2013-02-17 11:28:00,23.2,17.6,29.29,NE,54,2.2,2.2,79,0.00,,,0.00,VWS V14.01,2013-02-17 16:28:00,
2013-02-17 11:29:00,23.2,17.6,29.29,NE,54,2.2,2.2,79,0.00,,,0.00,VWS V14.01,2013-02-17 16:29:00,
2013-02-17 11:30:00,23.2,17.6,29.29,NE,54,0.0,0.0,79,0.00,,,0.00,VWS V14.01,2013-02-17 16:30:00,
2013-02-17 11:31:00,23.2,17.6,29.29,NE,49,3.1,3.1,79,0.00,,,0.00,VWS V14.01,2013-02-17 16:31:00,
2013-02-17 11:32:00,23.2,17.6,29.29,NE,49,3.1,3.1,79,0.00,,,0.00,VWS V14.01,2013-02-17 16:32:00,
2013-02-17 11:33:00,23.2,17.6,29.29,East,84,4.0,4.0,79,0.00,,,0.00,VWS V14.01,2013-02-17 16:33:00,
2013-02-17 11:34:00,23.2,17.6,29.29,East,84,4.0,4.0,79,0.00,,,0.00,VWS V14.01,2013-02-17 16:34:00,
2013-02-17 11:35:00,23.2,17.6,29.29,East,84,4.0,4.0,79,0.00,,,0.00,VWS V14.01,2013-02-17 16:35:00,
2013-02-17 11:36:00,23.9,18.0,29.29,East,84,4.0,4.0,78,0.00,,,0.00,VWS V14.01,2013-02-17 16:36:00,
2013-02-17 11:37:00,23.9,18.0,29.29,East,84,4.0,4.0,78,0.00,,,0.00,VWS V14.01,2013-02-17 16:37:00,
2013-02-17 11:38:00,23.9,18.0,29.29,ENE,59,2.7,4.0,78,0.00,,,0.00,VWS V14.01,2013-02-17 16:38:00,
2013-02-17 11:39:00,23.9,18.0,29.29,ENE,59,2.7,2.7,78,0.00,,,0.00,VWS V14.01,2013-02-17 16:39:00,
2013-02-17 11:40:00,23.9,18.0,29.29,ENE,59,2.2,2.2,78,0.00,,,0.00,VWS V14.01,2013-02-17 16:40:00,
2013-02-17 11:41:00,23.9,18.0,29.29,ENE,59,0.0,2.2,78,0.00,,,0.00,VWS V14.01,2013-02-17 16:41:00,
2013-02-17 11:42:00,23.9,18.0,29.29,ENE,59,2.2,2.2,78,0.00,,,0.00,VWS V14.01,2013-02-17 16:42:00,
2013-02-17 11:43:00,23.9,18.0,29.29,ENE,59,2.2,2.2,78,0.00,,,0.00,VWS V14.01,2013-02-17 16:43:00,
2013-02-17 11:44:00,23.9,18.0,29.29,ENE,59,2.2,2.2,78,0.00,,,0.00,VWS V14.01,2013-02-17 16:44:00,
2013-02-17 11:45:00,23.5,17.7,29.29,ENE,59,2.2,2.2,78,0.00,,,0.00,VWS V14.01,2013-02-17 16:45:00,
2013-02-17 11:46:00,23.5,17.7,29.29,ENE,59,0.0,2.2,78,0.00,,,0.00,VWS V14.01,2013-02-17 16:46:00,
2013-02-17 11:47:00,23.5,17.7,29.29,ENE,59,0.0,2.2,78,0.00,,,0.00,VWS V14.01,2013-02-17 16:47:00,
2013-02-17 11:48:00,23.5,17.7,29.29,ENE,59,0.0,0.0,78,0.00,,,0.00,VWS V14.01,2013-02-17 16:48:00,
2013-02-17 11:49:00,23.7,17.9,29.29,ENE,59,0.0,0.0,78,0.00,,,0.00,VWS V14.01,2013-02-17 16:49:00,
2013-02-17 11:50:00,23.7,17.9,29.29,ENE,63,5.4,5.4,78,0.00,,,0.00,VWS V14.01,2013-02-17 16:50:00,
2013-02-17 11:51:00,23.7,17.9,29.29,ENE,63,4.0,5.4,78,0.00,,,0.00,VWS V14.01,2013-02-17 16:51:00,
2013-02-17 11:52:00,23.7,17.9,29.29,ENE,63,4.0,5.4,78,0.00,,,0.00,VWS V14.01,2013-02-17 16:52:00,
2013-02-17 11:53:00,23.7,17.9,29.29,ENE,76,5.4,5.4,78,0.00,,,0.00,VWS V14.01,2013-02-17 16:53:00,
2013-02-17 11:54:00,23.7,17.9,29.29,ENE,76,5.4,5.4,78,0.00,,,0.00,VWS V14.01,2013-02-17 16:54:00,
2013-02-17 11:55:00,23.7,17.9,29.29,NE,48,2.7,2.7,78,0.00,,,0.00,VWS V14.01,2013-02-17 16:55:00,
2013-02-17 11:56:00,23.7,17.9,29.29,NE,48,2.7,2.7,78,0.00,,,0.00,VWS V14.01,2013-02-17 16:56:00,
2013-02-17 11:57:00,23.7,17.9,29.29,NE,48,2.7,2.7,78,0.00,,,0.00,VWS V14.01,2013-02-17 16:57:00,
2013-02-17 11:58:00,23.7,17.9,29.29,NE,50,3.1,3.1,78,0.00,,,0.00,VWS V14.01,2013-02-17 16:58:00,
2013-02-17 11:59:00,23.7,17.9,29.29,NE,50,2.7,2.7,78,0.00,,,0.00,VWS V14.01,2013-02-17 16:59:00,
2013-02-17 12:00:00,23.7,17.9,29.29,NE,50,2.7,2.7,78,0.00,,,0.00,VWS V14.01,2013-02-17 17:00:00,
2013-02-17 12:01:00,23.7,17.9,29.29,NE,50,2.7,2.7,78,0.00,,,0.00,VWS V14.01,2013-02-17 17:01:00,
2013-02-17 12:02:00,23.7,17.9,29.29,NE,50,2.7,2.7,78,0.00,,,0.00,VWS V14.01,2013-02-17 17:02:00,
2013-02-17 12:03:00,23.7,17.9,29.29,NE,50,2.7,2.7,78,0.00,,,0.00,VWS V14.01,2013-02-17 17:03:00,
2013-02-17 12:04:00,23.7,17.9,29.29,NE,50,0.0,0.0,78,0.00,,,0.00,VWS V14.01,2013-02-17 17:04:00,
2013-02-17 12:05:00,23.7,17.9,29.29,NE,50,0.0,0.0,78,0.00,,,0.00,VWS V14.01,2013-02-17 17:05:00,
2013-02-17 12:06:00,23.7,17.9,29.29,NE,50,0.0,0.0,78,0.00,,,0.00,VWS V14.01,2013-02-17 17:06:00,
2013-02-17 12:07:00,23.7,17.9,29.29,NE,50,0.0,0.0,78,0.00,,,0.00,VWS V14.01,2013-02-17 17:07:00,
2013-02-17 12:08:00,23.7,17.9,29.29,NE,50,2.2,2.2,78,0.00,,,0.00,VWS V14.01,2013-02-17 17:08:00,
2013-02-17 12:09:00,23.7,17.9,29.29,NE,50,2.2,2.2,78,0.00,,,0.00,VWS V14.01,2013-02-17 17:09:00,
2013-02-17 12:10:00,23.7,17.9,29.29,NE,50,2.2,2.2,78,0.00,,,0.00,VWS V14.01,2013-02-17 17:10:00,
2013-02-17 12:11:00,23.7,17.9,29.29,NE,50,2.2,2.2,78,0.00,,,0.00,VWS V14.01,2013-02-17 17:11:00,
2013-02-17 12:12:00,23.7,17.9,29.29,NE,50,2.2,2.2,78,0.00,,,0.00,VWS V14.01,2013-02-17 17:12:00,
2013-02-17 12:13:00,23.7,17.9,29.29,NE,50,2.2,2.2,78,0.00,,,0.00,VWS V14.01,2013-02-17 17:13:00,
2013-02-17 12:14:00,23.7,17.9,29.29,NE,50,2.2,2.2,78,0.00,,,0.00,VWS V14.01,2013-02-17 17:14:00,
2013-02-17 12:15:00,23.7,17.9,29.29,East,90,0.0,2.2,78,0.00,,,0.00,VWS V14.01,2013-02-17 17:15:00,
2013-02-17 12:16:00,23.7,17.9,29.29,East,90,0.0,0.0,78,0.00,,,0.00,VWS V14.01,2013-02-17 17:16:00,
2013-02-17 12:17:00,23.7,17.9,29.29,East,90,3.1,3.1,78,0.00,,,0.00,VWS V14.01,2013-02-17 17:17:00,
2013-02-17 12:18:00,23.7,17.9,29.29,East,90,3.1,3.1,78,0.00,,,0.00,VWS V14.01,2013-02-17 17:18:00,
2013-02-17 12:19:00,23.7,17.9,29.29,East,90,3.1,3.1,78,0.00,,,0.00,VWS V14.01,2013-02-17 17:19:00,
2013-02-17 12:20:00,23.7,17.9,29.29,East,90,2.7,3.1,78,0.00,,,0.00,VWS V14.01,2013-02-17 17:20:00,
2013-02-17 12:21:00,26.8,20.9,29.29,East,90,2.7,2.7,78,0.00,,,0.00,VWS V14.01,2013-02-17 17:21:00,
2013-02-17 12:22:00,26.8,20.9,29.29,East,90,2.7,2.7,78,0.00,,,0.00,VWS V14.01,2013-02-17 17:22:00,
2013-02-17 12:23:00,26.8,20.9,29.29,East,90,2.7,2.7,78,0.00,,,0.00,VWS V14.01,2013-02-17 17:23:00,
2013-02-17 12:24:00,26.8,20.9,29.29,East,90,2.7,2.7,78,0.00,,,0.00,VWS V14.01,2013-02-17 17:24:00,
2013-02-17 12:25:00,26.8,20.9,29.29,NE,41,3.1,3.1,78,0.00,,,0.00,VWS V14.01,2013-02-17 17:25:00,
2013-02-17 12:26:00,26.8,20.9,29.29,NE,47,3.1,3.1,78,0.00,,,0.00,VWS V14.01,2013-02-17 17:26:00,
2013-02-17 12:27:00,27.9,21.6,29.29,NE,47,3.6,3.6,77,0.00,,,0.00,VWS V14.01,2013-02-17 17:27:00,
2013-02-17 12:28:00,27.9,21.6,29.29,NE,47,3.6,3.6,77,0.00,,,0.00,VWS V14.01,2013-02-17 17:28:00,
2013-02-17 12:29:00,27.9,21.6,29.29,NE,47,3.6,3.6,77,0.00,,,0.00,VWS V14.01,2013-02-17 17:29:00,
2013-02-17 12:30:00,27.9,21.6,29.29,NE,47,3.6,3.6,77,0.00,,,0.00,VWS V14.01,2013-02-17 17:30:00,
2013-02-17 12:31:00,27.9,21.6,29.29,NE,47,3.6,3.6,77,0.00,,,0.00,VWS V14.01,2013-02-17 17:31:00,
2013-02-17 12:32:00,27.9,21.6,29.29,ENE,69,2.7,2.7,77,0.00,,,0.00,VWS V14.01,2013-02-17 17:32:00,
2013-02-17 12:33:00,27.9,21.6,29.29,ENE,63,2.2,3.6,77,0.00,,,0.00,VWS V14.01,2013-02-17 17:33:00,
2013-02-17 12:34:00,27.9,21.6,29.29,ENE,63,2.2,3.6,77,0.00,,,0.00,VWS V14.01,2013-02-17 17:34:00,
2013-02-17 12:35:00,27.9,21.6,29.29,SSE,150,3.6,3.6,77,0.00,,,0.00,VWS V14.01,2013-02-17 17:35:00,
2013-02-17 12:36:00,27.7,21.4,29.29,SSE,150,3.6,3.6,77,0.00,,,0.00,VWS V14.01,2013-02-17 17:36:00,
2013-02-17 12:37:00,27.7,21.4,29.29,SE,135,2.7,2.7,77,0.00,,,0.00,VWS V14.01,2013-02-17 17:37:00,
2013-02-17 12:38:00,27.7,21.4,29.29,SE,135,2.7,2.7,77,0.00,,,0.00,VWS V14.01,2013-02-17 17:38:00,
2013-02-17 12:39:00,27.7,21.4,29.29,ENE,66,3.6,3.6,77,0.00,,,0.00,VWS V14.01,2013-02-17 17:39:00,
2013-02-17 12:40:00,27.7,21.4,29.26,ENE,66,3.6,3.6,77,0.00,,,0.00,VWS V14.01,2013-02-17 17:40:00,
2013-02-17 12:41:00,27.7,21.4,29.26,NE,53,3.6,3.6,77,0.00,,,0.00,VWS V14.01,2013-02-17 17:41:00,
2013-02-17 12:42:00,27.7,21.4,29.26,ENE,62,3.1,3.6,77,0.00,,,0.00,VWS V14.01,2013-02-17 17:42:00,
2013-02-17 12:43:00,27.7,21.4,29.26,ENE,62,3.1,3.1,77,0.00,,,0.00,VWS V14.01,2013-02-17 17:43:00,
2013-02-17 12:44:00,27.7,21.4,29.26,ENE,62,3.1,3.1,77,0.00,,,0.00,VWS V14.01,2013-02-17 17:44:00,
2013-02-17 12:45:00,27.7,21.4,29.26,ENE,62,3.1,3.1,77,0.00,,,0.00,VWS V14.01,2013-02-17 17:45:00,
2013-02-17 12:46:00,27.9,21.6,29.26,ENE,62,3.1,3.1,77,0.00,,,0.00,VWS V14.01,2013-02-17 17:46:00,
2013-02-17 12:47:00,27.9,21.6,29.26,NNE,12,0.0,3.1,77,0.00,,,0.00,VWS V14.01,2013-02-17 17:47:00,
2013-02-17 12:48:00,27.9,21.6,29.26,ENE,63,2.7,2.7,77,0.00,,,0.00,VWS V14.01,2013-02-17 17:48:00,
2013-02-17 12:49:00,27.9,21.6,29.26,ENE,63,2.7,2.7,77,0.00,,,0.00,VWS V14.01,2013-02-17 17:49:00,
2013-02-17 12:50:00,27.9,21.6,29.26,ENE,62,2.7,2.7,77,0.00,,,0.00,VWS V14.01,2013-02-17 17:50:00,
2013-02-17 12:51:00,27.9,21.6,29.26,ENE,63,4.0,4.0,77,0.00,,,0.00,VWS V14.01,2013-02-17 17:51:00,
2013-02-17 12:52:00,27.9,21.6,29.26,ENE,63,2.2,2.2,77,0.00,,,0.00,VWS V14.01,2013-02-17 17:52:00,
2013-02-17 12:53:00,27.9,21.6,29.26,ENE,63,2.2,2.2,77,0.00,,,0.00,VWS V14.01,2013-02-17 17:53:00,
2013-02-17 12:54:00,27.9,21.6,29.26,ENE,63,2.2,2.2,77,0.00,,,0.00,VWS V14.01,2013-02-17 17:54:00,
2013-02-17 12:55:00,28.6,22.3,29.26,North,0,2.7,2.7,77,0.00,,,0.00,VWS V14.01,2013-02-17 17:55:00,
2013-02-17 12:56:00,28.6,22.3,29.26,North,0,2.7,2.7,77,0.00,,,0.00,VWS V14.01,2013-02-17 17:56:00,
2013-02-17 12:57:00,28.6,22.3,29.26,North,0,2.7,2.7,77,0.00,,,0.00,VWS V14.01,2013-02-17 17:57:00,
2013-02-17 12:58:00,28.6,22.3,29.26,North,357,5.4,5.4,77,0.00,,,0.00,VWS V14.01,2013-02-17 17:58:00,
2013-02-17 12:59:00,28.6,22.3,29.26,NNW,343,4.0,5.4,77,0.00,,,0.00,VWS V14.01,2013-02-17 17:59:00,
2013-02-17 13:00:00,28.6,22.3,29.26,North,357,5.4,5.4,77,0.00,,,0.00,VWS V14.01,2013-02-17 18:00:00,
2013-02-17 13:01:00,28.6,22.3,29.26,NE,51,3.6,5.4,77,0.00,,,0.00,VWS V14.01,2013-02-17 18:01:00,
2013-02-17 13:02:00,28.6,22.3,29.26,NE,51,3.6,5.4,77,0.00,,,0.00,VWS V14.01,2013-02-17 18:02:00,
2013-02-17 13:03:00,28.6,22.3,29.26,NE,51,3.6,3.6,77,0.00,,,0.00,VWS V14.01,2013-02-17 18:03:00,
2013-02-17 13:04:00,28.6,22.3,29.26,NE,51,3.6,3.6,77,0.00,,,0.00,VWS V14.01,2013-02-17 18:04:00,
2013-02-17 13:05:00,28.6,22.3,29.26,NE,51,3.6,3.6,77,0.00,,,0.00,VWS V14.01,2013-02-17 18:05:00,
2013-02-17 13:06:00,28.6,22.3,29.26,NE,51,3.6,3.6,77,0.00,,,0.00,VWS V14.01,2013-02-17 18:06:00,
2013-02-17 13:07:00,28.6,22.3,29.26,NE,51,3.6,3.6,77,0.00,,,0.00,VWS V14.01,2013-02-17 18:07:00,
2013-02-17 13:08:00,28.6,22.3,29.26,NE,51,3.6,3.6,77,0.00,,,0.00,VWS V14.01,2013-02-17 18:08:00,
2013-02-17 13:09:00,28.6,22.3,29.26,NE,51,3.6,3.6,77,0.00,,,0.00,VWS V14.01,2013-02-17 18:09:00,
2013-02-17 13:10:00,28.6,22.3,29.26,North,1,4.0,4.0,77,0.00,,,0.00,VWS V14.01,2013-02-17 18:10:00,
2013-02-17 13:11:00,28.6,22.3,29.26,North,1,4.0,4.0,77,0.00,,,0.00,VWS V14.01,2013-02-17 18:11:00,
2013-02-17 13:12:00,28.6,22.3,29.26,North,1,2.2,4.0,77,0.00,,,0.00,VWS V14.01,2013-02-17 18:12:00,
2013-02-17 13:13:00,28.6,22.3,29.26,North,1,0.0,2.2,77,0.00,,,0.00,VWS V14.01,2013-02-17 18:13:00,
2013-02-17 13:14:00,28.6,22.3,29.26,North,1,0.0,0.0,77,0.00,,,0.00,VWS V14.01,2013-02-17 18:14:00,
2013-02-17 13:15:00,28.0,21.8,29.26,ENE,64,8.1,8.1,77,0.00,,,0.00,VWS V14.01,2013-02-17 18:15:00,
2013-02-17 13:16:00,28.0,21.8,29.26,ENE,64,8.1,8.1,77,0.00,,,0.00,VWS V14.01,2013-02-17 18:16:00,
2013-02-17 13:17:00,28.0,21.8,29.26,NE,42,5.8,8.1,77,0.00,,,0.00,VWS V14.01,2013-02-17 18:17:00,
2013-02-17 13:18:00,28.0,21.8,29.26,NE,42,5.8,5.8,77,0.00,,,0.00,VWS V14.01,2013-02-17 18:18:00,
2013-02-17 13:19:00,28.0,21.8,29.26,NE,42,5.8,5.8,77,0.00,,,0.00,VWS V14.01,2013-02-17 18:19:00,
2013-02-17 13:20:00,28.0,21.8,29.26,NE,42,5.8,5.8,77,0.00,,,0.00,VWS V14.01,2013-02-17 18:20:00,
2013-02-17 13:21:00,28.0,21.8,29.26,East,79,0.0,5.8,77,0.00,,,0.00,VWS V14.01,2013-02-17 18:21:00,
2013-02-17 13:22:00,28.0,21.8,29.26,East,79,0.0,0.0,77,0.00,,,0.00,VWS V14.01,2013-02-17 18:22:00,
2013-02-17 13:23:00,28.0,21.8,29.26,East,81,4.0,4.0,77,0.00,,,0.00,VWS V14.01,2013-02-17 18:23:00,
2013-02-17 13:24:00,28.0,21.8,29.26,East,81,2.2,2.2,77,0.00,,,0.00,VWS V14.01,2013-02-17 18:24:00,
2013-02-17 13:25:00,28.0,21.8,29.26,East,81,0.0,2.2,77,0.00,,,0.00,VWS V14.01,2013-02-17 18:25:00,
2013-02-17 13:26:00,28.0,21.8,29.26,East,81,3.1,3.1,77,0.00,,,0.00,VWS V14.01,2013-02-17 18:26:00,
2013-02-17 13:27:00,28.0,21.8,29.26,East,81,3.1,3.1,77,0.00,,,0.00,VWS V14.01,2013-02-17 18:27:00,
2013-02-17 13:28:00,28.0,21.8,29.26,ENE,60,3.6,3.6,77,0.00,,,0.00,VWS V14.01,2013-02-17 18:28:00,
2013-02-17 13:29:00,28.0,21.8,29.26,ENE,60,3.6,3.6,77,0.00,,,0.00,VWS V14.01,2013-02-17 18:29:00,
2013-02-17 13:30:00,28.0,21.8,29.26,ENE,60,3.1,3.6,77,0.00,,,0.00,VWS V14.01,2013-02-17 18:30:00,
2013-02-17 13:31:00,28.0,21.8,29.26,ENE,60,3.1,3.1,77,0.00,,,0.00,VWS V14.01,2013-02-17 18:31:00,
2013-02-17 13:32:00,28.0,21.8,29.26,ENE,70,3.1,3.1,77,0.00,,,0.00,VWS V14.01,2013-02-17 18:32:00,
2013-02-17 13:33:00,28.0,21.8,29.26,ENE,70,3.1,3.1,77,0.00,,,0.00,VWS V14.01,2013-02-17 18:33:00,
2013-02-17 13:34:00,28.0,21.8,29.26,NNE,28,0.0,0.0,77,0.00,,,0.00,VWS V14.01,2013-02-17 18:34:00,
2013-02-17 13:35:00,28.0,21.8,29.26,NNE,28,0.0,0.0,77,0.00,,,0.00,VWS V14.01,2013-02-17 18:35:00,
2013-02-17 13:36:00,27.7,21.4,29.26,NNE,28,0.0,0.0,77,0.00,,,0.00,VWS V14.01,2013-02-17 18:36:00,
2013-02-17 13:37:00,27.7,21.4,29.26,NE,48,3.1,3.1,77,0.00,,,0.00,VWS V14.01,2013-02-17 18:37:00,
2013-02-17 13:38:00,27.7,21.4,29.26,NE,48,3.1,3.1,77,0.00,,,0.00,VWS V14.01,2013-02-17 18:38:00,
2013-02-17 13:39:00,27.7,21.4,29.26,NE,55,3.6,3.6,77,0.00,,,0.00,VWS V14.01,2013-02-17 18:39:00,
2013-02-17 13:40:00,27.7,21.4,29.26,NE,55,3.6,3.6,77,0.00,,,0.00,VWS V14.01,2013-02-17 18:40:00,
2013-02-17 13:41:00,27.7,21.4,29.26,NE,45,3.1,3.6,77,0.00,,,0.00,VWS V14.01,2013-02-17 18:41:00,
2013-02-17 13:42:00,27.7,21.4,29.26,North,11,5.4,5.4,77,0.00,,,0.00,VWS V14.01,2013-02-17 18:42:00,
2013-02-17 13:43:00,27.7,21.4,29.26,North,11,2.7,3.1,77,0.00,,,0.00,VWS V14.01,2013-02-17 18:43:00,
2013-02-17 13:44:00,27.7,21.4,29.26,North,7,3.1,3.1,77,0.00,,,0.00,VWS V14.01,2013-02-17 18:44:00,
2013-02-17 13:45:00,27.7,21.4,29.26,North,7,3.1,3.1,77,0.00,,,0.00,VWS V14.01,2013-02-17 18:45:00,
2013-02-17 13:46:00,27.7,21.4,29.26,North,7,3.1,3.1,77,0.00,,,0.00,VWS V14.01,2013-02-17 18:46:00,
2013-02-17 13:47:00,27.7,21.4,29.26,North,7,3.1,3.1,77,0.00,,,0.00,VWS V14.01,2013-02-17 18:47:00,
2013-02-17 13:48:00,27.7,21.4,29.26,North,7,3.1,3.1,77,0.00,,,0.00,VWS V14.01,2013-02-17 18:48:00,
2013-02-17 13:49:00,27.7,21.4,29.26,West,281,2.2,3.1,77,0.00,,,0.00,VWS V14.01,2013-02-17 18:49:00,
2013-02-17 13:50:00,27.7,21.4,29.26,West,281,2.2,3.1,77,0.00,,,0.00,VWS V14.01,2013-02-17 18:50:00,
2013-02-17 13:51:00,27.7,21.4,29.26,West,281,0.0,0.0,77,0.00,,,0.00,VWS V14.01,2013-02-17 18:51:00,
2013-02-17 13:52:00,27.7,21.4,29.26,North,350,5.4,5.4,77,0.00,,,0.00,VWS V14.01,2013-02-17 18:52:00,
2013-02-17 13:53:00,29.1,22.8,29.26,North,357,3.1,5.4,77,0.00,,,0.00,VWS V14.01,2013-02-17 18:53:00,
2013-02-17 13:54:00,29.1,22.8,29.26,WNW,289,2.2,3.1,77,0.00,,,0.00,VWS V14.01,2013-02-17 18:54:00,
2013-02-17 13:55:00,29.1,22.8,29.26,WNW,289,2.2,3.1,77,0.00,,,0.00,VWS V14.01,2013-02-17 18:55:00,
2013-02-17 13:56:00,29.5,23.2,29.26,NW,318,3.6,3.6,77,0.00,,,0.00,VWS V14.01,2013-02-17 18:56:00,
2013-02-17 13:57:00,29.5,23.2,29.26,North,1,5.4,5.4,77,0.00,,,0.00,VWS V14.01,2013-02-17 18:57:00,
2013-02-17 13:58:00,29.5,23.2,29.26,North,1,3.6,3.6,77,0.00,,,0.00,VWS V14.01,2013-02-17 18:58:00,
2013-02-17 13:59:00,29.5,23.2,29.26,North,1,3.6,3.6,77,0.00,,,0.00,VWS V14.01,2013-02-17 18:59:00,
2013-02-17 14:00:00,29.5,23.2,29.26,North,2,4.9,4.9,77,0.00,,,0.00,VWS V14.01,2013-02-17 19:00:00,
2013-02-17 14:01:00,29.5,23.2,29.26,North,2,4.9,4.9,77,0.00,,,0.00,VWS V14.01,2013-02-17 19:01:00,
2013-02-17 14:02:00,29.5,23.2,29.26,North,2,4.9,4.9,77,0.00,,,0.00,VWS V14.01,2013-02-17 19:02:00,
2013-02-17 14:03:00,29.5,23.2,29.26,North,2,4.9,4.9,77,0.00,,,0.00,VWS V14.01,2013-02-17 19:03:00,
2013-02-17 14:04:00,29.3,23.0,29.26,North,2,4.9,4.9,77,0.00,,,0.00,VWS V14.01,2013-02-17 19:04:00,
2013-02-17 14:05:00,29.3,23.0,29.26,North,4,5.8,5.8,77,0.00,,,0.00,VWS V14.01,2013-02-17 19:05:00,
2013-02-17 14:06:00,29.3,23.0,29.26,NNW,341,5.8,5.8,77,0.00,,,0.00,VWS V14.01,2013-02-17 19:06:00,
2013-02-17 14:07:00,29.3,23.0,29.26,North,0,3.1,5.8,77,0.00,,,0.00,VWS V14.01,2013-02-17 19:07:00,
2013-02-17 14:08:00,29.3,23.0,29.26,North,9,4.9,4.9,77,0.00,,,0.00,VWS V14.01,2013-02-17 19:08:00,
2013-02-17 14:09:00,29.3,23.0,29.26,NNE,15,5.4,5.4,77,0.00,,,0.00,VWS V14.01,2013-02-17 19:09:00,
2013-02-17 14:10:00,29.3,23.0,29.26,NNE,15,5.4,5.4,77,0.00,,,0.00,VWS V14.01,2013-02-17 19:10:00,
2013-02-17 14:11:00,29.3,23.0,29.26,North,357,3.1,5.4,77,0.00,,,0.00,VWS V14.01,2013-02-17 19:11:00,
2013-02-17 14:12:00,29.3,23.0,29.26,North,357,3.1,5.4,77,0.00,,,0.00,VWS V14.01,2013-02-17 19:12:00,
2013-02-17 14:13:00,29.3,23.0,29.26,North,357,3.1,3.1,77,0.00,,,0.00,VWS V14.01,2013-02-17 19:13:00,
2013-02-17 14:14:00,29.3,23.0,29.26,North,357,3.1,3.1,77,0.00,,,0.00,VWS V14.01,2013-02-17 19:14:00,
2013-02-17 14:15:00,29.3,23.0,29.26,NNW,345,0.0,0.0,77,0.00,,,0.00,VWS V14.01,2013-02-17 19:15:00,
2013-02-17 14:16:00,29.3,23.0,29.26,NNW,345,0.0,0.0,77,0.00,,,0.00,VWS V14.01,2013-02-17 19:16:00,
2013-02-17 14:17:00,29.3,23.0,29.26,NNW,345,0.0,0.0,77,0.00,,,0.00,VWS V14.01,2013-02-17 19:17:00,
2013-02-17 14:18:00,29.3,23.0,29.26,North,0,4.5,4.5,77,0.00,,,0.00,VWS V14.01,2013-02-17 19:18:00,
2013-02-17 14:19:00,29.3,23.0,29.26,North,0,3.6,3.6,77,0.00,,,0.00,VWS V14.01,2013-02-17 19:19:00,
2013-02-17 14:20:00,29.3,23.0,29.26,North,0,3.6,3.6,77,0.00,,,0.00,VWS V14.01,2013-02-17 19:20:00,
2013-02-17 14:21:00,29.3,23.0,29.26,North,3,8.1,8.1,77,0.00,,,0.00,VWS V14.01,2013-02-17 19:21:00,
2013-02-17 14:22:00,29.3,23.0,29.26,North,3,8.1,8.1,77,0.00,,,0.00,VWS V14.01,2013-02-17 19:22:00,
2013-02-17 14:23:00,28.0,21.8,29.26,North,3,8.1,8.1,77,0.00,,,0.00,VWS V14.01,2013-02-17 19:23:00,
2013-02-17 14:24:00,28.0,21.8,29.26,North,3,8.1,8.1,77,0.00,,,0.00,VWS V14.01,2013-02-17 19:24:00,
2013-02-17 14:25:00,28.0,21.8,29.26,NNE,15,5.4,5.4,77,0.00,,,0.00,VWS V14.01,2013-02-17 19:25:00,
2013-02-17 14:26:00,28.0,21.8,29.26,North,3,8.3,8.3,77,0.00,,,0.00,VWS V14.01,2013-02-17 19:26:00,
2013-02-17 14:27:00,28.0,21.8,29.26,North,3,8.3,8.3,77,0.00,,,0.00,VWS V14.01,2013-02-17 19:27:00,
2013-02-17 14:28:00,28.4,22.1,29.26,North,353,3.6,8.3,77,0.00,,,0.00,VWS V14.01,2013-02-17 19:28:00,
2013-02-17 14:29:00,28.4,22.1,29.26,North,353,3.6,8.3,77,0.00,,,0.00,VWS V14.01,2013-02-17 19:29:00,
2013-02-17 14:30:00,28.6,22.3,29.26,North,353,3.6,3.6,77,0.00,,,0.00,VWS V14.01,2013-02-17 19:30:00,
2013-02-17 14:31:00,28.6,22.3,29.26,North,10,8.7,8.7,77,0.00,,,0.00,VWS V14.01,2013-02-17 19:31:00,
2013-02-17 14:32:00,28.6,22.3,29.26,North,10,8.7,8.7,77,0.00,,,0.00,VWS V14.01,2013-02-17 19:32:00,
2013-02-17 14:33:00,28.6,22.3,29.26,NNW,327,7.6,8.7,77,0.00,,,0.00,VWS V14.01,2013-02-17 19:33:00,
2013-02-17 14:34:00,28.6,22.3,29.26,NNW,327,7.6,7.6,77,0.00,,,0.00,VWS V14.01,2013-02-17 19:34:00,
2013-02-17 14:35:00,28.6,22.3,29.26,North,2,5.4,7.6,77,0.00,,,0.00,VWS V14.01,2013-02-17 19:35:00,
2013-02-17 14:36:00,28.6,22.3,29.26,North,2,5.4,5.4,77,0.00,,,0.00,VWS V14.01,2013-02-17 19:36:00,
2013-02-17 14:37:00,28.6,22.3,29.26,North,2,5.4,5.4,77,0.00,,,0.00,VWS V14.01,2013-02-17 19:37:00,
2013-02-17 14:38:00,28.6,22.3,29.26,NNW,332,3.1,5.4,77,0.00,,,0.00,VWS V14.01,2013-02-17 19:38:00,
2013-02-17 14:39:00,28.6,22.3,29.26,NNW,332,3.1,3.1,77,0.00,,,0.00,VWS V14.01,2013-02-17 19:39:00,
2013-02-17 14:40:00,28.6,22.3,29.26,North,4,2.7,2.7,77,0.00,,,0.00,VWS V14.01,2013-02-17 19:40:00,
2013-02-17 14:41:00,28.6,22.3,29.26,North,4,2.7,2.7,77,0.00,,,0.00,VWS V14.01,2013-02-17 19:41:00,
2013-02-17 14:42:00,28.6,22.3,29.26,North,4,2.7,2.7,77,0.00,,,0.00,VWS V14.01,2013-02-17 19:42:00,
2013-02-17 14:43:00,28.6,22.3,29.26,NNW,345,2.2,2.7,77,0.00,,,0.00,VWS V14.01,2013-02-17 19:43:00,
2013-02-17 14:44:00,28.6,22.3,29.26,NNW,345,2.2,2.2,77,0.00,,,0.00,VWS V14.01,2013-02-17 19:44:00,
2013-02-17 14:45:00,28.2,22.0,29.26,NNW,345,2.2,2.2,77,0.00,,,0.00,VWS V14.01,2013-02-17 19:45:00,
2013-02-17 14:46:00,28.2,22.0,29.26,NNE,28,2.7,2.7,77,0.00,,,0.00,VWS V14.01,2013-02-17 19:46:00,
2013-02-17 14:47:00,28.2,22.0,29.26,NNE,28,2.7,2.7,77,0.00,,,0.00,VWS V14.01,2013-02-17 19:47:00,
2013-02-17 14:48:00,28.2,22.0,29.26,NNE,15,3.6,4.0,77,0.00,,,0.00,VWS V14.01,2013-02-17 19:48:00,
2013-02-17 14:49:00,28.2,22.0,29.26,NNE,15,3.6,3.6,77,0.00,,,0.00,VWS V14.01,2013-02-17 19:49:00,
2013-02-17 14:50:00,28.2,22.0,29.26,NNE,15,3.6,3.6,77,0.00,,,0.00,VWS V14.01,2013-02-17 19:50:00,
2013-02-17 14:51:00,28.2,22.0,29.26,NE,45,2.7,2.7,77,0.00,,,0.00,VWS V14.01,2013-02-17 19:51:00,
2013-02-17 14:52:00,28.2,22.0,29.26,NE,45,2.2,2.2,77,0.00,,,0.00,VWS V14.01,2013-02-17 19:52:00,
2013-02-17 14:53:00,28.2,22.0,29.24,NE,45,2.2,2.2,77,0.00,,,0.00,VWS V14.01,2013-02-17 19:53:00,
2013-02-17 14:54:00,28.2,22.0,29.23,NE,45,2.7,2.7,77,0.00,,,0.00,VWS V14.01,2013-02-17 19:54:00,
2013-02-17 14:55:00,28.2,22.0,29.24,NE,45,2.7,2.7,77,0.00,,,0.00,VWS V14.01,2013-02-17 19:55:00,
2013-02-17 14:56:00,28.4,22.1,29.23,North,357,6.3,6.3,77,0.00,,,0.00,VWS V14.01,2013-02-17 19:56:00,
2013-02-17 14:57:00,28.4,22.1,29.23,North,357,6.3,6.3,77,0.00,,,0.00,VWS V14.01,2013-02-17 19:57:00,
2013-02-17 14:58:00,28.4,22.1,29.24,North,357,6.3,6.3,77,0.00,,,0.00,VWS V14.01,2013-02-17 19:58:00,
2013-02-17 14:59:00,28.4,22.1,29.23,NNW,345,6.3,6.3,77,0.00,,,0.00,VWS V14.01,2013-02-17 19:59:00,
2013-02-17 15:00:00,28.4,22.1,29.24,North,0,4.0,6.3,77,0.00,,,0.00,VWS V14.01,2013-02-17 20:00:00,
2013-02-17 15:01:00,28.4,22.1,29.23,North,357,5.8,5.8,77,0.00,,,0.00,VWS V14.01,2013-02-17 20:01:00,
2013-02-17 15:02:00,28.4,22.1,29.23,North,357,5.8,5.8,77,0.00,,,0.00,VWS V14.01,2013-02-17 20:02:00,
2013-02-17 15:03:00,29.3,23.0,29.24,North,357,5.8,5.8,77,0.00,,,0.00,VWS V14.01,2013-02-17 20:03:00,
2013-02-17 15:04:00,29.3,23.0,29.23,North,2,2.2,2.2,77,0.00,,,0.00,VWS V14.01,2013-02-17 20:04:00,
2013-02-17 15:05:00,29.3,23.0,29.24,North,2,2.2,2.2,77,0.00,,,0.00,VWS V14.01,2013-02-17 20:05:00,
2013-02-17 15:06:00,30.0,23.7,29.26,North,2,2.2,2.2,77,0.00,,,0.00,VWS V14.01,2013-02-17 20:06:00,
2013-02-17 15:07:00,30.0,23.7,29.26,NNE,12,4.9,4.9,77,0.00,,,0.00,VWS V14.01,2013-02-17 20:07:00,
2013-02-17 15:08:00,30.0,23.7,29.26,NNE,12,4.9,4.9,77,0.00,,,0.00,VWS V14.01,2013-02-17 20:08:00,
2013-02-17 15:09:00,30.0,23.7,29.26,NNE,25,2.7,2.7,77,0.00,,,0.00,VWS V14.01,2013-02-17 20:09:00,
2013-02-17 15:10:00,30.0,23.7,29.26,NW,317,5.8,5.8,77,0.00,,,0.00,VWS V14.01,2013-02-17 20:10:00,
2013-02-17 15:11:00,30.0,23.7,29.26,NW,317,5.8,5.8,77,0.00,,,0.00,VWS V14.01,2013-02-17 20:11:00,
2013-02-17 15:12:00,30.0,23.7,29.26,NW,317,5.8,5.8,77,0.00,,,0.00,VWS V14.01,2013-02-17 20:12:00,
2013-02-17 15:13:00,30.0,23.7,29.26,NW,317,5.8,5.8,77,0.00,,,0.00,VWS V14.01,2013-02-17 20:13:00,
2013-02-17 15:14:00,30.0,23.7,29.26,North,3,4.0,5.8,77,0.00,,,0.00,VWS V14.01,2013-02-17 20:14:00,
2013-02-17 15:15:00,30.0,23.7,29.26,North,3,4.0,5.8,77,0.00,,,0.00,VWS V14.01,2013-02-17 20:15:00,
2013-02-17 15:16:00,30.0,23.7,29.26,North,3,4.0,4.0,77,0.00,,,0.00,VWS V14.01,2013-02-17 20:16:00,
2013-02-17 15:17:00,30.0,23.7,29.26,North,3,4.0,4.0,77,0.00,,,0.00,VWS V14.01,2013-02-17 20:17:00,
2013-02-17 15:18:00,30.0,23.7,29.26,NNW,348,3.6,4.0,77,0.00,,,0.00,VWS V14.01,2013-02-17 20:18:00,
2013-02-17 15:19:00,30.0,23.7,29.26,NNW,348,3.6,3.6,77,0.00,,,0.00,VWS V14.01,2013-02-17 20:19:00,
2013-02-17 15:20:00,30.0,23.7,29.26,NNW,348,3.6,3.6,77,0.00,,,0.00,VWS V14.01,2013-02-17 20:20:00,
2013-02-17 15:21:00,30.0,23.7,29.26,North,1,6.3,6.3,77,0.00,,,0.00,VWS V14.01,2013-02-17 20:21:00,
2013-02-17 15:22:00,30.0,23.7,29.26,North,1,6.3,6.3,77,0.00,,,0.00,VWS V14.01,2013-02-17 20:22:00,
2013-02-17 15:23:00,30.0,23.7,29.26,North,1,6.3,6.3,77,0.00,,,0.00,VWS V14.01,2013-02-17 20:23:00,
2013-02-17 15:24:00,30.0,23.7,29.26,WNW,298,3.6,3.6,77,0.00,,,0.00,VWS V14.01,2013-02-17 20:24:00,
2013-02-17 15:25:00,30.0,23.7,29.26,WNW,298,3.6,3.6,77,0.00,,,0.00,VWS V14.01,2013-02-17 20:25:00,
2013-02-17 15:26:00,30.0,23.7,29.26,WNW,298,3.6,3.6,77,0.00,,,0.00,VWS V14.01,2013-02-17 20:26:00,
2013-02-17 15:27:00,30.0,23.7,29.26,WNW,298,3.6,3.6,77,0.00,,,0.00,VWS V14.01,2013-02-17 20:27:00,
2013-02-17 15:28:00,30.0,23.7,29.26,North,3,4.0,4.0,77,0.00,,,0.00,VWS V14.01,2013-02-17 20:28:00,
2013-02-17 15:29:00,30.0,23.7,29.26,North,353,5.8,5.8,77,0.00,,,0.00,VWS V14.01,2013-02-17 20:29:00,
2013-02-17 15:30:00,30.0,23.7,29.26,North,353,5.8,5.8,77,0.00,,,0.00,VWS V14.01,2013-02-17 20:30:00,
2013-02-17 15:31:00,31.3,24.9,29.26,North,353,5.8,5.8,77,0.00,,,0.00,VWS V14.01,2013-02-17 20:31:00,
2013-02-17 15:32:00,31.5,25.1,29.26,NNW,343,5.8,5.8,77,0.00,,,0.00,VWS V14.01,2013-02-17 20:32:00,
2013-02-17 15:33:00,31.5,25.1,29.26,North,353,7.2,7.2,77,0.00,,,0.00,VWS V14.01,2013-02-17 20:33:00,
2013-02-17 15:34:00,31.5,25.1,29.26,North,353,7.2,7.2,77,0.00,,,0.00,VWS V14.01,2013-02-17 20:34:00,
2013-02-17 15:35:00,31.5,25.1,29.26,North,10,5.4,5.4,77,0.00,,,0.00,VWS V14.01,2013-02-17 20:35:00,
2013-02-17 15:36:00,31.5,25.1,29.26,North,10,5.4,5.4,77,0.00,,,0.00,VWS V14.01,2013-02-17 20:36:00,
2013-02-17 15:37:00,31.3,24.9,29.26,North,353,8.1,8.1,77,0.00,,,0.00,VWS V14.01,2013-02-17 20:37:00,
2013-02-17 15:38:00,31.3,24.9,29.26,North,353,8.1,8.1,77,0.00,,,0.00,VWS V14.01,2013-02-17 20:38:00,
2013-02-17 15:39:00,31.3,24.9,29.26,North,353,8.1,8.1,77,0.00,,,0.00,VWS V14.01,2013-02-17 20:39:00,
2013-02-17 15:40:00,31.3,24.9,29.26,North,353,8.1,8.1,77,0.00,,,0.00,VWS V14.01,2013-02-17 20:40:00,
2013-02-17 15:41:00,31.3,24.9,29.24,North,7,5.4,8.1,77,0.00,,,0.00,VWS V14.01,2013-02-17 20:41:00,
2013-02-17 15:42:00,31.3,24.9,29.23,North,7,5.4,5.4,77,0.00,,,0.00,VWS V14.01,2013-02-17 20:42:00,
2013-02-17 15:43:00,31.3,24.9,29.24,North,9,5.8,5.8,77,0.00,,,0.00,VWS V14.01,2013-02-17 20:43:00,
2013-02-17 15:44:00,31.3,24.9,29.24,North,1,6.3,6.3,77,0.00,,,0.00,VWS V14.01,2013-02-17 20:44:00,
2013-02-17 15:45:00,31.3,24.9,29.23,North,1,6.3,6.3,77,0.00,,,0.00,VWS V14.01,2013-02-17 20:45:00,
2013-02-17 15:46:00,30.6,24.2,29.24,North,1,6.3,6.3,77,0.00,,,0.00,VWS V14.01,2013-02-17 20:46:00,
2013-02-17 15:47:00,30.6,24.2,29.23,North,1,6.3,6.3,77,0.00,,,0.00,VWS V14.01,2013-02-17 20:47:00,
2013-02-17 15:48:00,30.4,24.0,29.23,North,1,6.3,6.3,77,0.00,,,0.00,VWS V14.01,2013-02-17 20:48:00,
2013-02-17 15:49:00,30.4,24.0,29.24,North,1,6.3,6.3,77,0.00,,,0.00,VWS V14.01,2013-02-17 20:49:00,
2013-02-17 15:50:00,30.2,23.9,29.23,North,1,6.3,6.3,77,0.00,,,0.00,VWS V14.01,2013-02-17 20:50:00,
2013-02-17 15:51:00,30.2,23.9,29.24,North,1,6.3,6.3,77,0.00,,,0.00,VWS V14.01,2013-02-17 20:51:00,
2013-02-17 15:52:00,30.2,23.9,29.23,North,1,6.3,6.3,77,0.00,,,0.00,VWS V14.01,2013-02-17 20:52:00,
2013-02-17 15:53:00,30.2,23.9,29.23,North,1,6.3,6.3,77,0.00,,,0.00,VWS V14.01,2013-02-17 20:53:00,
2013-02-17 15:54:00,30.2,23.9,29.24,NNW,332,4.9,6.3,77,0.00,,,0.00,VWS V14.01,2013-02-17 20:54:00,
2013-02-17 15:55:00,30.2,23.9,29.23,NNW,332,4.9,4.9,77,0.00,,,0.00,VWS V14.01,2013-02-17 20:55:00,
2013-02-17 15:56:00,30.2,23.9,29.24,NNW,332,4.9,4.9,77,0.00,,,0.00,VWS V14.01,2013-02-17 20:56:00,
2013-02-17 16:08:00,29.7,23.4,29.23,NNE,12,6.3,8.1,77,0.00,,,0.00,VWS V14.01,2013-02-17 21:08:00,
2013-02-17 16:13:00,29.7,23.4,29.23,North,1,4.9,4.9,77,0.00,,,0.00,VWS V14.01,2013-02-17 21:13:00,
2013-02-17 16:18:00,29.5,23.2,29.23,NNW,333,2.7,4.0,77,0.00,,,0.00,VWS V14.01,2013-02-17 21:18:00,
2013-02-17 16:19:00,29.3,23.0,29.23,North,353,3.1,5.4,77,0.00,,,0.00,VWS V14.01,2013-02-17 21:19:00,
2013-02-17 16:23:00,29.1,22.8,29.23,NNW,339,3.6,3.6,77,0.00,,,0.00,VWS V14.01,2013-02-17 21:23:00,
2013-02-17 16:24:00,28.9,22.6,29.23,North,2,6.3,7.6,77,0.00,,,0.00,VWS V14.01,2013-02-17 21:24:00,
2013-02-17 16:28:00,28.9,22.6,29.23,NNW,339,5.4,5.4,77,0.00,,,0.00,VWS V14.01,2013-02-17 21:28:00,
2013-02-17 16:29:00,28.9,22.6,29.23,NNE,18,7.6,7.6,77,0.00,,,0.00,VWS V14.01,2013-02-17 21:29:00,
2013-02-17 16:33:00,29.1,22.8,29.23,North,357,8.3,8.3,77,0.00,,,0.00,VWS V14.01,2013-02-17 21:33:00,
2013-02-17 16:34:00,29.3,23.0,29.23,North,7,6.3,8.7,77,0.00,,,0.00,VWS V14.01,2013-02-17 21:34:00,
2013-02-17 16:38:00,29.5,23.2,29.23,North,1,3.6,3.6,77,0.00,,,0.00,VWS V14.01,2013-02-17 21:38:00,
2013-02-17 16:39:00,29.7,23.4,29.23,NNW,341,3.1,3.1,77,0.00,,,0.00,VWS V14.01,2013-02-17 21:39:00,
2013-02-17 16:43:00,30.2,23.9,29.23,NW,311,6.3,6.7,77,0.00,,,0.00,VWS V14.01,2013-02-17 21:43:00,
2013-02-17 16:44:00,30.2,23.9,29.23,NNW,343,5.4,5.4,77,0.00,,,0.00,VWS V14.01,2013-02-17 21:44:00,
2013-02-17 16:48:00,30.2,23.9,29.23,NNW,329,5.4,5.4,77,0.00,,,0.00,VWS V14.01,2013-02-17 21:48:00,
2013-02-17 16:49:00,30.2,23.9,29.23,NW,326,5.4,5.4,77,0.00,,,0.00,VWS V14.01,2013-02-17 21:49:00,
2013-02-17 16:53:00,30.2,23.9,29.23,NW,317,2.7,3.1,77,0.00,,,0.00,VWS V14.01,2013-02-17 21:53:00,
2013-02-17 16:54:00,30.2,23.9,29.23,NW,317,2.7,2.7,77,0.00,,,0.00,VWS V14.01,2013-02-17 21:54:00,
2013-02-17 16:58:00,30.4,24.0,29.23,WNW,289,4.0,4.0,77,0.00,,,0.00,VWS V14.01,2013-02-17 21:58:00,
2013-02-17 16:59:00,30.4,24.0,29.23,WNW,289,3.1,4.0,77,0.00,,,0.00,VWS V14.01,2013-02-17 21:59:00,
2013-02-17 17:03:00,30.6,24.2,29.23,North,4,2.7,4.9,77,0.00,,,0.00,VWS V14.01,2013-02-17 22:03:00,
2013-02-17 17:04:00,30.6,24.2,29.23,WNW,292,3.6,4.9,77,0.00,,,0.00,VWS V14.01,2013-02-17 22:04:00,
2013-02-17 17:09:00,30.6,24.2,29.23,NNW,343,5.8,5.8,77,0.00,,,0.00,VWS V14.01,2013-02-17 22:09:00,
2013-02-17 17:10:00,30.4,24.0,29.23,North,0,4.9,5.8,77,0.00,,,0.00,VWS V14.01,2013-02-17 22:10:00,
2013-02-17 17:14:00,30.4,24.0,29.23,North,357,5.8,8.3,77,0.00,,,0.00,VWS V14.01,2013-02-17 22:14:00,
2013-02-17 17:15:00,30.4,24.0,29.23,NNW,334,3.1,5.8,77,0.00,,,0.00,VWS V14.01,2013-02-17 22:15:00,
2013-02-17 17:19:00,30.4,24.0,29.23,North,357,3.1,3.1,77,0.00,,,0.00,VWS V14.01,2013-02-17 22:19:00,
2013-02-17 17:20:00,30.4,24.0,29.23,North,357,3.6,3.6,77,0.00,,,0.00,VWS V14.01,2013-02-17 22:20:00,
2013-02-17 17:24:00,30.2,23.9,29.23,NNW,336,5.4,5.4,77,0.00,,,0.00,VWS V14.01,2013-02-17 22:24:00,
2013-02-17 17:25:00,30.2,23.9,29.23,NNW,336,3.1,5.4,77,0.00,,,0.00,VWS V14.01,2013-02-17 22:25:00,
2013-02-17 17:29:00,30.2,23.9,29.23,North,357,4.0,4.9,77,0.00,,,0.00,VWS V14.01,2013-02-17 22:29:00,
2013-02-17 17:30:00,30.2,23.9,29.23,North,357,3.1,3.1,77,0.00,,,0.00,VWS V14.01,2013-02-17 22:30:00,
2013-02-17 17:34:00,30.2,23.9,29.23,WNW,288,4.0,4.0,77,0.00,,,0.00,VWS V14.01,2013-02-17 22:34:00,
2013-02-17 17:35:00,30.2,23.9,29.23,WNW,291,3.1,4.9,77,0.00,,,0.00,VWS V14.01,2013-02-17 22:35:00,
2013-02-17 17:39:00,30.6,24.2,29.23,NW,304,3.1,3.1,77,0.00,,,0.00,VWS V14.01,2013-02-17 22:39:00,
2013-02-17 17:40:00,30.6,24.2,29.23,NW,304,2.7,2.7,77,0.00,,,0.00,VWS V14.01,2013-02-17 22:40:00,
2013-02-17 17:44:00,30.7,24.4,29.23,WNW,291,3.6,4.0,77,0.00,,,0.00,VWS V14.01,2013-02-17 22:44:00,
2013-02-17 17:45:00,30.7,24.4,29.23,WNW,291,3.6,4.0,77,0.00,,,0.00,VWS V14.01,2013-02-17 22:45:00,
2013-02-17 17:46:00,30.7,24.4,29.23,WNW,291,2.7,2.7,77,0.00,,,0.00,VWS V14.01,2013-02-17 22:46:00,
2013-02-17 17:50:00,30.4,24.0,29.23,NNW,339,3.6,3.6,77,0.00,,,0.00,VWS V14.01,2013-02-17 22:50:00,
2013-02-17 17:51:00,30.4,24.0,29.23,WNW,284,3.6,4.0,77,0.00,,,0.00,VWS V14.01,2013-02-17 22:51:00,
2013-02-17 17:55:00,29.8,23.5,29.23,NW,316,2.7,4.9,77,0.00,,,0.00,VWS V14.01,2013-02-17 22:55:00,
2013-02-17 17:56:00,29.7,23.4,29.23,NW,317,2.7,4.9,77,0.00,,,0.00,VWS V14.01,2013-02-17 22:56:00,
2013-02-17 18:00:00,28.9,22.6,29.23,NW,311,2.7,2.7,77,0.00,,,0.00,VWS V14.01,2013-02-17 23:00:00,
2013-02-17 18:01:00,28.8,22.5,29.23,NW,316,3.6,3.6,77,0.00,,,0.00,VWS V14.01,2013-02-17 23:01:00,
2013-02-17 18:05:00,28.4,22.1,29.23,NW,317,0.0,3.6,77,0.00,,,0.00,VWS V14.01,2013-02-17 23:05:00,
2013-02-17 18:06:00,28.2,22.0,29.23,NW,317,0.0,2.7,77,0.00,,,0.00,VWS V14.01,2013-02-17 23:06:00,
2013-02-17 18:10:00,27.7,21.4,29.23,NW,316,0.0,2.2,77,0.00,,,0.00,VWS V14.01,2013-02-17 23:10:00,
2013-02-17 18:11:00,27.7,21.4,29.23,NW,316,0.0,3.1,77,0.00,,,0.00,VWS V14.01,2013-02-17 23:11:00,
2013-02-17 18:15:00,27.1,20.9,29.23,NW,316,3.6,3.6,77,0.00,,,0.00,VWS V14.01,2013-02-17 23:15:00,
2013-02-17 18:16:00,27.1,20.9,29.23,NW,316,2.7,3.6,77,0.00,,,0.00,VWS V14.01,2013-02-17 23:16:00,
2013-02-17 18:20:00,26.8,20.5,29.23,NW,316,2.2,3.1,77,0.00,,,0.00,VWS V14.01,2013-02-17 23:20:00,
2013-02-17 18:21:00,26.8,20.5,29.23,NW,316,3.1,3.1,77,0.00,,,0.00,VWS V14.01,2013-02-17 23:21:00,
2013-02-17 18:22:00,26.8,20.5,29.23,NW,316,3.1,3.1,77,0.00,,,0.00,VWS V14.01,2013-02-17 23:22:00,
2013-02-17 18:25:00,26.4,20.5,29.23,NW,315,3.1,4.0,78,0.00,,,0.00,VWS V14.01,2013-02-17 23:25:00,
2013-02-17 18:26:00,26.4,20.5,29.23,NW,315,0.0,3.1,78,0.00,,,0.00,VWS V14.01,2013-02-17 23:26:00,
2013-02-17 18:27:00,26.4,20.5,29.23,NW,315,0.0,3.1,78,0.00,,,0.00,VWS V14.01,2013-02-17 23:27:00,
2013-02-17 18:30:00,26.2,20.3,29.23,NW,315,0.0,0.0,78,0.00,,,0.00,VWS V14.01,2013-02-17 23:30:00,
2013-02-17 18:31:00,26.1,20.1,29.23,NW,315,0.0,0.0,78,0.00,,,0.00,VWS V14.01,2013-02-17 23:31:00,
2013-02-17 18:32:00,26.1,20.1,29.23,NW,315,0.0,0.0,78,0.00,,,0.00,VWS V14.01,2013-02-17 23:32:00,
2013-02-17 18:35:00,25.9,20.0,29.21,NW,315,0.0,0.0,78,0.00,,,0.00,VWS V14.01,2013-02-17 23:35:00,
2013-02-17 18:36:00,25.9,20.0,29.21,NW,315,0.0,0.0,78,0.00,,,0.00,VWS V14.01,2013-02-17 23:36:00,
2013-02-17 18:37:00,25.9,20.0,29.21,NW,315,0.0,0.0,78,0.00,,,0.00,VWS V14.01,2013-02-17 23:37:00,
2013-02-17 18:41:00,25.7,19.8,29.21,NW,315,0.0,0.0,78,0.00,,,0.00,VWS V14.01,2013-02-17 23:41:00,
2013-02-17 18:42:00,25.7,19.8,29.21,NW,315,0.0,0.0,78,0.00,,,0.00,VWS V14.01,2013-02-17 23:42:00,
2013-02-17 18:46:00,25.3,19.5,29.21,NW,315,0.0,0.0,78,0.00,,,0.00,VWS V14.01,2013-02-17 23:46:00,
2013-02-17 18:47:00,25.3,19.5,29.21,NW,315,0.0,0.0,78,0.00,,,0.00,VWS V14.01,2013-02-17 23:47:00,
2013-02-17 18:51:00,25.2,19.3,29.23,NW,315,0.0,0.0,78,0.00,,,0.00,VWS V14.01,2013-02-17 23:51:00,
2013-02-17 18:52:00,25.0,19.1,29.23,NW,315,0.0,0.0,78,0.00,,,0.00,VWS V14.01,2013-02-17 23:52:00,
2013-02-17 18:56:00,24.8,18.9,29.23,NW,315,0.0,0.0,78,0.00,,,0.00,VWS V14.01,2013-02-17 23:56:00,
2013-02-17 18:57:00,24.6,18.8,29.23,NW,315,0.0,0.0,78,0.00,,,0.00,VWS V14.01,2013-02-17 23:57:00,
2013-02-17 19:01:00,24.4,18.6,29.23,NW,315,0.0,0.0,78,0.00,,,0.00,VWS V14.01,2013-02-18 00:01:00,
2013-02-17 19:02:00,24.4,18.6,29.23,NW,315,0.0,0.0,78,0.00,,,0.00,VWS V14.01,2013-02-18 00:02:00,
2013-02-17 19:06:00,24.1,18.2,29.23,NW,315,0.0,0.0,78,0.00,,,0.00,VWS V14.01,2013-02-18 00:06:00,
2013-02-17 19:07:00,24.1,18.2,29.23,NW,315,0.0,0.0,78,0.00,,,0.00,VWS V14.01,2013-02-18 00:07:00,
2013-02-17 19:11:00,23.7,17.9,29.23,NW,315,0.0,0.0,78,0.00,,,0.00,VWS V14.01,2013-02-18 00:11:00,
2013-02-17 19:12:00,23.7,17.9,29.23,NW,315,0.0,0.0,78,0.00,,,0.00,VWS V14.01,2013-02-18 00:12:00,
2013-02-17 19:16:00,23.5,17.7,29.23,NW,315,0.0,0.0,78,0.00,,,0.00,VWS V14.01,2013-02-18 00:16:00,
2013-02-17 19:17:00,23.5,17.7,29.23,NW,315,0.0,0.0,78,0.00,,,0.00,VWS V14.01,2013-02-18 00:17:00,
2013-02-17 19:21:00,23.4,17.5,29.23,NW,315,0.0,0.0,78,0.00,,,0.00,VWS V14.01,2013-02-18 00:21:00,
2013-02-17 19:23:00,23.2,17.4,29.23,NW,315,0.0,0.0,78,0.00,,,0.00,VWS V14.01,2013-02-18 00:23:00,
2013-02-17 19:26:00,23.2,17.4,29.23,NW,315,0.0,0.0,78,0.00,,,0.00,VWS V14.01,2013-02-18 00:26:00,
2013-02-17 19:28:00,23.0,17.5,29.23,NW,315,0.0,0.0,79,0.00,,,0.00,VWS V14.01,2013-02-18 00:28:00,
2013-02-17 19:31:00,22.8,17.3,29.23,NW,315,0.0,0.0,79,0.00,,,0.00,VWS V14.01,2013-02-18 00:31:00,
2013-02-17 19:33:00,22.8,17.3,29.23,NW,315,0.0,0.0,79,0.00,,,0.00,VWS V14.01,2013-02-18 00:33:00,
2013-02-17 19:36:00,22.8,17.3,29.23,NW,315,0.0,0.0,79,0.00,,,0.00,VWS V14.01,2013-02-18 00:36:00,
2013-02-17 19:38:00,22.6,17.1,29.23,NW,315,0.0,0.0,79,0.00,,,0.00,VWS V14.01,2013-02-18 00:38:00,
2013-02-17 19:41:00,22.6,17.1,29.23,NW,315,0.0,0.0,79,0.00,,,0.00,VWS V14.01,2013-02-18 00:41:00,
2013-02-17 19:42:00,22.6,17.1,29.23,NW,315,0.0,0.0,79,0.00,,,0.00,VWS V14.01,2013-02-18 00:42:00,
2013-02-17 19:43:00,22.6,17.1,29.23,NW,315,0.0,0.0,79,0.00,,,0.00,VWS V14.01,2013-02-18 00:43:00,
2013-02-17 19:44:00,22.6,17.1,29.23,NW,315,0.0,0.0,79,0.00,,,0.00,VWS V14.01,2013-02-18 00:44:00,
2013-02-17 19:46:00,22.5,16.9,29.23,NW,315,2.2,2.2,79,0.00,,,0.00,VWS V14.01,2013-02-18 00:46:00,
2013-02-17 19:47:00,22.5,16.9,29.23,NW,315,3.1,3.1,79,0.00,,,0.00,VWS V14.01,2013-02-18 00:47:00,
2013-02-17 19:48:00,22.5,16.9,29.23,NW,315,2.2,2.2,79,0.00,,,0.00,VWS V14.01,2013-02-18 00:48:00,
2013-02-17 19:49:00,22.5,16.9,29.23,NW,315,2.7,2.7,79,0.00,,,0.00,VWS V14.01,2013-02-18 00:49:00,
2013-02-17 19:51:00,22.5,16.9,29.21,NW,315,0.0,0.0,79,0.00,,,0.00,VWS V14.01,2013-02-18 00:51:00,
2013-02-17 19:52:00,22.5,16.9,29.21,NW,315,2.7,2.7,79,0.00,,,0.00,VWS V14.01,2013-02-18 00:52:00,
2013-02-17 19:53:00,22.5,16.9,29.21,NW,315,2.7,2.7,79,0.00,,,0.00,VWS V14.01,2013-02-18 00:53:00,
2013-02-17 19:54:00,22.3,16.8,29.21,NW,315,3.1,3.1,79,0.00,,,0.00,VWS V14.01,2013-02-18 00:54:00,
2013-02-17 19:56:00,22.3,16.8,29.21,NW,315,0.0,0.0,79,0.00,,,0.00,VWS V14.01,2013-02-18 00:56:00,
2013-02-17 19:57:00,22.3,16.8,29.21,NW,315,0.0,0.0,79,0.00,,,0.00,VWS V14.01,2013-02-18 00:57:00,
2013-02-17 19:58:00,22.3,16.8,29.21,NW,315,0.0,0.0,79,0.00,,,0.00,VWS V14.01,2013-02-18 00:58:00,
2013-02-17 19:59:00,22.3,16.8,29.21,NW,315,0.0,0.0,79,0.00,,,0.00,VWS V14.01,2013-02-18 00:59:00,
2013-02-17 20:01:00,22.3,16.8,29.21,NW,315,0.0,0.0,79,0.00,,,0.00,VWS V14.01,2013-02-18 01:01:00,
2013-02-17 20:02:00,22.3,16.8,29.21,NW,315,0.0,0.0,79,0.00,,,0.00,VWS V14.01,2013-02-18 01:02:00,
2013-02-17 20:03:00,22.3,16.8,29.21,NW,315,0.0,0.0,79,0.00,,,0.00,VWS V14.01,2013-02-18 01:03:00,
2013-02-17 20:04:00,22.3,16.8,29.21,NW,315,0.0,0.0,79,0.00,,,0.00,VWS V14.01,2013-02-18 01:04:00,
2013-02-17 20:06:00,22.3,16.8,29.23,NW,315,0.0,0.0,79,0.00,,,0.00,VWS V14.01,2013-02-18 01:06:00,
2013-02-17 20:07:00,22.3,16.8,29.23,NW,315,0.0,0.0,79,0.00,,,0.00,VWS V14.01,2013-02-18 01:07:00,
2013-02-17 20:09:00,22.1,16.6,29.23,NW,315,0.0,0.0,79,0.00,,,0.00,VWS V14.01,2013-02-18 01:09:00,
2013-02-17 20:11:00,22.1,16.6,29.23,NW,315,0.0,0.0,79,0.00,,,0.00,VWS V14.01,2013-02-18 01:11:00,
2013-02-17 20:12:00,22.1,16.6,29.23,NW,315,0.0,0.0,79,0.00,,,0.00,VWS V14.01,2013-02-18 01:12:00,
2013-02-17 20:14:00,22.1,16.6,29.23,NW,315,0.0,0.0,79,0.00,,,0.00,VWS V14.01,2013-02-18 01:14:00,
2013-02-17 20:16:00,22.1,16.6,29.23,NW,315,0.0,0.0,79,0.00,,,0.00,VWS V14.01,2013-02-18 01:16:00,
2013-02-17 20:17:00,22.1,16.6,29.23,NW,315,0.0,0.0,79,0.00,,,0.00,VWS V14.01,2013-02-18 01:17:00,
2013-02-17 20:19:00,22.1,16.6,29.23,NW,315,0.0,0.0,79,0.00,,,0.00,VWS V14.01,2013-02-18 01:19:00,
2013-02-17 20:21:00,22.1,16.6,29.23,NW,315,0.0,0.0,79,0.00,,,0.00,VWS V14.01,2013-02-18 01:21:00,
2013-02-17 20:22:00,22.1,16.6,29.23,NW,315,0.0,0.0,79,0.00,,,0.00,VWS V14.01,2013-02-18 01:22:00,
2013-02-17 20:24:00,22.1,16.6,29.23,NW,315,0.0,0.0,79,0.00,,,0.00,VWS V14.01,2013-02-18 01:24:00,
2013-02-17 20:27:00,22.1,16.6,29.23,NW,315,0.0,0.0,79,0.00,,,0.00,VWS V14.01,2013-02-18 01:27:00,
2013-02-17 20:29:00,22.1,16.6,29.23,NW,315,0.0,0.0,79,0.00,,,0.00,VWS V14.01,2013-02-18 01:29:00,
2013-02-17 20:32:00,22.1,16.6,29.23,NW,315,0.0,2.7,79,0.00,,,0.00,VWS V14.01,2013-02-18 01:32:00,
2013-02-17 20:34:00,21.9,16.4,29.23,NW,315,4.0,4.0,79,0.00,,,0.00,VWS V14.01,2013-02-18 01:34:00,
2013-02-17 20:37:00,21.9,16.4,29.23,NW,315,0.0,0.0,79,0.00,,,0.00,VWS V14.01,2013-02-18 01:37:00,
2013-02-17 20:39:00,21.9,16.4,29.23,NW,315,0.0,0.0,79,0.00,,,0.00,VWS V14.01,2013-02-18 01:39:00,
2013-02-17 20:42:00,21.9,16.4,29.23,NW,315,0.0,0.0,79,0.00,,,0.00,VWS V14.01,2013-02-18 01:42:00,
2013-02-17 20:44:00,21.9,16.4,29.23,NW,315,3.1,3.6,79,0.00,,,0.00,VWS V14.01,2013-02-18 01:44:00,
2013-02-17 20:47:00,21.9,16.4,29.23,SW,236,2.7,2.7,79,0.00,,,0.00,VWS V14.01,2013-02-18 01:47:00,
2013-02-17 20:49:00,21.9,16.4,29.23,SW,235,2.7,3.1,79,0.00,,,0.00,VWS V14.01,2013-02-18 01:49:00,
2013-02-17 20:50:00,21.9,16.4,29.23,SW,235,2.7,3.1,79,0.00,,,0.00,VWS V14.01,2013-02-18 01:50:00,
2013-02-17 20:52:00,21.9,16.4,29.23,SW,235,3.1,3.1,79,0.00,,,0.00,VWS V14.01,2013-02-18 01:52:00,
2013-02-17 20:54:00,21.9,16.4,29.23,SW,235,2.7,3.6,79,0.00,,,0.00,VWS V14.01,2013-02-18 01:54:00,
2013-02-17 20:55:00,21.9,16.4,29.23,SW,235,2.7,3.6,79,0.00,,,0.00,VWS V14.01,2013-02-18 01:55:00,
2013-02-17 20:57:00,21.9,16.4,29.23,SW,235,2.7,2.7,79,0.00,,,0.00,VWS V14.01,2013-02-18 01:57:00,
2013-02-17 21:00:00,21.7,16.2,29.23,SW,235,3.1,3.6,79,0.00,,,0.00,VWS V14.01,2013-02-18 02:00:00,
2013-02-17 21:02:00,21.7,16.2,29.23,SW,236,2.7,2.7,79,0.00,,,0.00,VWS V14.01,2013-02-18 02:02:00,
2013-02-17 21:03:00,21.7,16.2,29.23,SW,236,4.0,4.0,79,0.00,,,0.00,VWS V14.01,2013-02-18 02:03:00,
2013-02-17 21:05:00,21.7,16.2,29.23,SW,235,0.0,0.0,79,0.00,,,0.00,VWS V14.01,2013-02-18 02:05:00,
2013-02-17 21:07:00,21.7,16.2,29.21,SW,235,0.0,0.0,79,0.00,,,0.00,VWS V14.01,2013-02-18 02:07:00,
2013-02-17 21:08:00,21.7,16.2,29.21,SW,235,0.0,0.0,79,0.00,,,0.00,VWS V14.01,2013-02-18 02:08:00,
2013-02-17 21:10:00,21.7,16.2,29.21,SW,235,3.1,3.1,79,0.00,,,0.00,VWS V14.01,2013-02-18 02:10:00,
2013-02-17 21:13:00,21.6,16.1,29.21,SW,234,0.0,3.1,79,0.00,,,0.00,VWS V14.01,2013-02-18 02:13:00,
2013-02-17 21:15:00,21.6,16.1,29.21,SW,235,2.7,2.7,79,0.00,,,0.00,VWS V14.01,2013-02-18 02:15:00,
2013-02-17 21:18:00,21.6,16.1,29.21,SW,235,3.6,3.6,79,0.00,,,0.00,VWS V14.01,2013-02-18 02:18:00,
2013-02-17 21:20:00,21.6,16.1,29.21,WSW,254,5.4,5.4,79,0.00,,,0.00,VWS V14.01,2013-02-18 02:20:00,
2013-02-17 21:23:00,21.6,16.1,29.21,WSW,252,0.0,4.0,79,0.00,,,0.00,VWS V14.01,2013-02-18 02:23:00,
2013-02-17 21:25:00,21.7,16.2,29.21,WSW,251,2.2,3.6,79,0.00,,,0.00,VWS V14.01,2013-02-18 02:25:00,
2013-02-17 21:28:00,21.6,16.1,29.21,WSW,251,2.2,2.7,79,0.00,,,0.00,VWS V14.01,2013-02-18 02:28:00,
2013-02-17 21:30:00,21.6,16.1,29.21,West,266,3.1,3.6,79,0.00,,,0.00,VWS V14.01,2013-02-18 02:30:00,
2013-02-17 21:33:00,21.7,16.2,29.21,WSW,257,2.2,2.7,79,0.00,,,0.00,VWS V14.01,2013-02-18 02:33:00,
2013-02-17 21:35:00,21.7,16.2,29.23,WSW,258,0.0,3.6,79,0.00,,,0.00,VWS V14.01,2013-02-18 02:35:00,
2013-02-17 21:38:00,21.7,16.2,29.23,WNW,285,3.6,3.6,79,0.00,,,0.00,VWS V14.01,2013-02-18 02:38:00,
2013-02-17 21:40:00,21.7,16.2,29.23,WNW,284,2.7,2.7,79,0.00,,,0.00,VWS V14.01,2013-02-18 02:40:00,
2013-02-17 21:43:00,21.7,16.2,29.23,West,280,2.7,2.7,79,0.00,,,0.00,VWS V14.01,2013-02-18 02:43:00,
2013-02-17 21:45:00,21.7,16.2,29.23,West,278,2.2,2.7,79,0.00,,,0.00,VWS V14.01,2013-02-18 02:45:00,
2013-02-17 21:48:00,21.7,16.2,29.23,WNW,285,2.7,3.1,79,0.00,,,0.00,VWS V14.01,2013-02-18 02:48:00,
2013-02-17 21:49:00,21.7,16.2,29.23,WNW,285,2.7,3.1,79,0.00,,,0.00,VWS V14.01,2013-02-18 02:49:00,
2013-02-17 21:50:00,21.7,16.2,29.23,WNW,285,2.7,3.6,79,0.00,,,0.00,VWS V14.01,2013-02-18 02:50:00,
2013-02-17 21:54:00,21.7,16.2,29.23,WSW,248,2.7,3.6,79,0.00,,,0.00,VWS V14.01,2013-02-18 02:54:00,
2013-02-17 21:55:00,21.7,16.2,29.23,SW,223,0.0,0.0,79,0.00,,,0.00,VWS V14.01,2013-02-18 02:55:00,
2013-02-17 21:56:00,21.7,16.2,29.23,SW,223,2.7,2.7,79,0.00,,,0.00,VWS V14.01,2013-02-18 02:56:00,
2013-02-17 21:59:00,21.7,16.2,29.23,WSW,256,3.1,4.9,79,0.00,,,0.00,VWS V14.01,2013-02-18 02:59:00,
2013-02-17 22:00:00,21.7,16.2,29.23,WSW,256,2.7,2.7,79,0.00,,,0.00,VWS V14.01,2013-02-18 03:00:00,
2013-02-17 22:01:00,21.7,16.2,29.23,West,273,3.6,3.6,79,0.00,,,0.00,VWS V14.01,2013-02-18 03:01:00,
2013-02-17 22:04:00,21.7,16.2,29.23,WSW,241,2.7,2.7,79,0.00,,,0.00,VWS V14.01,2013-02-18 03:04:00,
2013-02-17 22:05:00,21.7,16.2,29.23,WSW,241,3.1,3.1,79,0.00,,,0.00,VWS V14.01,2013-02-18 03:05:00,
2013-02-17 22:06:00,21.7,16.2,29.23,WSW,241,2.7,3.6,79,0.00,,,0.00,VWS V14.01,2013-02-18 03:06:00,
2013-02-17 22:09:00,21.6,16.1,29.23,WSW,242,2.7,2.7,79,0.00,,,0.00,VWS V14.01,2013-02-18 03:09:00,
2013-02-17 22:10:00,21.6,16.1,29.23,WSW,242,0.0,0.0,79,0.00,,,0.00,VWS V14.01,2013-02-18 03:10:00,
2013-02-17 22:11:00,21.6,16.1,29.23,WSW,242,2.7,2.7,79,0.00,,,0.00,VWS V14.01,2013-02-18 03:11:00,
2013-02-17 22:14:00,21.6,16.1,29.23,WSW,242,2.2,2.2,79,0.00,,,0.00,VWS V14.01,2013-02-18 03:14:00,
2013-02-17 22:15:00,21.6,16.1,29.23,WSW,242,2.7,2.7,79,0.00,,,0.00,VWS V14.01,2013-02-18 03:15:00,
2013-02-17 22:16:00,21.6,16.1,29.23,WSW,242,2.2,2.7,79,0.00,,,0.00,VWS V14.01,2013-02-18 03:16:00,
2013-02-17 22:19:00,21.6,16.1,29.23,WSW,243,3.1,3.1,79,0.00,,,0.00,VWS V14.01,2013-02-18 03:19:00,
2013-02-17 22:20:00,21.6,16.1,29.21,WSW,243,2.7,2.7,79,0.00,,,0.00,VWS V14.01,2013-02-18 03:20:00,
2013-02-17 22:21:00,21.6,16.1,29.21,WSW,239,3.6,3.6,79,0.00,,,0.00,VWS V14.01,2013-02-18 03:21:00,
2013-02-17 22:24:00,21.6,16.1,29.21,WSW,241,3.1,3.6,79,0.00,,,0.00,VWS V14.01,2013-02-18 03:24:00,
2013-02-17 22:25:00,21.6,16.1,29.21,WSW,241,3.1,3.1,79,0.00,,,0.00,VWS V14.01,2013-02-18 03:25:00,
2013-02-17 22:26:00,21.6,16.1,29.21,WSW,241,3.1,3.6,79,0.00,,,0.00,VWS V14.01,2013-02-18 03:26:00,
2013-02-17 22:29:00,21.6,16.1,29.21,WSW,243,3.1,3.1,79,0.00,,,0.00,VWS V14.01,2013-02-18 03:29:00,
2013-02-17 22:30:00,21.6,16.1,29.21,WSW,242,3.6,3.6,79,0.00,,,0.00,VWS V14.01,2013-02-18 03:30:00,
2013-02-17 22:31:00,21.6,16.1,29.21,WSW,245,4.0,4.0,79,0.00,,,0.00,VWS V14.01,2013-02-18 03:31:00,
2013-02-17 22:34:00,21.6,16.1,29.21,WSW,245,2.7,3.1,79,0.00,,,0.00,VWS V14.01,2013-02-18 03:34:00,
2013-02-17 22:35:00,21.6,16.1,29.21,WSW,237,2.7,3.1,79,0.00,,,0.00,VWS V14.01,2013-02-18 03:35:00,
2013-02-17 22:36:00,21.6,16.1,29.21,WSW,239,3.1,3.1,79,0.00,,,0.00,VWS V14.01,2013-02-18 03:36:00,
2013-02-17 22:39:00,21.6,16.1,29.21,WSW,239,0.0,2.7,79,0.00,,,0.00,VWS V14.01,2013-02-18 03:39:00,
2013-02-17 22:40:00,21.6,16.4,29.21,WSW,239,0.0,0.0,80,0.00,,,0.00,VWS V14.01,2013-02-18 03:40:00,
2013-02-17 22:41:00,21.6,16.4,29.21,WSW,239,0.0,0.0,80,0.00,,,0.00,VWS V14.01,2013-02-18 03:41:00,
2013-02-17 22:44:00,21.7,16.5,29.21,WSW,239,0.0,0.0,80,0.00,,,0.00,VWS V14.01,2013-02-18 03:44:00,
2013-02-17 22:45:00,21.7,16.5,29.21,WSW,239,0.0,0.0,80,0.00,,,0.00,VWS V14.01,2013-02-18 03:45:00,
2013-02-17 22:46:00,21.7,16.5,29.21,WSW,237,3.6,3.6,80,0.00,,,0.00,VWS V14.01,2013-02-18 03:46:00,
2013-02-17 22:49:00,21.7,16.5,29.21,WSW,237,3.6,3.6,80,0.00,,,0.00,VWS V14.01,2013-02-18 03:49:00,
2013-02-17 22:50:00,21.7,16.5,29.21,WSW,237,3.6,3.6,80,0.00,,,0.00,VWS V14.01,2013-02-18 03:50:00,
2013-02-17 22:52:00,21.9,16.7,29.21,WSW,243,3.6,3.6,80,0.00,,,0.00,VWS V14.01,2013-02-18 03:52:00,
2013-02-17 22:54:00,21.9,16.7,29.21,WSW,242,2.7,2.7,80,0.00,,,0.00,VWS V14.01,2013-02-18 03:54:00,
2013-02-17 22:55:00,21.9,16.7,29.21,WSW,242,2.7,2.7,80,0.00,,,0.00,VWS V14.01,2013-02-18 03:55:00,
2013-02-17 22:56:00,21.9,16.7,29.21,SW,227,2.7,2.7,80,0.00,,,0.00,VWS V14.01,2013-02-18 03:56:00,
2013-02-17 22:57:00,21.9,16.7,29.21,SW,227,2.7,2.7,80,0.00,,,0.00,VWS V14.01,2013-02-18 03:57:00,
2013-02-17 22:59:00,21.9,16.7,29.21,SW,217,3.1,3.1,80,0.00,,,0.00,VWS V14.01,2013-02-18 03:59:00,
2013-02-17 23:00:00,21.9,16.7,29.21,SW,217,3.1,3.1,80,0.00,,,0.00,VWS V14.01,2013-02-18 04:00:00,
2013-02-17 23:01:00,21.9,16.7,29.21,SW,217,3.1,3.1,80,0.00,,,0.00,VWS V14.01,2013-02-18 04:01:00,
2013-02-17 23:02:00,21.9,16.7,29.21,SW,217,3.1,3.1,80,0.00,,,0.00,VWS V14.01,2013-02-18 04:02:00,
2013-02-17 23:05:00,22.1,16.9,29.21,West,278,2.2,2.2,80,0.00,,,0.00,VWS V14.01,2013-02-18 04:05:00,
2013-02-17 23:06:00,22.1,16.9,29.21,West,278,2.2,2.2,80,0.00,,,0.00,VWS V14.01,2013-02-18 04:06:00,
2013-02-17 23:07:00,22.1,16.9,29.18,West,278,2.2,2.2,80,0.00,,,0.00,VWS V14.01,2013-02-18 04:07:00,
2013-02-17 23:10:00,22.1,16.9,29.18,West,278,2.2,2.2,80,0.00,,,0.00,VWS V14.01,2013-02-18 04:10:00,
2013-02-17 23:11:00,22.1,16.9,29.18,West,278,2.2,2.2,80,0.00,,,0.00,VWS V14.01,2013-02-18 04:11:00,
2013-02-17 23:12:00,22.1,16.9,29.18,West,278,2.2,2.2,80,0.00,,,0.00,VWS V14.01,2013-02-18 04:12:00,
2013-02-17 23:15:00,22.5,17.2,29.18,WSW,238,2.2,2.2,80,0.00,,,0.00,VWS V14.01,2013-02-18 04:15:00,
2013-02-17 23:16:00,22.5,17.2,29.18,WSW,238,2.2,2.2,80,0.00,,,0.00,VWS V14.01,2013-02-18 04:16:00,
2013-02-17 23:17:00,22.5,17.2,29.18,WSW,238,2.2,2.2,80,0.00,,,0.00,VWS V14.01,2013-02-18 04:17:00,
2013-02-17 23:20:00,22.6,17.4,29.21,West,267,4.9,4.9,80,0.00,,,0.00,VWS V14.01,2013-02-18 04:20:00,
2013-02-17 23:21:00,22.6,17.4,29.21,West,267,4.9,4.9,80,0.00,,,0.00,VWS V14.01,2013-02-18 04:21:00,
2013-02-17 23:22:00,22.6,17.4,29.21,West,279,5.4,5.4,80,0.00,,,0.00,VWS V14.01,2013-02-18 04:22:00,
2013-02-17 23:25:00,22.6,17.4,29.21,NW,305,3.6,3.6,80,0.00,,,0.00,VWS V14.01,2013-02-18 04:25:00,
2013-02-17 23:26:00,22.6,17.4,29.21,West,275,3.6,3.6,80,0.00,,,0.00,VWS V14.01,2013-02-18 04:26:00,
2013-02-17 23:27:00,22.6,17.4,29.21,WNW,291,3.6,3.6,80,0.00,,,0.00,VWS V14.01,2013-02-18 04:27:00,
2013-02-17 23:30:00,22.6,17.4,29.21,West,260,5.8,5.8,80,0.00,,,0.00,VWS V14.01,2013-02-18 04:30:00,
2013-02-17 23:31:00,22.6,17.4,29.21,West,260,5.8,5.8,80,0.00,,,0.00,VWS V14.01,2013-02-18 04:31:00,
2013-02-17 23:32:00,23.2,17.6,29.21,West,260,5.8,5.8,79,0.00,,,0.00,VWS V14.01,2013-02-18 04:32:00,
2013-02-17 23:35:00,23.2,17.6,29.21,West,260,5.8,5.8,79,0.00,,,0.00,VWS V14.01,2013-02-18 04:35:00,
2013-02-17 23:36:00,23.2,17.6,29.21,West,260,5.8,5.8,79,0.00,,,0.00,VWS V14.01,2013-02-18 04:36:00,
2013-02-17 23:37:00,23.2,17.6,29.21,West,260,5.8,5.8,79,0.00,,,0.00,VWS V14.01,2013-02-18 04:37:00,
2013-02-17 23:41:00,23.4,17.8,29.21,West,260,4.0,4.0,79,0.00,,,0.00,VWS V14.01,2013-02-18 04:41:00,
2013-02-17 23:42:00,23.4,17.8,29.21,West,260,4.0,4.0,79,0.00,,,0.00,VWS V14.01,2013-02-18 04:42:00,
2013-02-17 23:46:00,23.4,17.8,29.21,West,278,2.7,3.6,79,0.00,,,0.00,VWS V14.01,2013-02-18 04:46:00,
2013-02-17 23:47:00,23.4,17.8,29.21,West,278,2.7,2.7,79,0.00,,,0.00,VWS V14.01,2013-02-18 04:47:00,
2013-02-17 23:51:00,23.4,17.8,29.21,West,278,2.7,2.7,79,0.00,,,0.00,VWS V14.01,2013-02-18 04:51:00,
2013-02-17 23:52:00,23.4,17.8,29.21,West,278,2.7,2.7,79,0.00,,,0.00,VWS V14.01,2013-02-18 04:52:00,
2013-02-17 23:56:00,23.4,17.8,29.21,West,272,0.0,5.4,79,0.00,,,0.00,VWS V14.01,2013-02-18 04:56:00,
2013-02-17 23:57:00,23.4,17.8,29.21,WNW,293,4.0,4.0,79,0.00,,,0.00,VWS V14.01,2013-02-18 04:57:00,
2013-02-17 23:58:00,23.4,17.8,29.21,WNW,292,3.6,4.0,79,0.00,,,0.00,VWS V14.01,2013-02-18 04:58:00,